PWSweather.com
Personal Weather Stations
Station Observations
TMASSANO
Herbertsville, Brick, NJ 08724

HerbertsvilleBrick, NJ 08724

Lat: 40.098, Lon: -74.096

Elevation: 16

Station Type: WS 2800

Latest ConditionsUpdated 2:13:42 PM EST Friday, Dec 9, 2016
Currently Today's Max Today's Min Today's Average
Temperature 38.7°F3.7°C 41.9°F5.5°C 29.1°F-1.6°C 32.8°F0.4°C
Dew Point 21.2°F-6.0°C 25.1°F-3.8°C 18.1°F-7.7°C 20.7°F-6.3°C
Winds 2.7 mph WNW4.3 kmh WNW 19.7 mph NNW31.7 kmh NNW - 3.4 mph 5.5 kmh
Wind Gusts 15.5 mph24.9 kmh 19.7 mph31.7 kmh - -
Humidity 49% 69% 48% 61%
Pressure 30.15 in1021.0 mb 30.17 in1021.7 mb 30.05 in1017.6 mb -
Precipitation - 0.13 in3.3 mm - -
Hour Temp Dew Point Humidity Winds Wind Gusts Pressure Precip Precip Rate Daily Precip Total
02:13 PM 38.7°F3.7°C 21.2°F-6.0°C 49% 8.3 mph W13.4 kmh W 15.5 mph24.9 kmh 30.15 in1021.0 mb 0.00 in0.0 mm 0.00 in0.0 mm 0.13 in3.3 mm
02:12 PM 38.7°F3.7°C 21.2°F-6.0°C 49% 7.3 mph WNW11.7 kmh WNW 15.5 mph24.9 kmh 30.15 in1021.0 mb 0.00 in0.0 mm 0.00 in0.0 mm 0.13 in3.3 mm
02:11 PM 38.7°F3.7°C 21.2°F-6.0°C 49% 5.8 mph W9.3 kmh W 15.5 mph24.9 kmh 30.15 in1021.0 mb 0.00 in0.0 mm 0.00 in0.0 mm 0.13 in3.3 mm
02:10 PM 38.5°F3.6°C 21.0°F-6.1°C 49% Calm Calm 15.5 mph24.9 kmh 30.15 in1021.0 mb 0.00 in0.0 mm 0.00 in0.0 mm 0.13 in3.3 mm
02:09 PM 38.5°F3.6°C 21.0°F-6.1°C 49% Calm Calm 15.5 mph24.9 kmh 30.15 in1021.0 mb 0.00 in0.0 mm 0.00 in0.0 mm 0.13 in3.3 mm
02:08 PM 38.7°F3.7°C 20.7°F-6.3°C 48% 11.4 mph WNW18.3 kmh WNW 15.5 mph24.9 kmh 30.15 in1021.0 mb 0.00 in0.0 mm 0.00 in0.0 mm 0.13 in3.3 mm
02:07 PM 39.0°F3.9°C 21.0°F-6.1°C 48% 1.1 mph NW1.8 kmh NW 15.5 mph24.9 kmh 30.15 in1021.0 mb 0.00 in0.0 mm 0.00 in0.0 mm 0.13 in3.3 mm
02:06 PM 39.4°F4.1°C 21.4°F-5.9°C 48% 6.3 mph WNW10.1 kmh WNW 15.5 mph24.9 kmh 30.15 in1021.0 mb 0.00 in0.0 mm 0.00 in0.0 mm 0.13 in3.3 mm
02:05 PM 39.6°F4.2°C 22.0°F-5.6°C 49% 15.5 mph WNW24.9 kmh WNW 15.5 mph24.9 kmh 30.15 in1021.0 mb 0.00 in0.0 mm 0.00 in0.0 mm 0.13 in3.3 mm
02:04 PM 39.6°F4.2°C 22.0°F-5.6°C 49% Calm Calm 10.9 mph17.5 kmh 30.15 in1021.0 mb 0.00 in0.0 mm 0.00 in0.0 mm 0.13 in3.3 mm
02:03 PM 39.6°F4.2°C 21.5°F-5.8°C 48% 3.2 mph WNW5.1 kmh WNW 10.9 mph17.5 kmh 30.15 in1021.0 mb 0.00 in0.0 mm 0.00 in0.0 mm 0.13 in3.3 mm
02:02 PM 39.7°F4.3°C 21.6°F-5.8°C 48% Calm Calm 10.9 mph17.5 kmh 30.15 in1021.0 mb 0.00 in0.0 mm 0.00 in0.0 mm 0.13 in3.3 mm
02:01 PM 39.7°F4.3°C 22.1°F-5.5°C 49% Calm Calm 11.9 mph19.2 kmh 30.15 in1021.0 mb 0.00 in0.0 mm 0.00 in0.0 mm 0.13 in3.3 mm
02:00 PM 39.6°F4.2°C 22.0°F-5.6°C 49% Calm Calm 15.0 mph24.1 kmh 30.15 in1021.0 mb 0.00 in0.0 mm 0.00 in0.0 mm 0.13 in3.3 mm
01:59 PM 39.6°F4.2°C 22.0°F-5.6°C 49% Calm Calm 15.0 mph24.1 kmh 30.15 in1021.0 mb 0.00 in0.0 mm 0.00 in0.0 mm 0.13 in3.3 mm
01:58 PM 39.6°F4.2°C 22.0°F-5.6°C 49% 1.1 mph W1.8 kmh W 15.0 mph24.1 kmh 30.15 in1021.0 mb 0.00 in0.0 mm 0.00 in0.0 mm 0.13 in3.3 mm
01:57 PM 39.4°F4.1°C 21.8°F-5.7°C 49% Calm Calm 15.0 mph24.1 kmh 30.15 in1021.0 mb 0.00 in0.0 mm 0.00 in0.0 mm 0.13 in3.3 mm
01:56 PM 39.4°F4.1°C 21.8°F-5.7°C 49% Calm Calm 15.0 mph24.1 kmh 30.15 in1021.0 mb 0.00 in0.0 mm 0.00 in0.0 mm 0.13 in3.3 mm
01:55 PM 39.2°F4.0°C 22.1°F-5.5°C 50% Calm Calm 15.0 mph24.1 kmh 30.15 in1021.0 mb 0.00 in0.0 mm 0.00 in0.0 mm 0.13 in3.3 mm
01:54 PM 39.0°F3.9°C 22.0°F-5.6°C 50% Calm Calm 15.0 mph24.1 kmh 30.15 in1021.0 mb 0.00 in0.0 mm 0.00 in0.0 mm 0.13 in3.3 mm
01:53 PM 38.8°F3.8°C 21.8°F-5.7°C 50% 1.7 mph NW2.7 kmh NW 15.0 mph24.1 kmh 30.15 in1021.0 mb 0.00 in0.0 mm 0.00 in0.0 mm 0.13 in3.3 mm
01:52 PM 38.7°F3.7°C 21.7°F-5.7°C 50% 7.8 mph W12.6 kmh W 15.0 mph24.1 kmh 30.15 in1021.0 mb 0.00 in0.0 mm 0.00 in0.0 mm 0.13 in3.3 mm
01:51 PM 38.7°F3.7°C 21.7°F-5.7°C 50% 11.9 mph NNW19.2 kmh NNW 15.0 mph24.1 kmh 30.15 in1021.0 mb 0.00 in0.0 mm 0.00 in0.0 mm 0.13 in3.3 mm
01:50 PM 38.7°F3.7°C 21.7°F-5.7°C 50% Calm Calm 14.5 mph23.3 kmh 30.15 in1021.0 mb 0.00 in0.0 mm 0.00 in0.0 mm 0.13 in3.3 mm
01:49 PM 38.7°F3.7°C 21.7°F-5.7°C 50% 10.4 mph WNW16.7 kmh WNW 14.5 mph23.3 kmh 30.15 in1021.0 mb 0.00 in0.0 mm 0.00 in0.0 mm 0.13 in3.3 mm
01:48 PM 38.7°F3.7°C 22.1°F-5.5°C 51% 4.7 mph W7.6 kmh W 14.5 mph23.3 kmh 30.14 in1020.7 mb 0.00 in0.0 mm 0.00 in0.0 mm 0.13 in3.3 mm
01:47 PM 38.7°F3.7°C 22.1°F-5.5°C 51% Calm Calm 14.5 mph23.3 kmh 30.14 in1020.7 mb 0.00 in0.0 mm 0.00 in0.0 mm 0.13 in3.3 mm
01:46 PM 38.5°F3.6°C 22.0°F-5.6°C 51% Calm Calm 14.5 mph23.3 kmh 30.14 in1020.7 mb 0.00 in0.0 mm 0.00 in0.0 mm 0.13 in3.3 mm
01:45 PM 38.3°F3.5°C 21.8°F-5.7°C 51% 10.4 mph WNW16.7 kmh WNW 14.5 mph23.3 kmh 30.14 in1020.7 mb 0.00 in0.0 mm 0.00 in0.0 mm 0.13 in3.3 mm
01:44 PM 38.3°F3.5°C 21.8°F-5.7°C 51% 14.0 mph NW22.5 kmh NW 14.5 mph23.3 kmh 30.14 in1020.7 mb 0.00 in0.0 mm 0.00 in0.0 mm 0.13 in3.3 mm
01:43 PM 38.3°F3.5°C 21.8°F-5.7°C 51% Calm Calm 14.5 mph23.3 kmh 30.14 in1020.7 mb 0.00 in0.0 mm 0.00 in0.0 mm 0.13 in3.3 mm
01:42 PM 38.3°F3.5°C 21.8°F-5.7°C 51% Calm Calm 14.5 mph23.3 kmh 30.14 in1020.7 mb 0.00 in0.0 mm 0.00 in0.0 mm 0.13 in3.3 mm
01:41 PM 38.3°F3.5°C 21.8°F-5.7°C 51% 4.2 mph WNW6.8 kmh WNW 14.0 mph22.5 kmh 30.14 in1020.7 mb 0.00 in0.0 mm 0.00 in0.0 mm 0.13 in3.3 mm
01:40 PM 38.3°F3.5°C 22.2°F-5.4°C 52% 14.0 mph NW22.5 kmh NW 14.0 mph22.5 kmh 30.14 in1020.7 mb 0.00 in0.0 mm 0.00 in0.0 mm 0.13 in3.3 mm
01:39 PM 38.3°F3.5°C 22.2°F-5.4°C 52% 3.2 mph NNW5.1 kmh NNW 10.9 mph17.5 kmh 30.14 in1020.7 mb 0.00 in0.0 mm 0.00 in0.0 mm 0.13 in3.3 mm
01:38 PM 38.3°F3.5°C 22.2°F-5.4°C 52% Calm Calm 14.0 mph22.5 kmh 30.14 in1020.7 mb 0.00 in0.0 mm 0.00 in0.0 mm 0.13 in3.3 mm
01:37 PM 38.3°F3.5°C 22.2°F-5.4°C 52% Calm Calm 14.0 mph22.5 kmh 30.14 in1020.7 mb 0.00 in0.0 mm 0.00 in0.0 mm 0.13 in3.3 mm
01:36 PM 38.3°F3.5°C 22.2°F-5.4°C 52% Calm Calm 14.0 mph22.5 kmh 30.14 in1020.7 mb 0.00 in0.0 mm 0.00 in0.0 mm 0.13 in3.3 mm
01:35 PM 38.3°F3.5°C 22.2°F-5.4°C 52% 2.2 mph WSW3.5 kmh WSW 14.0 mph22.5 kmh 30.14 in1020.7 mb 0.00 in0.0 mm 0.00 in0.0 mm 0.13 in3.3 mm
01:34 PM 38.3°F3.5°C 22.2°F-5.4°C 52% 2.2 mph NNW3.5 kmh NNW 14.0 mph22.5 kmh 30.14 in1020.7 mb 0.00 in0.0 mm 0.00 in0.0 mm 0.13 in3.3 mm
01:33 PM 38.3°F3.5°C 22.2°F-5.4°C 52% 1.1 mph NW1.8 kmh NW 14.0 mph22.5 kmh 30.14 in1020.7 mb 0.00 in0.0 mm 0.00 in0.0 mm 0.13 in3.3 mm
01:32 PM 38.3°F3.5°C 22.2°F-5.4°C 52% Calm Calm 15.0 mph24.1 kmh 30.14 in1020.7 mb 0.00 in0.0 mm 0.00 in0.0 mm 0.13 in3.3 mm
01:31 PM 38.3°F3.5°C 22.2°F-5.4°C 52% 10.9 mph WNW17.5 kmh WNW 15.0 mph24.1 kmh 30.14 in1020.7 mb 0.00 in0.0 mm 0.00 in0.0 mm 0.13 in3.3 mm
01:30 PM 38.3°F3.5°C 22.2°F-5.4°C 52% 10.9 mph WNW17.5 kmh WNW 15.0 mph24.1 kmh 30.14 in1020.7 mb 0.00 in0.0 mm 0.00 in0.0 mm 0.13 in3.3 mm
01:29 PM 38.3°F3.5°C 22.2°F-5.4°C 52% 5.8 mph WNW9.3 kmh WNW 15.0 mph24.1 kmh 30.14 in1020.7 mb 0.00 in0.0 mm 0.00 in0.0 mm 0.13 in3.3 mm
01:28 PM 38.3°F3.5°C 22.2°F-5.4°C 52% 14.0 mph WNW22.5 kmh WNW 15.0 mph24.1 kmh 30.14 in1020.7 mb 0.00 in0.0 mm 0.00 in0.0 mm 0.13 in3.3 mm
01:27 PM 38.3°F3.5°C 21.8°F-5.7°C 51% 5.3 mph NNW8.5 kmh NNW 15.0 mph24.1 kmh 30.14 in1020.7 mb 0.00 in0.0 mm 0.00 in0.0 mm 0.13 in3.3 mm
01:26 PM 38.3°F3.5°C 21.8°F-5.7°C 51% 10.9 mph WNW17.5 kmh WNW 15.0 mph24.1 kmh 30.14 in1020.7 mb 0.00 in0.0 mm 0.00 in0.0 mm 0.13 in3.3 mm
01:25 PM 38.3°F3.5°C 21.8°F-5.7°C 51% 8.9 mph NNW14.3 kmh NNW 15.0 mph24.1 kmh 30.14 in1020.7 mb 0.00 in0.0 mm 0.00 in0.0 mm 0.13 in3.3 mm
01:24 PM 38.3°F3.5°C 21.8°F-5.7°C 51% 10.9 mph W17.5 kmh W 15.0 mph24.1 kmh 30.14 in1020.7 mb 0.00 in0.0 mm 0.00 in0.0 mm 0.13 in3.3 mm
01:23 PM 38.3°F3.5°C 21.8°F-5.7°C 51% 9.4 mph NW15.1 kmh NW 15.0 mph24.1 kmh 30.14 in1020.7 mb 0.00 in0.0 mm 0.00 in0.0 mm 0.13 in3.3 mm
01:22 PM 38.5°F3.6°C 22.0°F-5.6°C 51% 6.8 mph W10.9 kmh W 13.0 mph20.9 kmh 30.14 in1020.7 mb 0.00 in0.0 mm 0.00 in0.0 mm 0.13 in3.3 mm
01:21 PM 38.7°F3.7°C 22.1°F-5.5°C 51% 8.3 mph NNW13.4 kmh NNW 13.0 mph20.9 kmh 30.14 in1020.7 mb 0.00 in0.0 mm 0.00 in0.0 mm 0.13 in3.3 mm
01:20 PM 38.8°F3.8°C 22.2°F-5.4°C 51% 2.2 mph NW3.5 kmh NW 19.1 mph30.7 kmh 30.14 in1020.7 mb 0.00 in0.0 mm 0.00 in0.0 mm 0.13 in3.3 mm
01:19 PM 38.8°F3.8°C 21.8°F-5.7°C 50% 1.1 mph WNW1.8 kmh WNW 19.1 mph30.7 kmh 30.14 in1020.7 mb 0.00 in0.0 mm 0.00 in0.0 mm 0.13 in3.3 mm
01:18 PM 38.8°F3.8°C 21.8°F-5.7°C 50% 7.8 mph NNW12.6 kmh NNW 19.1 mph30.7 kmh 30.14 in1020.7 mb 0.00 in0.0 mm 0.00 in0.0 mm 0.13 in3.3 mm
01:17 PM 39.2°F4.0°C 22.1°F-5.5°C 50% 10.9 mph WSW17.5 kmh WSW 19.1 mph30.7 kmh 30.14 in1020.7 mb 0.00 in0.0 mm 0.00 in0.0 mm 0.13 in3.3 mm
01:16 PM 39.2°F4.0°C 22.1°F-5.5°C 50% 4.2 mph W6.8 kmh W 19.1 mph30.7 kmh 30.14 in1020.7 mb 0.00 in0.0 mm 0.00 in0.0 mm 0.13 in3.3 mm
01:15 PM 39.2°F4.0°C 22.1°F-5.5°C 50% 10.4 mph WSW16.7 kmh WSW 19.1 mph30.7 kmh 30.14 in1020.7 mb 0.00 in0.0 mm 0.00 in0.0 mm 0.13 in3.3 mm
01:14 PM 39.0°F3.9°C 22.0°F-5.6°C 50% 9.9 mph NW15.9 kmh NW 19.1 mph30.7 kmh 30.14 in1020.7 mb 0.00 in0.0 mm 0.00 in0.0 mm 0.13 in3.3 mm
01:13 PM 38.8°F3.8°C 21.8°F-5.7°C 50% 6.8 mph N10.9 kmh N 19.1 mph30.7 kmh 30.14 in1020.7 mb 0.00 in0.0 mm 0.00 in0.0 mm 0.13 in3.3 mm
01:12 PM 38.8°F3.8°C 21.8°F-5.7°C 50% Calm Calm 19.1 mph30.7 kmh 30.14 in1020.7 mb 0.00 in0.0 mm 0.00 in0.0 mm 0.13 in3.3 mm
01:11 PM 39.0°F3.9°C 22.0°F-5.6°C 50% 13.0 mph NNW20.9 kmh NNW 19.1 mph30.7 kmh 30.14 in1020.7 mb 0.00 in0.0 mm 0.00 in0.0 mm 0.13 in3.3 mm
01:10 PM 39.2°F4.0°C 22.1°F-5.5°C 50% 6.8 mph NNE10.9 kmh NNE 11.9 mph19.2 kmh 30.14 in1020.7 mb 0.00 in0.0 mm 0.00 in0.0 mm 0.13 in3.3 mm
01:09 PM 39.0°F3.9°C 22.0°F-5.6°C 50% 7.3 mph WNW11.7 kmh WNW 13.5 mph21.7 kmh 30.14 in1020.7 mb 0.00 in0.0 mm 0.00 in0.0 mm 0.13 in3.3 mm
01:08 PM 38.8°F3.8°C 21.8°F-5.7°C 50% 8.9 mph NW14.3 kmh NW 13.5 mph21.7 kmh 30.14 in1020.7 mb 0.00 in0.0 mm 0.00 in0.0 mm 0.13 in3.3 mm
01:07 PM 38.8°F3.8°C 21.8°F-5.7°C 50% 7.3 mph NW11.7 kmh NW 13.5 mph21.7 kmh 30.14 in1020.7 mb 0.00 in0.0 mm 0.00 in0.0 mm 0.13 in3.3 mm
01:06 PM 38.8°F3.8°C 21.8°F-5.7°C 50% 10.9 mph WNW17.5 kmh WNW 13.5 mph21.7 kmh 30.14 in1020.7 mb 0.00 in0.0 mm 0.00 in0.0 mm 0.13 in3.3 mm
01:05 PM 38.8°F3.8°C 21.8°F-5.7°C 50% 9.9 mph W15.9 kmh W 13.5 mph21.7 kmh 30.14 in1020.7 mb 0.00 in0.0 mm 0.00 in0.0 mm 0.13 in3.3 mm
01:04 PM 38.8°F3.8°C 21.8°F-5.7°C 50% 11.9 mph WNW19.2 kmh WNW 13.5 mph21.7 kmh 30.14 in1020.7 mb 0.00 in0.0 mm 0.00 in0.0 mm 0.13 in3.3 mm
01:03 PM 38.8°F3.8°C 21.8°F-5.7°C 50% 6.8 mph NW10.9 kmh NW 13.5 mph21.7 kmh 30.14 in1020.7 mb 0.00 in0.0 mm 0.00 in0.0 mm 0.13 in3.3 mm
01:02 PM 38.8°F3.8°C 21.8°F-5.7°C 50% 7.8 mph WNW12.6 kmh WNW 14.0 mph22.5 kmh 30.14 in1020.7 mb 0.00 in0.0 mm 0.00 in0.0 mm 0.13 in3.3 mm
01:01 PM 39.0°F3.9°C 22.0°F-5.6°C 50% 10.9 mph NW17.5 kmh NW 14.0 mph22.5 kmh 30.14 in1020.7 mb 0.00 in0.0 mm 0.00 in0.0 mm 0.13 in3.3 mm
01:00 PM 41.8°F5.4°C 24.5°F-4.2°C 50% 9.4 mph NW15.1 kmh NW 14.0 mph22.5 kmh 30.14 in1020.7 mb 0.00 in0.0 mm 0.00 in0.0 mm 0.13 in3.3 mm
12:59 PM 39.0°F3.9°C 22.0°F-5.6°C 50% 11.9 mph NW19.2 kmh NW 14.0 mph22.5 kmh 30.14 in1020.7 mb 0.00 in0.0 mm 0.00 in0.0 mm 0.13 in3.3 mm
12:58 PM 39.0°F3.9°C 22.0°F-5.6°C 50% 8.3 mph WNW13.4 kmh WNW 14.0 mph22.5 kmh 30.14 in1020.7 mb 0.00 in0.0 mm 0.00 in0.0 mm 0.13 in3.3 mm
12:57 PM 39.0°F3.9°C 22.0°F-5.6°C 50% 10.9 mph WNW17.5 kmh WNW 14.0 mph22.5 kmh 30.14 in1020.7 mb 0.00 in0.0 mm 0.00 in0.0 mm 0.13 in3.3 mm
12:56 PM 39.2°F4.0°C 22.1°F-5.5°C 50% 10.4 mph NW16.7 kmh NW 14.0 mph22.5 kmh 30.14 in1020.7 mb 0.00 in0.0 mm 0.00 in0.0 mm 0.13 in3.3 mm
12:55 PM 39.2°F4.0°C 22.1°F-5.5°C 50% 7.3 mph WNW11.7 kmh WNW 14.0 mph22.5 kmh 30.14 in1020.7 mb 0.00 in0.0 mm 0.00 in0.0 mm 0.13 in3.3 mm
12:54 PM 39.2°F4.0°C 22.1°F-5.5°C 50% 11.4 mph W18.3 kmh W 14.0 mph22.5 kmh 30.14 in1020.7 mb 0.00 in0.0 mm 0.00 in0.0 mm 0.13 in3.3 mm
12:53 PM 39.4°F4.1°C 22.8°F-5.1°C 51% 7.8 mph W12.6 kmh W 14.0 mph22.5 kmh 30.14 in1020.7 mb 0.00 in0.0 mm 0.00 in0.0 mm 0.13 in3.3 mm
12:52 PM 41.9°F5.5°C 25.1°F-3.8°C 51% 14.0 mph NNW22.5 kmh NNW 14.0 mph22.5 kmh 30.14 in1020.7 mb 0.00 in0.0 mm 0.00 in0.0 mm 0.13 in3.3 mm
12:51 PM 39.4°F4.1°C 22.8°F-5.1°C 51% 9.9 mph NNW15.9 kmh NNW 10.9 mph17.5 kmh 30.14 in1020.7 mb 0.00 in0.0 mm 0.00 in0.0 mm 0.13 in3.3 mm
12:50 PM 39.2°F4.0°C 22.6°F-5.2°C 51% 4.2 mph NW6.8 kmh NW 10.9 mph17.5 kmh 30.14 in1020.7 mb 0.00 in0.0 mm 0.00 in0.0 mm 0.13 in3.3 mm
12:49 PM 39.2°F4.0°C 22.6°F-5.2°C 51% 6.3 mph NW10.1 kmh NW 10.9 mph17.5 kmh 30.14 in1020.7 mb 0.00 in0.0 mm 0.00 in0.0 mm 0.13 in3.3 mm
12:48 PM 38.8°F3.8°C 22.2°F-5.4°C 51% 6.3 mph W10.1 kmh W 10.9 mph17.5 kmh 30.14 in1020.7 mb 0.00 in0.0 mm 0.00 in0.0 mm 0.13 in3.3 mm
12:47 PM 38.8°F3.8°C 22.2°F-5.4°C 51% 9.9 mph NNW15.9 kmh NNW 10.9 mph17.5 kmh 30.14 in1020.7 mb 0.00 in0.0 mm 0.00 in0.0 mm 0.13 in3.3 mm
12:46 PM 38.7°F3.7°C 22.1°F-5.5°C 51% 10.9 mph WNW17.5 kmh WNW 11.9 mph19.2 kmh 30.14 in1020.7 mb 0.00 in0.0 mm 0.00 in0.0 mm 0.13 in3.3 mm
12:45 PM 38.7°F3.7°C 22.1°F-5.5°C 51% 8.3 mph NNE13.4 kmh NNE 12.5 mph20.1 kmh 30.14 in1020.7 mb 0.00 in0.0 mm 0.00 in0.0 mm 0.13 in3.3 mm
12:44 PM 38.5°F3.6°C 22.0°F-5.6°C 51% 8.3 mph W13.4 kmh W 12.5 mph20.1 kmh 30.14 in1020.7 mb 0.00 in0.0 mm 0.00 in0.0 mm 0.13 in3.3 mm
12:43 PM 38.5°F3.6°C 22.0°F-5.6°C 51% 9.9 mph NNW15.9 kmh NNW 14.0 mph22.5 kmh 30.14 in1020.7 mb 0.00 in0.0 mm 0.00 in0.0 mm 0.13 in3.3 mm
12:42 PM 38.7°F3.7°C 22.1°F-5.5°C 51% 5.3 mph ENE8.5 kmh ENE 14.0 mph22.5 kmh 30.14 in1020.7 mb 0.00 in0.0 mm 0.00 in0.0 mm 0.13 in3.3 mm
12:41 PM 38.7°F3.7°C 22.1°F-5.5°C 51% 7.3 mph WNW11.7 kmh WNW 14.0 mph22.5 kmh 30.14 in1020.7 mb 0.00 in0.0 mm 0.00 in0.0 mm 0.13 in3.3 mm
12:40 PM 38.5°F3.6°C 22.0°F-5.6°C 51% 5.8 mph N9.3 kmh N 14.0 mph22.5 kmh 30.14 in1020.7 mb 0.00 in0.0 mm 0.00 in0.0 mm 0.13 in3.3 mm
12:39 PM 38.5°F3.6°C 22.0°F-5.6°C 51% 8.9 mph W14.3 kmh W 14.0 mph22.5 kmh 30.14 in1020.7 mb 0.00 in0.0 mm 0.00 in0.0 mm 0.13 in3.3 mm
12:38 PM 38.3°F3.5°C 21.8°F-5.7°C 51% 8.3 mph WNW13.4 kmh WNW 14.0 mph22.5 kmh 30.14 in1020.7 mb 0.00 in0.0 mm 0.00 in0.0 mm 0.13 in3.3 mm
12:37 PM 38.3°F3.5°C 21.8°F-5.7°C 51% 4.7 mph N7.6 kmh N 14.0 mph22.5 kmh 30.14 in1020.7 mb 0.00 in0.0 mm 0.00 in0.0 mm 0.13 in3.3 mm
12:36 PM 38.5°F3.6°C 22.0°F-5.6°C 51% 12.5 mph WNW20.1 kmh WNW 14.0 mph22.5 kmh 30.14 in1020.7 mb 0.00 in0.0 mm 0.00 in0.0 mm 0.13 in3.3 mm
12:35 PM 38.5°F3.6°C 22.0°F-5.6°C 51% 5.8 mph WNW9.3 kmh WNW 14.0 mph22.5 kmh 30.14 in1020.7 mb 0.00 in0.0 mm 0.00 in0.0 mm 0.13 in3.3 mm
12:34 PM 38.5°F3.6°C 22.0°F-5.6°C 51% 10.9 mph WNW17.5 kmh WNW 14.0 mph22.5 kmh 30.14 in1020.7 mb 0.00 in0.0 mm 0.00 in0.0 mm 0.13 in3.3 mm
12:33 PM 38.7°F3.7°C 22.1°F-5.5°C 51% 11.4 mph NW18.3 kmh NW 13.5 mph21.7 kmh 30.14 in1020.7 mb 0.00 in0.0 mm 0.00 in0.0 mm 0.13 in3.3 mm
12:32 PM 38.7°F3.7°C 22.1°F-5.5°C 51% 7.3 mph W11.7 kmh W 13.5 mph21.7 kmh 30.14 in1020.7 mb 0.00 in0.0 mm 0.00 in0.0 mm 0.13 in3.3 mm
12:31 PM 38.7°F3.7°C 22.1°F-5.5°C 51% 9.9 mph W15.9 kmh W 13.5 mph21.7 kmh 30.14 in1020.7 mb 0.00 in0.0 mm 0.00 in0.0 mm 0.13 in3.3 mm
12:30 PM 38.7°F3.7°C 22.1°F-5.5°C 51% 9.9 mph WNW15.9 kmh WNW 13.5 mph21.7 kmh 30.14 in1020.7 mb 0.00 in0.0 mm 0.00 in0.0 mm 0.13 in3.3 mm
12:29 PM 38.7°F3.7°C 22.1°F-5.5°C 51% 7.3 mph W11.7 kmh W 13.5 mph21.7 kmh 30.14 in1020.7 mb 0.00 in0.0 mm 0.00 in0.0 mm 0.13 in3.3 mm
12:28 PM 38.7°F3.7°C 22.1°F-5.5°C 51% 5.3 mph NW8.5 kmh NW 13.5 mph21.7 kmh 30.14 in1020.7 mb 0.00 in0.0 mm 0.00 in0.0 mm 0.13 in3.3 mm
12:27 PM 38.7°F3.7°C 22.1°F-5.5°C 51% 5.3 mph W8.5 kmh W 13.5 mph21.7 kmh 30.14 in1020.7 mb 0.00 in0.0 mm 0.00 in0.0 mm 0.13 in3.3 mm
12:26 PM 38.7°F3.7°C 22.1°F-5.5°C 51% 7.3 mph WNW11.7 kmh WNW 13.5 mph21.7 kmh 30.14 in1020.7 mb 0.00 in0.0 mm 0.00 in0.0 mm 0.13 in3.3 mm
12:25 PM 38.7°F3.7°C 22.1°F-5.5°C 51% 9.4 mph W15.1 kmh W 13.5 mph21.7 kmh 30.14 in1020.7 mb 0.00 in0.0 mm 0.00 in0.0 mm 0.13 in3.3 mm
12:24 PM 38.5°F3.6°C 22.0°F-5.6°C 51% 13.5 mph W21.7 kmh W 13.5 mph21.7 kmh 30.14 in1020.7 mb 0.00 in0.0 mm 0.00 in0.0 mm 0.13 in3.3 mm
12:23 PM 38.5°F3.6°C 22.4°F-5.3°C 52% 10.4 mph NW16.7 kmh NW 11.9 mph19.2 kmh 30.14 in1020.7 mb 0.00 in0.0 mm 0.00 in0.0 mm 0.13 in3.3 mm
12:22 PM 38.1°F3.4°C 22.1°F-5.5°C 52% 4.7 mph WNW7.6 kmh WNW 14.0 mph22.5 kmh 30.14 in1020.7 mb 0.00 in0.0 mm 0.00 in0.0 mm 0.13 in3.3 mm
12:21 PM 38.1°F3.4°C 21.6°F-5.8°C 51% 6.8 mph W10.9 kmh W 14.0 mph22.5 kmh 30.14 in1020.7 mb 0.00 in0.0 mm 0.00 in0.0 mm 0.13 in3.3 mm
12:20 PM 38.1°F3.4°C 21.6°F-5.8°C 51% 11.9 mph NW19.2 kmh NW 14.0 mph22.5 kmh 30.14 in1020.7 mb 0.00 in0.0 mm 0.00 in0.0 mm 0.13 in3.3 mm
12:19 PM 38.1°F3.4°C 21.6°F-5.8°C 51% 11.4 mph NNW18.3 kmh NNW 14.0 mph22.5 kmh 30.14 in1020.7 mb 0.00 in0.0 mm 0.00 in0.0 mm 0.13 in3.3 mm
12:18 PM 38.1°F3.4°C 21.6°F-5.8°C 51% 6.3 mph WNW10.1 kmh WNW 14.5 mph23.3 kmh 30.14 in1020.7 mb 0.00 in0.0 mm 0.00 in0.0 mm 0.13 in3.3 mm
12:17 PM 38.1°F3.4°C 21.6°F-5.8°C 51% 10.4 mph NW16.7 kmh NW 16.6 mph26.7 kmh 30.14 in1020.7 mb 0.00 in0.0 mm 0.00 in0.0 mm 0.13 in3.3 mm
12:16 PM 38.1°F3.4°C 21.6°F-5.8°C 51% 10.4 mph NW16.7 kmh NW 16.6 mph26.7 kmh 30.14 in1020.7 mb 0.00 in0.0 mm 0.00 in0.0 mm 0.13 in3.3 mm
12:15 PM 38.1°F3.4°C 21.6°F-5.8°C 51% 8.9 mph W14.3 kmh W 16.6 mph26.7 kmh 30.14 in1020.7 mb 0.00 in0.0 mm 0.00 in0.0 mm 0.13 in3.3 mm
12:14 PM 38.1°F3.4°C 21.6°F-5.8°C 51% 7.8 mph NW12.6 kmh NW 16.6 mph26.7 kmh 30.14 in1020.7 mb 0.00 in0.0 mm 0.00 in0.0 mm 0.13 in3.3 mm
12:13 PM 38.3°F3.5°C 21.8°F-5.7°C 51% 9.9 mph WNW15.9 kmh WNW 16.6 mph26.7 kmh 30.14 in1020.7 mb 0.00 in0.0 mm 0.00 in0.0 mm 0.13 in3.3 mm
12:12 PM 38.3°F3.5°C 21.8°F-5.7°C 51% 11.9 mph NNW19.2 kmh NNW 16.6 mph26.7 kmh 30.14 in1020.7 mb 0.00 in0.0 mm 0.00 in0.0 mm 0.13 in3.3 mm
12:11 PM 38.3°F3.5°C 21.8°F-5.7°C 51% 14.0 mph WNW22.5 kmh WNW 16.6 mph26.7 kmh 30.14 in1020.7 mb 0.00 in0.0 mm 0.00 in0.0 mm 0.13 in3.3 mm
12:10 PM 38.3°F3.5°C 21.8°F-5.7°C 51% 7.8 mph NW12.6 kmh NW 16.6 mph26.7 kmh 30.14 in1020.7 mb 0.00 in0.0 mm 0.00 in0.0 mm 0.13 in3.3 mm
12:09 PM 38.3°F3.5°C 21.8°F-5.7°C 51% 7.8 mph W12.6 kmh W 16.6 mph26.7 kmh 30.14 in1020.7 mb 0.00 in0.0 mm 0.00 in0.0 mm 0.13 in3.3 mm
12:08 PM 38.3°F3.5°C 21.8°F-5.7°C 51% 13.5 mph WNW21.7 kmh WNW 16.6 mph26.7 kmh 30.14 in1020.7 mb 0.00 in0.0 mm 0.00 in0.0 mm 0.13 in3.3 mm
12:07 PM 38.3°F3.5°C 21.8°F-5.7°C 51% 10.4 mph NW16.7 kmh NW 14.5 mph23.3 kmh 30.14 in1020.7 mb 0.00 in0.0 mm 0.00 in0.0 mm 0.13 in3.3 mm
12:06 PM 38.3°F3.5°C 21.8°F-5.7°C 51% 8.9 mph W14.3 kmh W 14.5 mph23.3 kmh 30.14 in1020.7 mb 0.00 in0.0 mm 0.00 in0.0 mm 0.13 in3.3 mm
12:05 PM 38.3°F3.5°C 21.8°F-5.7°C 51% 8.9 mph WNW14.3 kmh WNW 14.5 mph23.3 kmh 30.14 in1020.7 mb 0.00 in0.0 mm 0.00 in0.0 mm 0.13 in3.3 mm
12:04 PM 38.7°F3.7°C 22.1°F-5.5°C 51% 7.8 mph WNW12.6 kmh WNW 14.0 mph22.5 kmh 30.14 in1020.7 mb 0.00 in0.0 mm 0.00 in0.0 mm 0.13 in3.3 mm
12:03 PM 38.7°F3.7°C 22.1°F-5.5°C 51% 2.2 mph NW3.5 kmh NW 15.0 mph24.1 kmh 30.14 in1020.7 mb 0.00 in0.0 mm 0.00 in0.0 mm 0.13 in3.3 mm
12:02 PM 38.7°F3.7°C 22.1°F-5.5°C 51% Calm Calm 15.0 mph24.1 kmh 30.14 in1020.7 mb 0.00 in0.0 mm 0.00 in0.0 mm 0.13 in3.3 mm
12:01 PM 38.7°F3.7°C 22.1°F-5.5°C 51% Calm Calm 15.0 mph24.1 kmh 30.14 in1020.7 mb 0.00 in0.0 mm 0.00 in0.0 mm 0.13 in3.3 mm
12:00 PM 38.7°F3.7°C 22.1°F-5.5°C 51% Calm Calm 15.0 mph24.1 kmh 30.15 in1021.0 mb 0.00 in0.0 mm 0.00 in0.0 mm 0.13 in3.3 mm
11:59 AM 38.7°F3.7°C 22.1°F-5.5°C 51% 7.8 mph WSW12.6 kmh WSW 15.0 mph24.1 kmh 30.15 in1021.0 mb 0.00 in0.0 mm 0.00 in0.0 mm 0.13 in3.3 mm
11:58 AM 38.7°F3.7°C 22.6°F-5.2°C 52% Calm Calm 19.7 mph31.7 kmh 30.15 in1021.0 mb 0.00 in0.0 mm 0.00 in0.0 mm 0.13 in3.3 mm
11:57 AM 38.7°F3.7°C 22.6°F-5.2°C 52% 1.7 mph NNW2.7 kmh NNW 19.7 mph31.7 kmh 30.15 in1021.0 mb 0.00 in0.0 mm 0.00 in0.0 mm 0.13 in3.3 mm
11:56 AM 38.7°F3.7°C 22.6°F-5.2°C 52% Calm Calm 19.7 mph31.7 kmh 30.15 in1021.0 mb 0.00 in0.0 mm 0.00 in0.0 mm 0.13 in3.3 mm
11:55 AM 38.7°F3.7°C 22.6°F-5.2°C 52% 8.9 mph WNW14.3 kmh WNW 19.7 mph31.7 kmh 30.15 in1021.0 mb 0.00 in0.0 mm 0.00 in0.0 mm 0.13 in3.3 mm
11:54 AM 38.7°F3.7°C 22.6°F-5.2°C 52% Calm Calm 19.7 mph31.7 kmh 30.15 in1021.0 mb 0.00 in0.0 mm 0.00 in0.0 mm 0.13 in3.3 mm
11:53 AM 38.7°F3.7°C 22.6°F-5.2°C 52% 5.8 mph NNW9.3 kmh NNW 19.7 mph31.7 kmh 30.15 in1021.0 mb 0.00 in0.0 mm 0.00 in0.0 mm 0.13 in3.3 mm
11:52 AM 38.7°F3.7°C 22.6°F-5.2°C 52% 4.2 mph WNW6.8 kmh WNW 19.7 mph31.7 kmh 30.15 in1021.0 mb 0.00 in0.0 mm 0.00 in0.0 mm 0.13 in3.3 mm
11:51 AM 38.7°F3.7°C 22.6°F-5.2°C 52% Calm Calm 19.7 mph31.7 kmh 30.15 in1021.0 mb 0.00 in0.0 mm 0.00 in0.0 mm 0.13 in3.3 mm
11:50 AM 38.5°F3.6°C 22.9°F-5.1°C 53% Calm Calm 19.7 mph31.7 kmh 30.15 in1021.0 mb 0.00 in0.0 mm 0.00 in0.0 mm 0.13 in3.3 mm
11:49 AM 38.5°F3.6°C 22.9°F-5.1°C 53% 2.2 mph NNW3.5 kmh NNW 19.7 mph31.7 kmh 30.15 in1021.0 mb 0.00 in0.0 mm 0.00 in0.0 mm 0.13 in3.3 mm
11:48 AM 38.5°F3.6°C 22.9°F-5.1°C 53% Calm Calm 13.0 mph20.9 kmh 30.15 in1021.0 mb 0.00 in0.0 mm 0.00 in0.0 mm 0.13 in3.3 mm
11:47 AM 38.1°F3.4°C 22.5°F-5.3°C 53% Calm Calm 13.0 mph20.9 kmh 30.15 in1021.0 mb 0.00 in0.0 mm 0.00 in0.0 mm 0.13 in3.3 mm
11:46 AM 38.1°F3.4°C 22.5°F-5.3°C 53% 1.1 mph W1.8 kmh W 13.0 mph20.9 kmh 30.15 in1021.0 mb 0.00 in0.0 mm 0.00 in0.0 mm 0.13 in3.3 mm
11:45 AM 37.9°F3.3°C 22.3°F-5.4°C 53% Calm Calm 13.0 mph20.9 kmh 30.15 in1021.0 mb 0.00 in0.0 mm 0.00 in0.0 mm 0.13 in3.3 mm
11:44 AM 37.8°F3.2°C 22.2°F-5.4°C 53% 7.8 mph WNW12.6 kmh WNW 13.0 mph20.9 kmh 30.15 in1021.0 mb 0.00 in0.0 mm 0.00 in0.0 mm 0.13 in3.3 mm
11:43 AM 37.8°F3.2°C 22.2°F-5.4°C 53% 12.5 mph NNW20.1 kmh NNW 13.0 mph20.9 kmh 30.15 in1021.0 mb 0.00 in0.0 mm 0.00 in0.0 mm 0.13 in3.3 mm
11:42 AM 37.8°F3.2°C 22.2°F-5.4°C 53% 7.3 mph NW11.7 kmh NW 13.0 mph20.9 kmh 30.15 in1021.0 mb 0.00 in0.0 mm 0.00 in0.0 mm 0.13 in3.3 mm
11:41 AM 38.1°F3.4°C 22.5°F-5.3°C 53% 4.2 mph WNW6.8 kmh WNW 13.0 mph20.9 kmh 30.15 in1021.0 mb 0.00 in0.0 mm 0.00 in0.0 mm 0.13 in3.3 mm
11:40 AM 38.1°F3.4°C 22.5°F-5.3°C 53% Calm Calm 13.0 mph20.9 kmh 30.15 in1021.0 mb 0.00 in0.0 mm 0.00 in0.0 mm 0.13 in3.3 mm
11:39 AM 38.1°F3.4°C 22.9°F-5.1°C 54% 13.0 mph NNW20.9 kmh NNW 13.0 mph20.9 kmh 30.15 in1021.0 mb 0.00 in0.0 mm 0.00 in0.0 mm 0.13 in3.3 mm
11:38 AM 37.9°F3.3°C 22.8°F-5.1°C 54% Calm Calm 11.9 mph19.2 kmh 30.15 in1021.0 mb 0.00 in0.0 mm 0.00 in0.0 mm 0.13 in3.3 mm
11:37 AM 37.9°F3.3°C 22.8°F-5.1°C 54% Calm Calm 11.9 mph19.2 kmh 30.15 in1021.0 mb 0.00 in0.0 mm 0.00 in0.0 mm 0.13 in3.3 mm
11:36 AM 37.9°F3.3°C 22.8°F-5.1°C 54% 5.3 mph NW8.5 kmh NW 11.9 mph19.2 kmh 30.16 in1021.3 mb 0.00 in0.0 mm 0.00 in0.0 mm 0.13 in3.3 mm
11:35 AM 37.8°F3.2°C 22.7°F-5.2°C 54% 11.4 mph NNW18.3 kmh NNW 14.0 mph22.5 kmh 30.16 in1021.3 mb 0.00 in0.0 mm 0.00 in0.0 mm 0.13 in3.3 mm
11:34 AM 37.6°F3.1°C 22.5°F-5.3°C 54% 1.1 mph W1.8 kmh W 14.0 mph22.5 kmh 30.16 in1021.3 mb 0.00 in0.0 mm 0.00 in0.0 mm 0.13 in3.3 mm
11:33 AM 37.6°F3.1°C 22.5°F-5.3°C 54% 2.2 mph NNW3.5 kmh NNW 14.0 mph22.5 kmh 30.16 in1021.3 mb 0.00 in0.0 mm 0.00 in0.0 mm 0.13 in3.3 mm
11:32 AM 37.6°F3.1°C 22.5°F-5.3°C 54% Calm Calm 14.0 mph22.5 kmh 30.16 in1021.3 mb 0.00 in0.0 mm 0.00 in0.0 mm 0.13 in3.3 mm
11:31 AM 37.8°F3.2°C 22.7°F-5.2°C 54% 10.9 mph WNW17.5 kmh WNW 16.1 mph25.9 kmh 30.16 in1021.3 mb 0.00 in0.0 mm 0.00 in0.0 mm 0.13 in3.3 mm
11:30 AM 37.8°F3.2°C 22.7°F-5.2°C 54% 3.2 mph NNW5.1 kmh NNW 16.1 mph25.9 kmh 30.16 in1021.3 mb 0.00 in0.0 mm 0.00 in0.0 mm 0.13 in3.3 mm
11:29 AM 37.8°F3.2°C 22.7°F-5.2°C 54% Calm Calm 16.1 mph25.9 kmh 30.16 in1021.3 mb 0.00 in0.0 mm 0.00 in0.0 mm 0.13 in3.3 mm
11:28 AM 37.8°F3.2°C 22.7°F-5.2°C 54% Calm Calm 16.1 mph25.9 kmh 30.16 in1021.3 mb 0.00 in0.0 mm 0.00 in0.0 mm 0.13 in3.3 mm
11:27 AM 37.8°F3.2°C 22.7°F-5.2°C 54% 4.2 mph W6.8 kmh W 16.1 mph25.9 kmh 30.16 in1021.3 mb 0.00 in0.0 mm 0.00 in0.0 mm 0.13 in3.3 mm
11:26 AM 38.1°F3.4°C 23.4°F-4.8°C 55% 14.0 mph W22.5 kmh W 16.1 mph25.9 kmh 30.16 in1021.3 mb 0.00 in0.0 mm 0.00 in0.0 mm 0.13 in3.3 mm
11:25 AM 38.1°F3.4°C 23.4°F-4.8°C 55% 5.8 mph W9.3 kmh W 16.1 mph25.9 kmh 30.16 in1021.3 mb 0.00 in0.0 mm 0.00 in0.0 mm 0.13 in3.3 mm
11:24 AM 38.1°F3.4°C 23.4°F-4.8°C 55% Calm Calm 16.1 mph25.9 kmh 30.16 in1021.3 mb 0.00 in0.0 mm 0.00 in0.0 mm 0.13 in3.3 mm
11:23 AM 38.1°F3.4°C 23.4°F-4.8°C 55% 8.3 mph W13.4 kmh W 16.1 mph25.9 kmh 30.16 in1021.3 mb 0.00 in0.0 mm 0.00 in0.0 mm 0.13 in3.3 mm
11:22 AM 38.1°F3.4°C 23.4°F-4.8°C 55% 8.9 mph W14.3 kmh W 16.1 mph25.9 kmh 30.16 in1021.3 mb 0.00 in0.0 mm 0.00 in0.0 mm 0.13 in3.3 mm
11:21 AM 38.1°F3.4°C 23.4°F-4.8°C 55% 7.3 mph WNW11.7 kmh WNW 13.5 mph21.7 kmh 30.16 in1021.3 mb 0.00 in0.0 mm 0.00 in0.0 mm 0.13 in3.3 mm
11:20 AM 37.8°F3.2°C 23.1°F-4.9°C 55% 4.2 mph W6.8 kmh W 17.1 mph27.5 kmh 30.16 in1021.3 mb 0.00 in0.0 mm 0.00 in0.0 mm 0.13 in3.3 mm
11:19 AM 37.8°F3.2°C 23.1°F-4.9°C 55% 3.2 mph NNW5.1 kmh NNW 17.1 mph27.5 kmh 30.16 in1021.3 mb 0.00 in0.0 mm 0.00 in0.0 mm 0.13 in3.3 mm
11:18 AM 37.8°F3.2°C 23.1°F-4.9°C 55% 11.9 mph WNW19.2 kmh WNW 17.1 mph27.5 kmh 30.16 in1021.3 mb 0.00 in0.0 mm 0.00 in0.0 mm 0.13 in3.3 mm
11:17 AM 37.8°F3.2°C 23.1°F-4.9°C 55% 8.9 mph ENE14.3 kmh ENE 17.1 mph27.5 kmh 30.16 in1021.3 mb 0.00 in0.0 mm 0.00 in0.0 mm 0.13 in3.3 mm
11:16 AM 37.8°F3.2°C 23.1°F-4.9°C 55% 11.9 mph WNW19.2 kmh WNW 17.1 mph27.5 kmh 30.16 in1021.3 mb 0.00 in0.0 mm 0.00 in0.0 mm 0.13 in3.3 mm
11:15 AM 37.8°F3.2°C 23.1°F-4.9°C 55% 7.8 mph WNW12.6 kmh WNW 17.1 mph27.5 kmh 30.16 in1021.3 mb 0.00 in0.0 mm 0.00 in0.0 mm 0.13 in3.3 mm
11:14 AM 37.8°F3.2°C 23.1°F-4.9°C 55% 8.9 mph NW14.3 kmh NW 17.1 mph27.5 kmh 30.16 in1021.3 mb 0.00 in0.0 mm 0.00 in0.0 mm 0.13 in3.3 mm
11:13 AM 37.6°F3.1°C 22.9°F-5.1°C 55% 6.3 mph WNW10.1 kmh WNW 17.1 mph27.5 kmh 30.16 in1021.3 mb 0.00 in0.0 mm 0.00 in0.0 mm 0.13 in3.3 mm
11:12 AM 37.6°F3.1°C 22.9°F-5.1°C 55% 6.8 mph N10.9 kmh N 17.1 mph27.5 kmh 30.16 in1021.3 mb 0.00 in0.0 mm 0.00 in0.0 mm 0.13 in3.3 mm
11:11 AM 37.6°F3.1°C 22.9°F-5.1°C 55% 8.9 mph WNW14.3 kmh WNW 17.1 mph27.5 kmh 30.16 in1021.3 mb 0.00 in0.0 mm 0.00 in0.0 mm 0.13 in3.3 mm
11:10 AM 37.6°F3.1°C 22.9°F-5.1°C 55% 17.1 mph W27.5 kmh W 17.1 mph27.5 kmh 30.16 in1021.3 mb 0.00 in0.0 mm 0.00 in0.0 mm 0.13 in3.3 mm
11:09 AM 37.4°F3.0°C 22.7°F-5.2°C 55% 4.2 mph W6.8 kmh W 14.5 mph23.3 kmh 30.16 in1021.3 mb 0.00 in0.0 mm 0.00 in0.0 mm 0.13 in3.3 mm
11:08 AM 37.2°F2.9°C 22.5°F-5.3°C 55% 8.3 mph NW13.4 kmh NW 14.5 mph23.3 kmh 30.16 in1021.3 mb 0.00 in0.0 mm 0.00 in0.0 mm 0.13 in3.3 mm
11:07 AM 37.2°F2.9°C 22.5°F-5.3°C 55% 12.5 mph WNW20.1 kmh WNW 14.5 mph23.3 kmh 30.16 in1021.3 mb 0.00 in0.0 mm 0.00 in0.0 mm 0.13 in3.3 mm
11:06 AM 37.2°F2.9°C 22.5°F-5.3°C 55% 10.9 mph NNW17.5 kmh NNW 14.5 mph23.3 kmh 30.16 in1021.3 mb 0.00 in0.0 mm 0.00 in0.0 mm 0.13 in3.3 mm
11:05 AM 37.2°F2.9°C 23.0°F-5.0°C 56% 9.9 mph WNW15.9 kmh WNW 14.5 mph23.3 kmh 30.16 in1021.3 mb 0.00 in0.0 mm 0.00 in0.0 mm 0.13 in3.3 mm
11:04 AM 37.0°F2.8°C 22.8°F-5.1°C 56% 10.4 mph NNW16.7 kmh NNW 14.5 mph23.3 kmh 30.16 in1021.3 mb 0.00 in0.0 mm 0.00 in0.0 mm 0.13 in3.3 mm
11:03 AM 37.0°F2.8°C 22.8°F-5.1°C 56% 7.8 mph NW12.6 kmh NW 14.0 mph22.5 kmh 30.16 in1021.3 mb 0.00 in0.0 mm 0.00 in0.0 mm 0.13 in3.3 mm
11:02 AM 37.0°F2.8°C 22.8°F-5.1°C 56% 10.4 mph W16.7 kmh W 14.0 mph22.5 kmh 30.16 in1021.3 mb 0.00 in0.0 mm 0.00 in0.0 mm 0.13 in3.3 mm
11:01 AM 37.0°F2.8°C 22.8°F-5.1°C 56% 6.8 mph WNW10.9 kmh WNW 14.0 mph22.5 kmh 30.16 in1021.3 mb 0.00 in0.0 mm 0.00 in0.0 mm 0.13 in3.3 mm
11:00 AM 36.9°F2.7°C 22.7°F-5.2°C 56% 5.3 mph WNW8.5 kmh WNW 14.0 mph22.5 kmh 30.16 in1021.3 mb 0.00 in0.0 mm 0.00 in0.0 mm 0.13 in3.3 mm
10:59 AM 36.9°F2.7°C 22.7°F-5.2°C 56% 8.9 mph NW14.3 kmh NW 14.0 mph22.5 kmh 30.16 in1021.3 mb 0.00 in0.0 mm 0.00 in0.0 mm 0.13 in3.3 mm
10:58 AM 36.9°F2.7°C 22.7°F-5.2°C 56% 8.3 mph W13.4 kmh W 11.4 mph18.3 kmh 30.16 in1021.3 mb 0.00 in0.0 mm 0.00 in0.0 mm 0.13 in3.3 mm
10:57 AM 36.7°F2.6°C 22.5°F-5.3°C 56% 8.3 mph W13.4 kmh W 13.5 mph21.7 kmh 30.16 in1021.3 mb 0.00 in0.0 mm 0.00 in0.0 mm 0.13 in3.3 mm
10:56 AM 36.7°F2.6°C 22.5°F-5.3°C 56% 5.8 mph WNW9.3 kmh WNW 13.5 mph21.7 kmh 30.16 in1021.3 mb 0.00 in0.0 mm 0.00 in0.0 mm 0.13 in3.3 mm
10:55 AM 36.7°F2.6°C 22.5°F-5.3°C 56% 10.9 mph WNW17.5 kmh WNW 13.5 mph21.7 kmh 30.16 in1021.3 mb 0.00 in0.0 mm 0.00 in0.0 mm 0.13 in3.3 mm
10:54 AM 36.7°F2.6°C 22.5°F-5.3°C 56% 8.9 mph WNW14.3 kmh WNW 13.5 mph21.7 kmh 30.16 in1021.3 mb 0.00 in0.0 mm 0.00 in0.0 mm 0.13 in3.3 mm
10:53 AM 36.7°F2.6°C 22.9°F-5.1°C 57% 4.2 mph W6.8 kmh W 13.5 mph21.7 kmh 30.16 in1021.3 mb 0.00 in0.0 mm 0.00 in0.0 mm 0.13 in3.3 mm
10:52 AM 36.5°F2.5°C 22.7°F-5.2°C 57% 10.4 mph W16.7 kmh W 13.5 mph21.7 kmh 30.16 in1021.3 mb 0.00 in0.0 mm 0.00 in0.0 mm 0.13 in3.3 mm
10:51 AM 36.5°F2.5°C 22.7°F-5.2°C 57% 8.3 mph WNW13.4 kmh WNW 13.5 mph21.7 kmh 30.16 in1021.3 mb 0.00 in0.0 mm 0.00 in0.0 mm 0.13 in3.3 mm
10:50 AM 36.5°F2.5°C 22.7°F-5.2°C 57% 6.3 mph NNW10.1 kmh NNW 13.5 mph21.7 kmh 30.16 in1021.3 mb 0.00 in0.0 mm 0.00 in0.0 mm 0.13 in3.3 mm
10:49 AM 36.3°F2.4°C 22.5°F-5.3°C 57% 6.8 mph NW10.9 kmh NW 13.5 mph21.7 kmh 30.16 in1021.3 mb 0.00 in0.0 mm 0.00 in0.0 mm 0.13 in3.3 mm
10:48 AM 36.5°F2.5°C 22.7°F-5.2°C 57% 13.5 mph W21.7 kmh W 13.5 mph21.7 kmh 30.16 in1021.3 mb 0.00 in0.0 mm 0.00 in0.0 mm 0.13 in3.3 mm
10:47 AM 36.7°F2.6°C 22.9°F-5.1°C 57% 9.4 mph WNW15.1 kmh WNW 11.9 mph19.2 kmh 30.16 in1021.3 mb 0.00 in0.0 mm 0.00 in0.0 mm 0.13 in3.3 mm
10:46 AM 36.7°F2.6°C 22.9°F-5.1°C 57% 11.4 mph NNW18.3 kmh NNW 14.0 mph22.5 kmh 30.16 in1021.3 mb 0.00 in0.0 mm 0.00 in0.0 mm 0.13 in3.3 mm
10:45 AM 36.7°F2.6°C 22.9°F-5.1°C 57% 8.3 mph NW13.4 kmh NW 14.0 mph22.5 kmh 30.16 in1021.3 mb 0.00 in0.0 mm 0.00 in0.0 mm 0.13 in3.3 mm
10:44 AM 36.5°F2.5°C 22.7°F-5.2°C 57% 10.4 mph NW16.7 kmh NW 14.0 mph22.5 kmh 30.16 in1021.3 mb 0.00 in0.0 mm 0.00 in0.0 mm 0.13 in3.3 mm
10:43 AM 36.5°F2.5°C 22.7°F-5.2°C 57% 8.9 mph NW14.3 kmh NW 14.0 mph22.5 kmh 30.16 in1021.3 mb 0.00 in0.0 mm 0.00 in0.0 mm 0.13 in3.3 mm
10:42 AM 36.5°F2.5°C 22.7°F-5.2°C 57% 7.8 mph WNW12.6 kmh WNW 14.0 mph22.5 kmh 30.16 in1021.3 mb 0.00 in0.0 mm 0.00 in0.0 mm 0.13 in3.3 mm
10:41 AM 36.5°F2.5°C 23.1°F-4.9°C 58% 9.9 mph WNW15.9 kmh WNW 14.0 mph22.5 kmh 30.16 in1021.3 mb 0.00 in0.0 mm 0.00 in0.0 mm 0.13 in3.3 mm
10:40 AM 36.5°F2.5°C 23.1°F-4.9°C 58% 7.3 mph WSW11.7 kmh WSW 14.0 mph22.5 kmh 30.16 in1021.3 mb 0.00 in0.0 mm 0.00 in0.0 mm 0.13 in3.3 mm
10:39 AM 36.3°F2.4°C 23.0°F-5.0°C 58% 3.2 mph WNW5.1 kmh WNW 14.0 mph22.5 kmh 30.16 in1021.3 mb 0.00 in0.0 mm 0.00 in0.0 mm 0.13 in3.3 mm
10:38 AM 36.1°F2.3°C 22.8°F-5.1°C 58% 9.4 mph W15.1 kmh W 14.0 mph22.5 kmh 30.16 in1021.3 mb 0.00 in0.0 mm 0.00 in0.0 mm 0.13 in3.3 mm
10:37 AM 36.1°F2.3°C 22.8°F-5.1°C 58% 7.8 mph W12.6 kmh W 14.0 mph22.5 kmh 30.16 in1021.3 mb 0.00 in0.0 mm 0.00 in0.0 mm 0.13 in3.3 mm
10:36 AM 36.1°F2.3°C 22.8°F-5.1°C 58% 14.0 mph W22.5 kmh W 14.0 mph22.5 kmh 30.16 in1021.3 mb 0.00 in0.0 mm 0.00 in0.0 mm 0.13 in3.3 mm
10:35 AM 36.1°F2.3°C 22.8°F-5.1°C 58% 10.4 mph W16.7 kmh W 13.5 mph21.7 kmh 30.16 in1021.3 mb 0.00 in0.0 mm 0.00 in0.0 mm 0.13 in3.3 mm
10:34 AM 36.0°F2.2°C 22.7°F-5.2°C 58% 7.8 mph WSW12.6 kmh WSW 13.5 mph21.7 kmh 30.16 in1021.3 mb 0.00 in0.0 mm 0.00 in0.0 mm 0.13 in3.3 mm
10:33 AM 36.0°F2.2°C 22.7°F-5.2°C 58% 11.4 mph WSW18.3 kmh WSW 13.5 mph21.7 kmh 30.16 in1021.3 mb 0.00 in0.0 mm 0.00 in0.0 mm 0.13 in3.3 mm
10:32 AM 36.0°F2.2°C 22.7°F-5.2°C 58% 10.9 mph W17.5 kmh W 13.5 mph21.7 kmh 30.16 in1021.3 mb 0.00 in0.0 mm 0.00 in0.0 mm 0.13 in3.3 mm
10:31 AM 36.0°F2.2°C 22.7°F-5.2°C 58% 13.0 mph W20.9 kmh W 13.5 mph21.7 kmh 30.16 in1021.3 mb 0.00 in0.0 mm 0.00 in0.0 mm 0.13 in3.3 mm
10:30 AM 36.0°F2.2°C 22.7°F-5.2°C 58% 7.8 mph NW12.6 kmh NW 13.5 mph21.7 kmh 30.16 in1021.3 mb 0.00 in0.0 mm 0.00 in0.0 mm 0.13 in3.3 mm
10:29 AM 36.0°F2.2°C 22.7°F-5.2°C 58% 7.3 mph W11.7 kmh W 13.5 mph21.7 kmh 30.16 in1021.3 mb 0.00 in0.0 mm 0.00 in0.0 mm 0.13 in3.3 mm
10:28 AM 36.0°F2.2°C 22.7°F-5.2°C 58% 10.4 mph W16.7 kmh W 11.9 mph19.2 kmh 30.16 in1021.3 mb 0.00 in0.0 mm 0.00 in0.0 mm 0.13 in3.3 mm
10:27 AM 36.0°F2.2°C 22.7°F-5.2°C 58% 11.9 mph NW19.2 kmh NW 11.9 mph19.2 kmh 30.16 in1021.3 mb 0.00 in0.0 mm 0.00 in0.0 mm 0.13 in3.3 mm
10:26 AM 36.0°F2.2°C 22.7°F-5.2°C 58% 10.4 mph W16.7 kmh W 11.9 mph19.2 kmh 30.16 in1021.3 mb 0.00 in0.0 mm 0.00 in0.0 mm 0.13 in3.3 mm
10:25 AM 36.0°F2.2°C 22.7°F-5.2°C 58% 5.8 mph WNW9.3 kmh WNW 11.9 mph19.2 kmh 30.16 in1021.3 mb 0.00 in0.0 mm 0.00 in0.0 mm 0.13 in3.3 mm
10:24 AM 36.0°F2.2°C 22.7°F-5.2°C 58% 9.4 mph W15.1 kmh W 11.9 mph19.2 kmh 30.17 in1021.7 mb 0.00 in0.0 mm 0.00 in0.0 mm 0.13 in3.3 mm
10:23 AM 36.3°F2.4°C 23.0°F-5.0°C 58% 7.8 mph W12.6 kmh W 11.9 mph19.2 kmh 30.17 in1021.7 mb 0.00 in0.0 mm 0.00 in0.0 mm 0.13 in3.3 mm
10:22 AM 36.5°F2.5°C 23.1°F-4.9°C 58% 11.9 mph W19.2 kmh W 11.9 mph19.2 kmh 30.17 in1021.7 mb 0.00 in0.0 mm 0.00 in0.0 mm 0.13 in3.3 mm
10:21 AM 36.3°F2.4°C 23.0°F-5.0°C 58% Calm Calm 11.4 mph18.3 kmh 30.17 in1021.7 mb 0.00 in0.0 mm 0.00 in0.0 mm 0.13 in3.3 mm
10:20 AM 36.3°F2.4°C 23.0°F-5.0°C 58% Calm Calm 11.9 mph19.2 kmh 30.17 in1021.7 mb 0.00 in0.0 mm 0.00 in0.0 mm 0.13 in3.3 mm
10:19 AM 36.1°F2.3°C 22.8°F-5.1°C 58% Calm Calm 11.9 mph19.2 kmh 30.17 in1021.7 mb 0.00 in0.0 mm 0.00 in0.0 mm 0.13 in3.3 mm
10:18 AM 36.1°F2.3°C 22.8°F-5.1°C 58% 3.2 mph NNW5.1 kmh NNW 11.9 mph19.2 kmh 30.17 in1021.7 mb 0.00 in0.0 mm 0.00 in0.0 mm 0.13 in3.3 mm
10:17 AM 36.1°F2.3°C 22.8°F-5.1°C 58% Calm Calm 11.9 mph19.2 kmh 30.17 in1021.7 mb 0.00 in0.0 mm 0.00 in0.0 mm 0.13 in3.3 mm
10:16 AM 36.1°F2.3°C 23.2°F-4.9°C 59% Calm Calm 11.9 mph19.2 kmh 30.17 in1021.7 mb 0.00 in0.0 mm 0.00 in0.0 mm 0.13 in3.3 mm
10:15 AM 36.1°F2.3°C 23.2°F-4.9°C 59% 10.4 mph W16.7 kmh W 13.0 mph20.9 kmh 30.17 in1021.7 mb 0.00 in0.0 mm 0.00 in0.0 mm 0.13 in3.3 mm
10:14 AM 36.1°F2.3°C 23.2°F-4.9°C 59% 6.8 mph WNW10.9 kmh WNW 15.5 mph24.9 kmh 30.17 in1021.7 mb 0.00 in0.0 mm 0.00 in0.0 mm 0.13 in3.3 mm
10:13 AM 36.0°F2.2°C 23.1°F-4.9°C 59% 2.7 mph W4.3 kmh W 15.5 mph24.9 kmh 30.17 in1021.7 mb 0.00 in0.0 mm 0.00 in0.0 mm 0.13 in3.3 mm
10:12 AM 35.8°F2.1°C 22.9°F-5.1°C 59% 4.7 mph W7.6 kmh W 15.5 mph24.9 kmh 30.17 in1021.7 mb 0.00 in0.0 mm 0.00 in0.0 mm 0.13 in3.3 mm
10:11 AM 35.8°F2.1°C 22.9°F-5.1°C 59% 10.9 mph WNW17.5 kmh WNW 15.5 mph24.9 kmh 30.17 in1021.7 mb 0.00 in0.0 mm 0.00 in0.0 mm 0.13 in3.3 mm
10:10 AM 35.8°F2.1°C 22.9°F-5.1°C 59% 11.9 mph NW19.2 kmh NW 15.5 mph24.9 kmh 30.17 in1021.7 mb 0.00 in0.0 mm 0.00 in0.0 mm 0.13 in3.3 mm
10:09 AM 35.4°F1.9°C 22.9°F-5.1°C 60% 5.8 mph W9.3 kmh W 15.5 mph24.9 kmh 30.17 in1021.7 mb 0.00 in0.0 mm 0.00 in0.0 mm 0.13 in3.3 mm
10:08 AM 35.4°F1.9°C 22.9°F-5.1°C 60% 7.3 mph NW11.7 kmh NW 15.5 mph24.9 kmh 30.17 in1021.7 mb 0.00 in0.0 mm 0.00 in0.0 mm 0.13 in3.3 mm
10:07 AM 35.4°F1.9°C 22.9°F-5.1°C 60% 7.8 mph NW12.6 kmh NW 15.5 mph24.9 kmh 30.17 in1021.7 mb 0.00 in0.0 mm 0.00 in0.0 mm 0.13 in3.3 mm
10:06 AM 35.1°F1.7°C 22.6°F-5.2°C 60% 4.2 mph W6.8 kmh W 15.5 mph24.9 kmh 30.17 in1021.7 mb 0.00 in0.0 mm 0.00 in0.0 mm 0.13 in3.3 mm
10:05 AM 35.1°F1.7°C 22.6°F-5.2°C 60% 13.0 mph W20.9 kmh W 15.5 mph24.9 kmh 30.17 in1021.7 mb 0.00 in0.0 mm 0.00 in0.0 mm 0.13 in3.3 mm
10:04 AM 35.1°F1.7°C 22.6°F-5.2°C 60% 8.9 mph WSW14.3 kmh WSW 14.0 mph22.5 kmh 30.17 in1021.7 mb 0.00 in0.0 mm 0.00 in0.0 mm 0.13 in3.3 mm
10:03 AM 35.1°F1.7°C 22.6°F-5.2°C 60% 7.8 mph WNW12.6 kmh WNW 14.0 mph22.5 kmh 30.17 in1021.7 mb 0.00 in0.0 mm 0.00 in0.0 mm 0.13 in3.3 mm
10:02 AM 35.1°F1.7°C 22.6°F-5.2°C 60% 9.4 mph W15.1 kmh W 14.0 mph22.5 kmh 30.17 in1021.7 mb 0.00 in0.0 mm 0.00 in0.0 mm 0.13 in3.3 mm
10:01 AM 35.1°F1.7°C 22.6°F-5.2°C 60% 11.9 mph WNW19.2 kmh WNW 13.5 mph21.7 kmh 30.17 in1021.7 mb 0.00 in0.0 mm 0.00 in0.0 mm 0.13 in3.3 mm
10:00 AM 35.1°F1.7°C 22.6°F-5.2°C 60% 10.4 mph NNW16.7 kmh NNW 13.5 mph21.7 kmh 30.17 in1021.7 mb 0.00 in0.0 mm 0.00 in0.0 mm 0.13 in3.3 mm
09:59 AM 35.1°F1.7°C 22.2°F-5.4°C 59% 8.3 mph WNW13.4 kmh WNW 13.5 mph21.7 kmh 30.17 in1021.7 mb 0.00 in0.0 mm 0.00 in0.0 mm 0.13 in3.3 mm
09:58 AM 35.1°F1.7°C 22.2°F-5.4°C 59% 13.5 mph NW21.7 kmh NW 13.5 mph21.7 kmh 30.17 in1021.7 mb 0.00 in0.0 mm 0.00 in0.0 mm 0.13 in3.3 mm
09:57 AM 35.1°F1.7°C 22.2°F-5.4°C 59% 8.3 mph W13.4 kmh W 13.0 mph20.9 kmh 30.17 in1021.7 mb 0.00 in0.0 mm 0.00 in0.0 mm 0.13 in3.3 mm
09:56 AM 35.1°F1.7°C 22.2°F-5.4°C 59% 7.3 mph W11.7 kmh W 13.0 mph20.9 kmh 30.17 in1021.7 mb 0.00 in0.0 mm 0.00 in0.0 mm 0.13 in3.3 mm
09:55 AM 35.1°F1.7°C 22.2°F-5.4°C 59% 10.9 mph WNW17.5 kmh WNW 13.0 mph20.9 kmh 30.17 in1021.7 mb 0.00 in0.0 mm 0.00 in0.0 mm 0.13 in3.3 mm
09:54 AM 35.2°F1.8°C 22.3°F-5.4°C 59% 7.8 mph WNW12.6 kmh WNW 13.0 mph20.9 kmh 30.17 in1021.7 mb 0.00 in0.0 mm 0.00 in0.0 mm 0.13 in3.3 mm
09:53 AM 35.2°F1.8°C 22.3°F-5.4°C 59% 11.4 mph NW18.3 kmh NW 13.0 mph20.9 kmh 30.17 in1021.7 mb 0.00 in0.0 mm 0.00 in0.0 mm 0.13 in3.3 mm
09:52 AM 35.2°F1.8°C 22.3°F-5.4°C 59% 8.9 mph NW14.3 kmh NW 13.0 mph20.9 kmh 30.17 in1021.7 mb 0.00 in0.0 mm 0.00 in0.0 mm 0.13 in3.3 mm
09:51 AM 35.4°F1.9°C 22.9°F-5.1°C 60% 9.4 mph NW15.1 kmh NW 11.4 mph18.3 kmh 30.17 in1021.7 mb 0.00 in0.0 mm 0.00 in0.0 mm 0.13 in3.3 mm
09:50 AM 35.4°F1.9°C 22.9°F-5.1°C 60% 1.1 mph W1.8 kmh W 11.4 mph18.3 kmh 30.17 in1021.7 mb 0.00 in0.0 mm 0.00 in0.0 mm 0.13 in3.3 mm
09:49 AM 35.2°F1.8°C 23.5°F-4.7°C 62% 1.1 mph W1.8 kmh W 11.4 mph18.3 kmh 30.17 in1021.7 mb 0.00 in0.0 mm 0.00 in0.0 mm 0.13 in3.3 mm
09:48 AM 35.2°F1.8°C 22.7°F-5.2°C 60% Calm Calm 11.4 mph18.3 kmh 30.17 in1021.7 mb 0.00 in0.0 mm 0.00 in0.0 mm 0.13 in3.3 mm
09:47 AM 35.1°F1.7°C 22.6°F-5.2°C 60% Calm Calm 11.4 mph18.3 kmh 30.17 in1021.7 mb 0.00 in0.0 mm 0.00 in0.0 mm 0.13 in3.3 mm
09:46 AM 35.1°F1.7°C 22.6°F-5.2°C 60% 7.8 mph W12.6 kmh W 11.4 mph18.3 kmh 30.17 in1021.7 mb 0.00 in0.0 mm 0.00 in0.0 mm 0.13 in3.3 mm
09:45 AM 35.1°F1.7°C 22.6°F-5.2°C 60% 1.1 mph NNW1.8 kmh NNW 11.4 mph18.3 kmh 30.17 in1021.7 mb 0.00 in0.0 mm 0.00 in0.0 mm 0.13 in3.3 mm
09:44 AM 35.1°F1.7°C 22.6°F-5.2°C 60% Calm Calm 11.4 mph18.3 kmh 30.17 in1021.7 mb 0.00 in0.0 mm 0.00 in0.0 mm 0.13 in3.3 mm
09:43 AM 35.1°F1.7°C 22.6°F-5.2°C 60% 8.9 mph WNW14.3 kmh WNW 11.4 mph18.3 kmh 30.17 in1021.7 mb 0.00 in0.0 mm 0.00 in0.0 mm 0.13 in3.3 mm
09:42 AM 35.1°F1.7°C 22.6°F-5.2°C 60% 8.3 mph NW13.4 kmh NW 12.5 mph20.1 kmh 30.17 in1021.7 mb 0.00 in0.0 mm 0.00 in0.0 mm 0.13 in3.3 mm
09:41 AM 34.9°F1.6°C 22.4°F-5.3°C 60% Calm Calm 12.5 mph20.1 kmh 30.17 in1021.7 mb 0.00 in0.0 mm 0.00 in0.0 mm 0.13 in3.3 mm
09:40 AM 34.9°F1.6°C 22.4°F-5.3°C 60% 11.4 mph WNW18.3 kmh WNW 12.5 mph20.1 kmh 30.17 in1021.7 mb 0.00 in0.0 mm 0.00 in0.0 mm 0.13 in3.3 mm
09:39 AM 34.9°F1.6°C 22.4°F-5.3°C 60% 6.3 mph W10.1 kmh W 12.5 mph20.1 kmh 30.17 in1021.7 mb 0.00 in0.0 mm 0.00 in0.0 mm 0.13 in3.3 mm
09:38 AM 34.9°F1.6°C 22.4°F-5.3°C 60% 7.3 mph NW11.7 kmh NW 12.5 mph20.1 kmh 30.17 in1021.7 mb 0.00 in0.0 mm 0.00 in0.0 mm 0.13 in3.3 mm
09:37 AM 34.9°F1.6°C 22.4°F-5.3°C 60% 5.8 mph NW9.3 kmh NW 12.5 mph20.1 kmh 30.17 in1021.7 mb 0.00 in0.0 mm 0.00 in0.0 mm 0.13 in3.3 mm
09:36 AM 34.9°F1.6°C 22.4°F-5.3°C 60% 7.3 mph WSW11.7 kmh WSW 12.5 mph20.1 kmh 30.17 in1021.7 mb 0.00 in0.0 mm 0.00 in0.0 mm 0.13 in3.3 mm
09:35 AM 34.9°F1.6°C 22.4°F-5.3°C 60% 5.3 mph WNW8.5 kmh WNW 12.5 mph20.1 kmh 30.17 in1021.7 mb 0.00 in0.0 mm 0.00 in0.0 mm 0.13 in3.3 mm
09:34 AM 34.9°F1.6°C 22.4°F-5.3°C 60% 8.9 mph WNW14.3 kmh WNW 12.5 mph20.1 kmh 30.17 in1021.7 mb 0.00 in0.0 mm 0.00 in0.0 mm 0.13 in3.3 mm
09:33 AM 34.9°F1.6°C 22.4°F-5.3°C 60% 6.8 mph W10.9 kmh W 12.5 mph20.1 kmh 30.17 in1021.7 mb 0.00 in0.0 mm 0.00 in0.0 mm 0.13 in3.3 mm
09:32 AM 34.7°F1.5°C 22.6°F-5.2°C 61% 9.9 mph WNW15.9 kmh WNW 11.4 mph18.3 kmh 30.17 in1021.7 mb 0.00 in0.0 mm 0.00 in0.0 mm 0.13 in3.3 mm
09:31 AM 34.7°F1.5°C 22.6°F-5.2°C 61% Calm Calm 11.4 mph18.3 kmh 30.17 in1021.7 mb 0.00 in0.0 mm 0.00 in0.0 mm 0.13 in3.3 mm
09:30 AM 34.7°F1.5°C 22.6°F-5.2°C 61% 7.3 mph W11.7 kmh W 11.4 mph18.3 kmh 30.17 in1021.7 mb 0.00 in0.0 mm 0.00 in0.0 mm 0.13 in3.3 mm
09:29 AM 34.7°F1.5°C 22.6°F-5.2°C 61% 5.8 mph WNW9.3 kmh WNW 11.4 mph18.3 kmh 30.17 in1021.7 mb 0.00 in0.0 mm 0.00 in0.0 mm 0.13 in3.3 mm
09:28 AM 34.5°F1.4°C 22.5°F-5.3°C 61% 6.3 mph W10.1 kmh W 11.4 mph18.3 kmh 30.17 in1021.7 mb 0.00 in0.0 mm 0.00 in0.0 mm 0.13 in3.3 mm
09:27 AM 34.5°F1.4°C 22.5°F-5.3°C 61% 7.3 mph W11.7 kmh W 11.4 mph18.3 kmh 30.17 in1021.7 mb 0.00 in0.0 mm 0.00 in0.0 mm 0.13 in3.3 mm
09:26 AM 34.7°F1.5°C 22.6°F-5.2°C 61% 5.8 mph WNW9.3 kmh WNW 11.4 mph18.3 kmh 30.17 in1021.7 mb 0.00 in0.0 mm 0.00 in0.0 mm 0.13 in3.3 mm
09:25 AM 34.7°F1.5°C 22.6°F-5.2°C 61% 10.9 mph WNW17.5 kmh WNW 11.4 mph18.3 kmh 30.17 in1021.7 mb 0.00 in0.0 mm 0.00 in0.0 mm 0.13 in3.3 mm
09:24 AM 34.7°F1.5°C 23.0°F-5.0°C 62% 4.7 mph WNW7.6 kmh WNW 11.4 mph18.3 kmh 30.16 in1021.3 mb 0.00 in0.0 mm 0.00 in0.0 mm 0.13 in3.3 mm
09:23 AM 34.5°F1.4°C 22.5°F-5.3°C 61% 9.4 mph WNW15.1 kmh WNW 11.4 mph18.3 kmh 30.16 in1021.3 mb 0.03 in0.8 mm 0.00 in0.0 mm 0.13 in3.3 mm
09:22 AM 34.3°F1.3°C 22.3°F-5.4°C 61% 5.8 mph WSW9.3 kmh WSW 11.4 mph18.3 kmh 30.16 in1021.3 mb 0.03 in0.8 mm 0.00 in0.0 mm 0.13 in3.3 mm
09:21 AM 34.2°F1.2°C 22.6°F-5.2°C 62% 3.2 mph W5.1 kmh W 11.4 mph18.3 kmh 30.16 in1021.3 mb 0.03 in0.8 mm 0.00 in0.0 mm 0.13 in3.3 mm
09:20 AM 34.2°F1.2°C 22.6°F-5.2°C 62% 7.8 mph W12.6 kmh W 12.5 mph20.1 kmh 30.16 in1021.3 mb 0.03 in0.8 mm 0.00 in0.0 mm 0.13 in3.3 mm
09:19 AM 34.2°F1.2°C 22.6°F-5.2°C 62% 6.8 mph W10.9 kmh W 12.5 mph20.1 kmh 30.16 in1021.3 mb 0.03 in0.8 mm 0.00 in0.0 mm 0.13 in3.3 mm
09:18 AM 34.0°F1.1°C 22.4°F-5.3°C 62% 7.8 mph NNW12.6 kmh NNW 12.5 mph20.1 kmh 30.16 in1021.3 mb 0.03 in0.8 mm 0.00 in0.0 mm 0.13 in3.3 mm
09:17 AM 34.0°F1.1°C 22.0°F-5.6°C 61% 5.8 mph WNW9.3 kmh WNW 12.5 mph20.1 kmh 30.16 in1021.3 mb 0.03 in0.8 mm 0.00 in0.0 mm 0.13 in3.3 mm
09:16 AM 34.0°F1.1°C 22.0°F-5.6°C 61% 11.4 mph W18.3 kmh W 12.5 mph20.1 kmh 30.16 in1021.3 mb 0.03 in0.8 mm 0.00 in0.0 mm 0.13 in3.3 mm
09:15 AM 34.0°F1.1°C 22.0°F-5.6°C 61% 10.4 mph WNW16.7 kmh WNW 12.5 mph20.1 kmh 30.16 in1021.3 mb 0.03 in0.8 mm 0.00 in0.0 mm 0.13 in3.3 mm
09:14 AM 34.0°F1.1°C 22.0°F-5.6°C 61% 8.3 mph NNW13.4 kmh NNW 12.5 mph20.1 kmh 30.16 in1021.3 mb 0.03 in0.8 mm 0.00 in0.0 mm 0.13 in3.3 mm
09:13 AM 34.0°F1.1°C 22.0°F-5.6°C 61% 5.8 mph NW9.3 kmh NW 12.5 mph20.1 kmh 30.16 in1021.3 mb 0.03 in0.8 mm 0.00 in0.0 mm 0.13 in3.3 mm
09:12 AM 34.0°F1.1°C 22.0°F-5.6°C 61% 6.3 mph WNW10.1 kmh WNW 12.5 mph20.1 kmh 30.16 in1021.3 mb 0.03 in0.8 mm 0.00 in0.0 mm 0.13 in3.3 mm
09:11 AM 34.0°F1.1°C 22.0°F-5.6°C 61% 12.5 mph WNW20.1 kmh WNW 12.5 mph20.1 kmh 30.16 in1021.3 mb 0.03 in0.8 mm 0.00 in0.0 mm 0.13 in3.3 mm
09:10 AM 34.0°F1.1°C 22.0°F-5.6°C 61% 1.7 mph NW2.7 kmh NW 11.9 mph19.2 kmh 30.16 in1021.3 mb 0.03 in0.8 mm 0.00 in0.0 mm 0.13 in3.3 mm
09:09 AM 33.8°F1.0°C 21.8°F-5.7°C 61% 6.8 mph W10.9 kmh W 11.9 mph19.2 kmh 30.16 in1021.3 mb 0.03 in0.8 mm 0.00 in0.0 mm 0.13 in3.3 mm
09:08 AM 34.0°F1.1°C 22.0°F-5.6°C 61% 4.7 mph NW7.6 kmh NW 11.9 mph19.2 kmh 30.16 in1021.3 mb 0.03 in0.8 mm 0.00 in0.0 mm 0.13 in3.3 mm
09:07 AM 33.8°F1.0°C 22.2°F-5.4°C 62% 3.2 mph W5.1 kmh W 11.9 mph19.2 kmh 30.16 in1021.3 mb 0.03 in0.8 mm 0.00 in0.0 mm 0.13 in3.3 mm
09:06 AM 33.6°F0.9°C 22.0°F-5.6°C 62% 4.2 mph W6.8 kmh W 11.9 mph19.2 kmh 30.16 in1021.3 mb 0.03 in0.8 mm 0.00 in0.0 mm 0.13 in3.3 mm
09:05 AM 33.6°F0.9°C 22.0°F-5.6°C 62% 1.1 mph W1.8 kmh W 11.9 mph19.2 kmh 30.16 in1021.3 mb 0.03 in0.8 mm 0.00 in0.0 mm 0.13 in3.3 mm
09:04 AM 33.6°F0.9°C 22.0°F-5.6°C 62% 7.3 mph WNW11.7 kmh WNW 11.9 mph19.2 kmh 30.16 in1021.3 mb 0.03 in0.8 mm 0.00 in0.0 mm 0.13 in3.3 mm
09:03 AM 33.4°F0.8°C 21.8°F-5.7°C 62% 6.8 mph WNW10.9 kmh WNW 11.9 mph19.2 kmh 30.16 in1021.3 mb 0.03 in0.8 mm 0.00 in0.0 mm 0.13 in3.3 mm
09:02 AM 33.4°F0.8°C 21.8°F-5.7°C 62% 2.7 mph W4.3 kmh W 11.9 mph19.2 kmh 30.16 in1021.3 mb 0.03 in0.8 mm 0.00 in0.0 mm 0.13 in3.3 mm
09:01 AM 33.4°F0.8°C 21.8°F-5.7°C 62% 8.3 mph WNW13.4 kmh WNW 11.4 mph18.3 kmh 30.16 in1021.3 mb 0.03 in0.8 mm 0.00 in0.0 mm 0.13 in3.3 mm
09:00 AM 33.4°F0.8°C 21.8°F-5.7°C 62% 7.8 mph WNW12.6 kmh WNW 11.4 mph18.3 kmh 30.16 in1021.3 mb 0.03 in0.8 mm 0.00 in0.0 mm 0.13 in3.3 mm
08:59 AM 30.2°F-1.0°C 18.8°F-7.3°C 62% 6.8 mph WNW10.9 kmh WNW 11.4 mph18.3 kmh 30.16 in1021.3 mb 0.03 in0.8 mm 0.00 in0.0 mm 0.13 in3.3 mm
08:58 AM 33.3°F0.7°C 21.7°F-5.7°C 62% 9.9 mph NW15.9 kmh NW 11.4 mph18.3 kmh 30.16 in1021.3 mb 0.03 in0.8 mm 0.00 in0.0 mm 0.13 in3.3 mm
08:57 AM 33.3°F0.7°C 21.7°F-5.7°C 62% 6.8 mph NW10.9 kmh NW 11.4 mph18.3 kmh 30.16 in1021.3 mb 0.03 in0.8 mm 0.00 in0.0 mm 0.13 in3.3 mm
08:56 AM 33.3°F0.7°C 21.7°F-5.7°C 62% 9.9 mph W15.9 kmh W 11.4 mph18.3 kmh 30.16 in1021.3 mb 0.03 in0.8 mm 0.00 in0.0 mm 0.13 in3.3 mm
08:55 AM 33.3°F0.7°C 21.7°F-5.7°C 62% 5.8 mph NW9.3 kmh NW 11.4 mph18.3 kmh 30.16 in1021.3 mb 0.03 in0.8 mm 0.00 in0.0 mm 0.13 in3.3 mm
08:54 AM 30.2°F-1.0°C 18.8°F-7.3°C 62% 10.9 mph WSW17.5 kmh WSW 13.5 mph21.7 kmh 30.16 in1021.3 mb 0.03 in0.8 mm 0.00 in0.0 mm 0.13 in3.3 mm
08:53 AM 30.2°F-1.0°C 18.8°F-7.3°C 62% 6.8 mph W10.9 kmh W 14.0 mph22.5 kmh 30.16 in1021.3 mb 0.03 in0.8 mm 0.00 in0.0 mm 0.13 in3.3 mm
08:52 AM 33.3°F0.7°C 21.7°F-5.7°C 62% 7.3 mph W11.7 kmh W 14.0 mph22.5 kmh 30.16 in1021.3 mb 0.03 in0.8 mm 0.00 in0.0 mm 0.13 in3.3 mm
08:51 AM 33.3°F0.7°C 21.7°F-5.7°C 62% 10.4 mph W16.7 kmh W 14.0 mph22.5 kmh 30.16 in1021.3 mb 0.03 in0.8 mm 0.00 in0.0 mm 0.13 in3.3 mm
08:50 AM 33.4°F0.8°C 21.8°F-5.7°C 62% 3.2 mph WNW5.1 kmh WNW 14.0 mph22.5 kmh 30.16 in1021.3 mb 0.03 in0.8 mm 0.00 in0.0 mm 0.13 in3.3 mm
08:49 AM 33.3°F0.7°C 21.7°F-5.7°C 62% Calm Calm 14.0 mph22.5 kmh 30.15 in1021.0 mb 0.03 in0.8 mm 0.00 in0.0 mm 0.13 in3.3 mm
08:48 AM 33.3°F0.7°C 21.7°F-5.7°C 62% 8.9 mph NW14.3 kmh NW 14.0 mph22.5 kmh 30.15 in1021.0 mb 0.03 in0.8 mm 0.00 in0.0 mm 0.13 in3.3 mm
08:47 AM 33.3°F0.7°C 22.1°F-5.5°C 63% 6.8 mph W10.9 kmh W 14.0 mph22.5 kmh 30.15 in1021.0 mb 0.03 in0.8 mm 0.00 in0.0 mm 0.13 in3.3 mm
08:46 AM 33.1°F0.6°C 21.9°F-5.6°C 63% 3.7 mph W6.0 kmh W 14.0 mph22.5 kmh 30.15 in1021.0 mb 0.03 in0.8 mm 0.00 in0.0 mm 0.13 in3.3 mm
08:45 AM 33.1°F0.6°C 21.9°F-5.6°C 63% 7.8 mph W12.6 kmh W 14.0 mph22.5 kmh 30.15 in1021.0 mb 0.03 in0.8 mm 0.00 in0.0 mm 0.13 in3.3 mm
08:44 AM 33.1°F0.6°C 21.5°F-5.8°C 62% 14.0 mph WNW22.5 kmh WNW 14.0 mph22.5 kmh 30.15 in1021.0 mb 0.03 in0.8 mm 0.00 in0.0 mm 0.13 in3.3 mm
08:43 AM 33.1°F0.6°C 21.9°F-5.6°C 63% 4.7 mph WSW7.6 kmh WSW 8.9 mph14.3 kmh 30.15 in1021.0 mb 0.03 in0.8 mm 0.00 in0.0 mm 0.13 in3.3 mm
08:42 AM 33.1°F0.6°C 21.9°F-5.6°C 63% Calm Calm 11.9 mph19.2 kmh 30.15 in1021.0 mb 0.03 in0.8 mm 0.00 in0.0 mm 0.13 in3.3 mm
08:41 AM 33.1°F0.6°C 21.9°F-5.6°C 63% 6.8 mph W10.9 kmh W 11.9 mph19.2 kmh 30.15 in1021.0 mb 0.03 in0.8 mm 0.00 in0.0 mm 0.13 in3.3 mm
08:40 AM 33.1°F0.6°C 21.9°F-5.6°C 63% 3.7 mph WNW6.0 kmh WNW 11.9 mph19.2 kmh 30.15 in1021.0 mb 0.03 in0.8 mm 0.00 in0.0 mm 0.13 in3.3 mm
08:39 AM 33.1°F0.6°C 21.9°F-5.6°C 63% 6.8 mph W10.9 kmh W 11.9 mph19.2 kmh 30.15 in1021.0 mb 0.03 in0.8 mm 0.00 in0.0 mm 0.13 in3.3 mm
08:38 AM 33.1°F0.6°C 21.9°F-5.6°C 63% 7.3 mph WNW11.7 kmh WNW 11.9 mph19.2 kmh 30.15 in1021.0 mb 0.03 in0.8 mm 0.00 in0.0 mm 0.13 in3.3 mm
08:37 AM 33.1°F0.6°C 21.9°F-5.6°C 63% 3.7 mph WNW6.0 kmh WNW 11.9 mph19.2 kmh 30.15 in1021.0 mb 0.03 in0.8 mm 0.00 in0.0 mm 0.13 in3.3 mm
08:36 AM 33.1°F0.6°C 21.9°F-5.6°C 63% 6.8 mph WSW10.9 kmh WSW 11.9 mph19.2 kmh 30.15 in1021.0 mb 0.03 in0.8 mm 0.00 in0.0 mm 0.13 in3.3 mm
08:35 AM 33.1°F0.6°C 21.9°F-5.6°C 63% 6.8 mph W10.9 kmh W 11.9 mph19.2 kmh 30.15 in1021.0 mb 0.03 in0.8 mm 0.00 in0.0 mm 0.13 in3.3 mm
08:34 AM 32.7°F0.4°C 21.5°F-5.8°C 63% 3.2 mph W5.1 kmh W 11.9 mph19.2 kmh 30.15 in1021.0 mb 0.03 in0.8 mm 0.00 in0.0 mm 0.13 in3.3 mm
08:33 AM 32.7°F0.4°C 21.5°F-5.8°C 63% 5.8 mph W9.3 kmh W 11.9 mph19.2 kmh 30.15 in1021.0 mb 0.03 in0.8 mm 0.00 in0.0 mm 0.13 in3.3 mm
08:32 AM 32.5°F0.3°C 21.7°F-5.7°C 64% 7.3 mph NW11.7 kmh NW 7.8 mph12.6 kmh 30.15 in1021.0 mb 0.03 in0.8 mm 0.00 in0.0 mm 0.13 in3.3 mm
08:31 AM 32.5°F0.3°C 21.7°F-5.7°C 64% 4.2 mph W6.8 kmh W 7.8 mph12.6 kmh 30.15 in1021.0 mb 0.03 in0.8 mm 0.00 in0.0 mm 0.13 in3.3 mm
08:30 AM 32.5°F0.3°C 21.7°F-5.7°C 64% Calm Calm 8.3 mph13.4 kmh 30.15 in1021.0 mb 0.03 in0.8 mm 0.00 in0.0 mm 0.13 in3.3 mm
08:29 AM 32.5°F0.3°C 21.7°F-5.7°C 64% Calm Calm 8.3 mph13.4 kmh 30.15 in1021.0 mb 0.03 in0.8 mm 0.00 in0.0 mm 0.13 in3.3 mm
08:28 AM 32.5°F0.3°C 21.7°F-5.7°C 64% Calm Calm 8.9 mph14.3 kmh 30.15 in1021.0 mb 0.03 in0.8 mm 0.00 in0.0 mm 0.13 in3.3 mm
08:27 AM 32.4°F0.2°C 22.0°F-5.6°C 65% 3.7 mph W6.0 kmh W 8.9 mph14.3 kmh 30.15 in1021.0 mb 0.03 in0.8 mm 0.00 in0.0 mm 0.13 in3.3 mm
08:26 AM 32.2°F0.1°C 21.8°F-5.7°C 65% 6.8 mph WNW10.9 kmh WNW 8.9 mph14.3 kmh 30.15 in1021.0 mb 0.03 in0.8 mm 0.00 in0.0 mm 0.13 in3.3 mm
08:25 AM 32.0°F0.0°C 21.6°F-5.8°C 65% 4.2 mph NW6.8 kmh NW 8.9 mph14.3 kmh 30.15 in1021.0 mb 0.03 in0.8 mm 0.00 in0.0 mm 0.13 in3.3 mm
08:24 AM 32.0°F0.0°C 21.6°F-5.8°C 65% 7.8 mph WNW12.6 kmh WNW 8.9 mph14.3 kmh 30.15 in1021.0 mb 0.10 in2.5 mm 1.80 in45.7 mm 0.13 in3.3 mm
08:23 AM 32.0°F0.0°C 21.6°F-5.8°C 65% 5.3 mph WNW8.5 kmh WNW 8.9 mph14.3 kmh 30.15 in1021.0 mb 0.07 in1.8 mm 0.00 in0.0 mm 0.10 in2.5 mm
08:22 AM 32.0°F0.0°C 21.6°F-5.8°C 65% 3.7 mph W6.0 kmh W 8.9 mph14.3 kmh 30.15 in1021.0 mb 0.07 in1.8 mm 0.00 in0.0 mm 0.10 in2.5 mm
08:21 AM 31.8°F-0.1°C 21.4°F-5.9°C 65% 4.7 mph WNW7.6 kmh WNW 8.9 mph14.3 kmh 30.15 in1021.0 mb 0.07 in1.8 mm 0.00 in0.0 mm 0.10 in2.5 mm
08:20 AM 31.8°F-0.1°C 21.4°F-5.9°C 65% 8.3 mph NNW13.4 kmh NNW 8.9 mph14.3 kmh 30.15 in1021.0 mb 0.07 in1.8 mm 0.00 in0.0 mm 0.10 in2.5 mm
08:19 AM 31.8°F-0.1°C 21.4°F-5.9°C 65% 5.8 mph WSW9.3 kmh WSW 8.9 mph14.3 kmh 30.15 in1021.0 mb 0.07 in1.8 mm 0.00 in0.0 mm 0.10 in2.5 mm
08:18 AM 31.5°F-0.3°C 21.1°F-6.1°C 65% 5.8 mph W9.3 kmh W 6.8 mph10.9 kmh 30.15 in1021.0 mb 0.07 in1.8 mm 0.00 in0.0 mm 0.10 in2.5 mm
08:17 AM 31.5°F-0.3°C 21.1°F-6.1°C 65% 4.7 mph NNW7.6 kmh NNW 9.9 mph15.9 kmh 30.15 in1021.0 mb 0.07 in1.8 mm 0.00 in0.0 mm 0.10 in2.5 mm
08:16 AM 31.5°F-0.3°C 21.5°F-5.8°C 66% 5.8 mph W9.3 kmh W 9.9 mph15.9 kmh 30.15 in1021.0 mb 0.07 in1.8 mm 0.00 in0.0 mm 0.10 in2.5 mm
08:15 AM 31.3°F-0.4°C 21.3°F-5.9°C 66% 4.7 mph NW7.6 kmh NW 9.9 mph15.9 kmh 30.15 in1021.0 mb 0.07 in1.8 mm 0.00 in0.0 mm 0.10 in2.5 mm
08:14 AM 31.3°F-0.4°C 21.3°F-5.9°C 66% 3.7 mph W6.0 kmh W 9.9 mph15.9 kmh 30.15 in1021.0 mb 0.07 in1.8 mm 0.00 in0.0 mm 0.10 in2.5 mm
08:13 AM 31.1°F-0.5°C 21.1°F-6.1°C 66% 2.7 mph W4.3 kmh W 9.9 mph15.9 kmh 30.14 in1020.7 mb 0.07 in1.8 mm 0.00 in0.0 mm 0.10 in2.5 mm
08:12 AM 30.9°F-0.6°C 20.9°F-6.2°C 66% 4.7 mph WNW7.6 kmh WNW 9.9 mph15.9 kmh 30.14 in1020.7 mb 0.07 in1.8 mm 0.00 in0.0 mm 0.10 in2.5 mm
08:11 AM 30.9°F-0.6°C 21.3°F-5.9°C 67% Calm Calm 9.9 mph15.9 kmh 30.14 in1020.7 mb 0.07 in1.8 mm 0.00 in0.0 mm 0.10 in2.5 mm
08:10 AM 30.7°F-0.7°C 21.1°F-6.1°C 67% Calm Calm 9.9 mph15.9 kmh 30.14 in1020.7 mb 0.07 in1.8 mm 0.00 in0.0 mm 0.10 in2.5 mm
08:09 AM 30.7°F-0.7°C 21.1°F-6.1°C 67% Calm Calm 9.9 mph15.9 kmh 30.14 in1020.7 mb 0.07 in1.8 mm 0.00 in0.0 mm 0.10 in2.5 mm
08:08 AM 30.6°F-0.8°C 21.0°F-6.1°C 67% 5.8 mph NW9.3 kmh NW 9.9 mph15.9 kmh 30.14 in1020.7 mb 0.07 in1.8 mm 0.00 in0.0 mm 0.10 in2.5 mm
08:07 AM 30.6°F-0.8°C 21.0°F-6.1°C 67% 6.8 mph NNW10.9 kmh NNW 8.3 mph13.4 kmh 30.14 in1020.7 mb 0.07 in1.8 mm 0.00 in0.0 mm 0.10 in2.5 mm
08:06 AM 30.6°F-0.8°C 21.0°F-6.1°C 67% Calm Calm 8.3 mph13.4 kmh 30.14 in1020.7 mb 0.07 in1.8 mm 0.00 in0.0 mm 0.10 in2.5 mm
08:05 AM 30.4°F-0.9°C 20.8°F-6.2°C 67% Calm Calm 8.3 mph13.4 kmh 30.14 in1020.7 mb 0.07 in1.8 mm 0.00 in0.0 mm 0.10 in2.5 mm
08:04 AM 30.4°F-0.9°C 20.8°F-6.2°C 67% 5.8 mph NW9.3 kmh NW 8.3 mph13.4 kmh 30.14 in1020.7 mb 0.07 in1.8 mm 0.00 in0.0 mm 0.10 in2.5 mm
08:03 AM 30.2°F-1.0°C 20.6°F-6.3°C 67% 1.7 mph NW2.7 kmh NW 8.3 mph13.4 kmh 30.14 in1020.7 mb 0.07 in1.8 mm 0.00 in0.0 mm 0.10 in2.5 mm
08:02 AM 30.2°F-1.0°C 20.6°F-6.3°C 67% 4.7 mph WNW7.6 kmh WNW 7.8 mph12.6 kmh 30.14 in1020.7 mb 0.07 in1.8 mm 0.00 in0.0 mm 0.10 in2.5 mm
08:01 AM 30.2°F-1.0°C 20.6°F-6.3°C 67% 4.2 mph W6.8 kmh W 7.8 mph12.6 kmh 30.14 in1020.7 mb 0.07 in1.8 mm 0.00 in0.0 mm 0.10 in2.5 mm
08:00 AM 30.2°F-1.0°C 20.6°F-6.3°C 67% 2.7 mph W4.3 kmh W 7.8 mph12.6 kmh 30.14 in1020.7 mb 0.07 in1.8 mm 0.00 in0.0 mm 0.10 in2.5 mm
07:59 AM 30.2°F-1.0°C 20.6°F-6.3°C 67% 6.8 mph W10.9 kmh W 7.8 mph12.6 kmh 30.14 in1020.7 mb 0.07 in1.8 mm 0.00 in0.0 mm 0.10 in2.5 mm
07:58 AM 30.0°F-1.1°C 20.4°F-6.4°C 67% 3.7 mph W6.0 kmh W 7.8 mph12.6 kmh 30.14 in1020.7 mb 0.07 in1.8 mm 0.00 in0.0 mm 0.10 in2.5 mm
07:57 AM 30.0°F-1.1°C 20.4°F-6.4°C 67% 4.2 mph NNW6.8 kmh NNW 7.8 mph12.6 kmh 30.14 in1020.7 mb 0.07 in1.8 mm 0.00 in0.0 mm 0.10 in2.5 mm
07:56 AM 30.0°F-1.1°C 20.4°F-6.4°C 67% 4.7 mph NNW7.6 kmh NNW 7.8 mph12.6 kmh 30.14 in1020.7 mb 0.07 in1.8 mm 0.00 in0.0 mm 0.10 in2.5 mm
07:55 AM 30.0°F-1.1°C 20.4°F-6.4°C 67% 6.3 mph NNW10.1 kmh NNW 8.9 mph14.3 kmh 30.14 in1020.7 mb 0.07 in1.8 mm 0.00 in0.0 mm 0.10 in2.5 mm
07:54 AM 30.0°F-1.1°C 20.4°F-6.4°C 67% 5.8 mph W9.3 kmh W 8.9 mph14.3 kmh 30.14 in1020.7 mb 0.07 in1.8 mm 0.00 in0.0 mm 0.10 in2.5 mm
07:53 AM 30.0°F-1.1°C 20.4°F-6.4°C 67% 3.2 mph NNW5.1 kmh NNW 8.9 mph14.3 kmh 30.14 in1020.7 mb 0.07 in1.8 mm 0.00 in0.0 mm 0.10 in2.5 mm
07:52 AM 30.0°F-1.1°C 20.4°F-6.4°C 67% 3.2 mph W5.1 kmh W 8.9 mph14.3 kmh 30.14 in1020.7 mb 0.07 in1.8 mm 0.00 in0.0 mm 0.10 in2.5 mm
07:51 AM 29.8°F-1.2°C 18.4°F-7.6°C 62% 7.8 mph WSW12.6 kmh WSW 8.9 mph14.3 kmh 30.14 in1020.7 mb 0.07 in1.8 mm 0.00 in0.0 mm 0.10 in2.5 mm
07:50 AM 29.8°F-1.2°C 20.5°F-6.4°C 68% Calm Calm 8.9 mph14.3 kmh 30.14 in1020.7 mb 0.07 in1.8 mm 0.00 in0.0 mm 0.10 in2.5 mm
07:49 AM 29.8°F-1.2°C 20.5°F-6.4°C 68% Calm Calm 8.9 mph14.3 kmh 30.14 in1020.7 mb 0.07 in1.8 mm 0.00 in0.0 mm 0.10 in2.5 mm
07:48 AM 29.8°F-1.2°C 20.5°F-6.4°C 68% Calm Calm 8.9 mph14.3 kmh 30.14 in1020.7 mb 0.07 in1.8 mm 0.00 in0.0 mm 0.10 in2.5 mm
07:47 AM 29.8°F-1.2°C 20.5°F-6.4°C 68% Calm Calm 8.9 mph14.3 kmh 30.14 in1020.7 mb 0.07 in1.8 mm 0.00 in0.0 mm 0.10 in2.5 mm
07:46 AM 29.7°F-1.3°C 20.5°F-6.4°C 68% 1.7 mph W2.7 kmh W 8.9 mph14.3 kmh 30.14 in1020.7 mb 0.07 in1.8 mm 0.00 in0.0 mm 0.10 in2.5 mm
07:45 AM 29.7°F-1.3°C 20.5°F-6.4°C 68% Calm Calm 8.3 mph13.4 kmh 30.14 in1020.7 mb 0.07 in1.8 mm 0.00 in0.0 mm 0.10 in2.5 mm
07:44 AM 29.7°F-1.3°C 20.8°F-6.2°C 69% 8.3 mph WSW13.4 kmh WSW 8.3 mph13.4 kmh 30.14 in1020.7 mb 0.07 in1.8 mm 0.00 in0.0 mm 0.10 in2.5 mm
07:43 AM 29.7°F-1.3°C 20.8°F-6.2°C 69% Calm Calm 10.9 mph17.5 kmh 30.14 in1020.7 mb 0.07 in1.8 mm 0.00 in0.0 mm 0.10 in2.5 mm
07:42 AM 29.7°F-1.3°C 18.3°F-7.6°C 62% 2.2 mph W3.5 kmh W 10.9 mph17.5 kmh 30.14 in1020.7 mb 0.07 in1.8 mm 0.00 in0.0 mm 0.10 in2.5 mm
07:41 AM 29.7°F-1.3°C 20.5°F-6.4°C 68% Calm Calm 10.9 mph17.5 kmh 30.14 in1020.7 mb 0.07 in1.8 mm 0.00 in0.0 mm 0.10 in2.5 mm
07:40 AM 29.7°F-1.3°C 20.5°F-6.4°C 68% Calm Calm 10.9 mph17.5 kmh 30.14 in1020.7 mb 0.07 in1.8 mm 0.00 in0.0 mm 0.10 in2.5 mm
07:39 AM 29.7°F-1.3°C 20.5°F-6.4°C 68% 3.7 mph WNW6.0 kmh WNW 10.9 mph17.5 kmh 30.14 in1020.7 mb 0.07 in1.8 mm 0.00 in0.0 mm 0.10 in2.5 mm
07:38 AM 29.7°F-1.3°C 20.5°F-6.4°C 68% Calm Calm 10.9 mph17.5 kmh 30.14 in1020.7 mb 0.07 in1.8 mm 0.00 in0.0 mm 0.10 in2.5 mm
07:37 AM 29.7°F-1.3°C 20.5°F-6.4°C 68% 6.3 mph WNW10.1 kmh WNW 10.9 mph17.5 kmh 30.14 in1020.7 mb 0.07 in1.8 mm 0.00 in0.0 mm 0.10 in2.5 mm
07:36 AM 29.7°F-1.3°C 20.5°F-6.4°C 68% 6.3 mph NW10.1 kmh NW 10.9 mph17.5 kmh 30.14 in1020.7 mb 0.07 in1.8 mm 0.00 in0.0 mm 0.10 in2.5 mm
07:35 AM 29.7°F-1.3°C 20.5°F-6.4°C 68% 4.2 mph WSW6.8 kmh WSW 10.9 mph17.5 kmh 30.14 in1020.7 mb 0.07 in1.8 mm 0.00 in0.0 mm 0.10 in2.5 mm
07:34 AM 29.7°F-1.3°C 20.5°F-6.4°C 68% 6.8 mph W10.9 kmh W 10.9 mph17.5 kmh 30.14 in1020.7 mb 0.07 in1.8 mm 0.00 in0.0 mm 0.10 in2.5 mm
07:33 AM 29.5°F-1.4°C 20.3°F-6.5°C 68% Calm Calm 9.4 mph15.1 kmh 30.14 in1020.7 mb 0.07 in1.8 mm 0.00 in0.0 mm 0.10 in2.5 mm
07:32 AM 29.5°F-1.4°C 20.3°F-6.5°C 68% Calm Calm 9.4 mph15.1 kmh 30.14 in1020.7 mb 0.07 in1.8 mm 0.00 in0.0 mm 0.10 in2.5 mm
07:31 AM 29.5°F-1.4°C 20.3°F-6.5°C 68% Calm Calm 9.4 mph15.1 kmh 30.14 in1020.7 mb 0.07 in1.8 mm 0.00 in0.0 mm 0.10 in2.5 mm
07:30 AM 29.5°F-1.4°C 20.3°F-6.5°C 68% 1.7 mph W2.7 kmh W 9.4 mph15.1 kmh 30.14 in1020.7 mb 0.07 in1.8 mm 0.00 in0.0 mm 0.10 in2.5 mm
07:29 AM 29.5°F-1.4°C 20.3°F-6.5°C 68% 1.1 mph W1.8 kmh W 9.4 mph15.1 kmh 30.14 in1020.7 mb 0.07 in1.8 mm 0.00 in0.0 mm 0.10 in2.5 mm
07:28 AM 29.3°F-1.5°C 20.4°F-6.4°C 69% 4.7 mph SW7.6 kmh SW 7.8 mph12.6 kmh 30.14 in1020.7 mb 0.07 in1.8 mm 0.00 in0.0 mm 0.10 in2.5 mm
07:27 AM 29.3°F-1.5°C 20.4°F-6.4°C 69% 5.3 mph NW8.5 kmh NW 7.8 mph12.6 kmh 30.14 in1020.7 mb 0.07 in1.8 mm 0.00 in0.0 mm 0.10 in2.5 mm
07:26 AM 29.3°F-1.5°C 20.4°F-6.4°C 69% 3.7 mph WNW6.0 kmh WNW 9.4 mph15.1 kmh 30.14 in1020.7 mb 0.07 in1.8 mm 0.00 in0.0 mm 0.10 in2.5 mm
07:25 AM 29.3°F-1.5°C 20.4°F-6.4°C 69% 3.2 mph WNW5.1 kmh WNW 9.4 mph15.1 kmh 30.14 in1020.7 mb 0.07 in1.8 mm 4.20 in106.7 mm 0.10 in2.5 mm
07:24 AM 29.1°F-1.6°C 20.2°F-6.6°C 69% 4.7 mph WNW7.6 kmh WNW 9.4 mph15.1 kmh 30.14 in1020.7 mb 0.00 in0.0 mm 0.00 in0.0 mm 0.03 in0.8 mm
07:23 AM 29.1°F-1.6°C 20.2°F-6.6°C 69% 6.3 mph WNW10.1 kmh WNW 9.4 mph15.1 kmh 30.14 in1020.7 mb 0.00 in0.0 mm 0.00 in0.0 mm 0.03 in0.8 mm
07:22 AM 29.1°F-1.6°C 20.2°F-6.6°C 69% 4.2 mph WNW6.8 kmh WNW 9.4 mph15.1 kmh 30.14 in1020.7 mb 0.00 in0.0 mm 0.00 in0.0 mm 0.03 in0.8 mm
07:21 AM 29.1°F-1.6°C 20.2°F-6.6°C 69% 3.2 mph WNW5.1 kmh WNW 9.4 mph15.1 kmh 30.14 in1020.7 mb 0.00 in0.0 mm 0.00 in0.0 mm 0.03 in0.8 mm
07:20 AM 29.1°F-1.6°C 20.2°F-6.6°C 69% 6.8 mph W10.9 kmh W 9.4 mph15.1 kmh 30.14 in1020.7 mb 0.00 in0.0 mm 0.00 in0.0 mm 0.03 in0.8 mm
07:19 AM 29.1°F-1.6°C 20.2°F-6.6°C 69% Calm Calm 9.4 mph15.1 kmh 30.14 in1020.7 mb 0.00 in0.0 mm 0.00 in0.0 mm 0.03 in0.8 mm
07:18 AM 29.1°F-1.6°C 20.2°F-6.6°C 69% Calm Calm 9.4 mph15.1 kmh 30.14 in1020.7 mb 0.00 in0.0 mm 0.00 in0.0 mm 0.03 in0.8 mm
07:17 AM 29.1°F-1.6°C 20.2°F-6.6°C 69% 3.2 mph NW5.1 kmh NW 9.4 mph15.1 kmh 30.14 in1020.7 mb 0.00 in0.0 mm 0.00 in0.0 mm 0.03 in0.8 mm
07:16 AM 29.1°F-1.6°C 20.2°F-6.6°C 69% 9.4 mph NW15.1 kmh NW 9.4 mph15.1 kmh 30.14 in1020.7 mb 0.00 in0.0 mm 0.00 in0.0 mm 0.03 in0.8 mm
07:15 AM 29.1°F-1.6°C 20.2°F-6.6°C 69% Calm Calm 7.8 mph12.6 kmh 30.14 in1020.7 mb 0.00 in0.0 mm 0.00 in0.0 mm 0.03 in0.8 mm
07:14 AM 29.1°F-1.6°C 20.2°F-6.6°C 69% 5.8 mph W9.3 kmh W 7.8 mph12.6 kmh 30.14 in1020.7 mb 0.00 in0.0 mm 0.00 in0.0 mm 0.03 in0.8 mm
07:13 AM 29.1°F-1.6°C 20.2°F-6.6°C 69% 6.8 mph W10.9 kmh W 6.8 mph10.9 kmh 30.14 in1020.7 mb 0.00 in0.0 mm 0.00 in0.0 mm 0.03 in0.8 mm
07:12 AM 29.1°F-1.6°C 20.2°F-6.6°C 69% Calm Calm 4.2 mph6.8 kmh 30.13 in1020.3 mb 0.00 in0.0 mm 0.00 in0.0 mm 0.03 in0.8 mm
07:11 AM 29.1°F-1.6°C 20.2°F-6.6°C 69% Calm Calm 9.4 mph15.1 kmh 30.13 in1020.3 mb 0.00 in0.0 mm 0.00 in0.0 mm 0.03 in0.8 mm
07:10 AM 29.1°F-1.6°C 20.2°F-6.6°C 69% Calm Calm 9.4 mph15.1 kmh 30.13 in1020.3 mb 0.00 in0.0 mm 0.00 in0.0 mm 0.03 in0.8 mm
07:09 AM 29.1°F-1.6°C 20.2°F-6.6°C 69% Calm Calm 9.4 mph15.1 kmh 30.13 in1020.3 mb 0.00 in0.0 mm 0.00 in0.0 mm 0.03 in0.8 mm
07:08 AM 29.1°F-1.6°C 20.2°F-6.6°C 69% Calm Calm 9.4 mph15.1 kmh 30.13 in1020.3 mb 0.00 in0.0 mm 0.00 in0.0 mm 0.03 in0.8 mm
07:07 AM 29.1°F-1.6°C 20.2°F-6.6°C 69% Calm Calm 9.4 mph15.1 kmh 30.13 in1020.3 mb 0.00 in0.0 mm 0.00 in0.0 mm 0.03 in0.8 mm
07:06 AM 29.1°F-1.6°C 20.2°F-6.6°C 69% Calm Calm 9.4 mph15.1 kmh 30.13 in1020.3 mb 0.00 in0.0 mm 0.00 in0.0 mm 0.03 in0.8 mm
07:05 AM 29.1°F-1.6°C 20.2°F-6.6°C 69% Calm Calm 9.4 mph15.1 kmh 30.13 in1020.3 mb 0.00 in0.0 mm 0.00 in0.0 mm 0.03 in0.8 mm
07:04 AM 29.1°F-1.6°C 20.2°F-6.6°C 69% 1.7 mph WNW2.7 kmh WNW 9.4 mph15.1 kmh 30.13 in1020.3 mb 0.00 in0.0 mm 0.00 in0.0 mm 0.03 in0.8 mm
07:03 AM 29.1°F-1.6°C 20.2°F-6.6°C 69% Calm Calm 9.4 mph15.1 kmh 30.13 in1020.3 mb 0.00 in0.0 mm 0.00 in0.0 mm 0.03 in0.8 mm
07:02 AM 29.1°F-1.6°C 20.2°F-6.6°C 69% Calm Calm 9.4 mph15.1 kmh 30.13 in1020.3 mb 0.00 in0.0 mm 0.00 in0.0 mm 0.03 in0.8 mm
07:01 AM 29.1°F-1.6°C 20.2°F-6.6°C 69% Calm Calm 3.7 mph6.0 kmh 30.13 in1020.3 mb 0.00 in0.0 mm 0.00 in0.0 mm 0.03 in0.8 mm
07:00 AM 29.1°F-1.6°C 20.2°F-6.6°C 69% Calm Calm 3.7 mph6.0 kmh 30.13 in1020.3 mb 0.00 in0.0 mm 0.00 in0.0 mm 0.03 in0.8 mm
06:59 AM 29.1°F-1.6°C 20.2°F-6.6°C 69% Calm Calm 3.7 mph6.0 kmh 30.13 in1020.3 mb 0.00 in0.0 mm 0.00 in0.0 mm 0.03 in0.8 mm
06:58 AM 29.1°F-1.6°C 20.2°F-6.6°C 69% Calm Calm 3.7 mph6.0 kmh 30.13 in1020.3 mb 0.00 in0.0 mm 0.00 in0.0 mm 0.03 in0.8 mm
06:57 AM 29.1°F-1.6°C 20.2°F-6.6°C 69% Calm Calm 3.7 mph6.0 kmh 30.13 in1020.3 mb 0.00 in0.0 mm 0.00 in0.0 mm 0.03 in0.8 mm
06:56 AM 29.1°F-1.6°C 20.2°F-6.6°C 69% Calm Calm 3.7 mph6.0 kmh 30.13 in1020.3 mb 0.00 in0.0 mm 0.00 in0.0 mm 0.03 in0.8 mm
06:55 AM 29.1°F-1.6°C 20.2°F-6.6°C 69% Calm Calm 3.7 mph6.0 kmh 30.13 in1020.3 mb 0.00 in0.0 mm 0.00 in0.0 mm 0.03 in0.8 mm
06:54 AM 29.1°F-1.6°C 20.2°F-6.6°C 69% Calm Calm 3.7 mph6.0 kmh 30.13 in1020.3 mb 0.00 in0.0 mm 0.00 in0.0 mm 0.03 in0.8 mm
06:53 AM 29.1°F-1.6°C 20.2°F-6.6°C 69% Calm Calm 3.7 mph6.0 kmh 30.13 in1020.3 mb 0.00 in0.0 mm 0.00 in0.0 mm 0.03 in0.8 mm
06:52 AM 29.1°F-1.6°C 20.2°F-6.6°C 69% Calm Calm 3.7 mph6.0 kmh 30.13 in1020.3 mb 0.00 in0.0 mm 0.00 in0.0 mm 0.03 in0.8 mm
06:51 AM 29.1°F-1.6°C 20.2°F-6.6°C 69% Calm Calm 3.7 mph6.0 kmh 30.13 in1020.3 mb 0.00 in0.0 mm 0.00 in0.0 mm 0.03 in0.8 mm
06:50 AM 29.1°F-1.6°C 20.2°F-6.6°C 69% Calm Calm 3.7 mph6.0 kmh 30.13 in1020.3 mb 0.00 in0.0 mm 0.00 in0.0 mm 0.03 in0.8 mm
06:49 AM 29.1°F-1.6°C 20.2°F-6.6°C 69% Calm Calm 3.2 mph5.1 kmh 30.13 in1020.3 mb 0.00 in0.0 mm 0.00 in0.0 mm 0.03 in0.8 mm
06:48 AM 29.1°F-1.6°C 20.2°F-6.6°C 69% Calm Calm 3.2 mph5.1 kmh 30.13 in1020.3 mb 0.00 in0.0 mm 0.00 in0.0 mm 0.03 in0.8 mm
06:47 AM 29.1°F-1.6°C 20.2°F-6.6°C 69% Calm Calm 3.2 mph5.1 kmh 30.13 in1020.3 mb 0.00 in0.0 mm 0.00 in0.0 mm 0.03 in0.8 mm
06:46 AM 29.1°F-1.6°C 20.2°F-6.6°C 69% Calm Calm 3.2 mph5.1 kmh 30.13 in1020.3 mb 0.00 in0.0 mm 0.00 in0.0 mm 0.03 in0.8 mm
06:45 AM 29.1°F-1.6°C 20.2°F-6.6°C 69% Calm Calm 3.2 mph5.1 kmh 30.13 in1020.3 mb 0.00 in0.0 mm 0.00 in0.0 mm 0.03 in0.8 mm
06:44 AM 29.1°F-1.6°C 20.2°F-6.6°C 69% Calm Calm 3.2 mph5.1 kmh 30.13 in1020.3 mb 0.00 in0.0 mm 0.00 in0.0 mm 0.03 in0.8 mm
06:43 AM 29.1°F-1.6°C 19.9°F-6.7°C 68% Calm Calm 3.2 mph5.1 kmh 30.13 in1020.3 mb 0.00 in0.0 mm 0.00 in0.0 mm 0.03 in0.8 mm
06:42 AM 29.1°F-1.6°C 19.9°F-6.7°C 68% Calm Calm 3.2 mph5.1 kmh 30.13 in1020.3 mb 0.00 in0.0 mm 0.00 in0.0 mm 0.03 in0.8 mm
06:41 AM 29.1°F-1.6°C 19.9°F-6.7°C 68% Calm Calm 1.7 mph2.7 kmh 30.13 in1020.3 mb 0.00 in0.0 mm 0.00 in0.0 mm 0.03 in0.8 mm
06:40 AM 29.1°F-1.6°C 19.9°F-6.7°C 68% Calm Calm 1.7 mph2.7 kmh 30.13 in1020.3 mb 0.00 in0.0 mm 0.00 in0.0 mm 0.03 in0.8 mm
06:39 AM 29.3°F-1.5°C 20.1°F-6.6°C 68% Calm Calm 1.1 mph1.8 kmh 30.13 in1020.3 mb 0.00 in0.0 mm 0.00 in0.0 mm 0.03 in0.8 mm
06:38 AM 29.3°F-1.5°C 20.1°F-6.6°C 68% Calm Calm 5.3 mph8.5 kmh 30.13 in1020.3 mb 0.00 in0.0 mm 0.00 in0.0 mm 0.03 in0.8 mm
06:37 AM 29.3°F-1.5°C 20.1°F-6.6°C 68% Calm Calm 5.3 mph8.5 kmh 30.13 in1020.3 mb 0.00 in0.0 mm 0.00 in0.0 mm 0.03 in0.8 mm
06:36 AM 29.3°F-1.5°C 20.1°F-6.6°C 68% Calm Calm 5.3 mph8.5 kmh 30.13 in1020.3 mb 0.00 in0.0 mm 0.00 in0.0 mm 0.03 in0.8 mm
06:35 AM 29.3°F-1.5°C 20.1°F-6.6°C 68% Calm Calm 5.3 mph8.5 kmh 30.13 in1020.3 mb 0.00 in0.0 mm 0.00 in0.0 mm 0.03 in0.8 mm
06:34 AM 29.3°F-1.5°C 20.1°F-6.6°C 68% Calm Calm 6.8 mph10.9 kmh 30.13 in1020.3 mb 0.00 in0.0 mm 0.00 in0.0 mm 0.03 in0.8 mm
06:33 AM 29.3°F-1.5°C 20.1°F-6.6°C 68% Calm Calm 6.8 mph10.9 kmh 30.13 in1020.3 mb 0.00 in0.0 mm 0.00 in0.0 mm 0.03 in0.8 mm
06:32 AM 29.3°F-1.5°C 20.1°F-6.6°C 68% Calm Calm 6.8 mph10.9 kmh 30.13 in1020.3 mb 0.00 in0.0 mm 0.00 in0.0 mm 0.03 in0.8 mm
06:31 AM 29.3°F-1.5°C 20.1°F-6.6°C 68% Calm Calm 6.8 mph10.9 kmh 30.13 in1020.3 mb 0.00 in0.0 mm 0.00 in0.0 mm 0.03 in0.8 mm
06:30 AM 29.3°F-1.5°C 20.1°F-6.6°C 68% Calm Calm 6.8 mph10.9 kmh 30.13 in1020.3 mb 0.00 in0.0 mm 0.00 in0.0 mm 0.03 in0.8 mm
06:29 AM 29.3°F-1.5°C 20.1°F-6.6°C 68% Calm Calm 6.8 mph10.9 kmh 30.13 in1020.3 mb 0.00 in0.0 mm 0.00 in0.0 mm 0.03 in0.8 mm
06:28 AM 29.3°F-1.5°C 20.1°F-6.6°C 68% Calm Calm 6.8 mph10.9 kmh 30.13 in1020.3 mb 0.00 in0.0 mm 0.00 in0.0 mm 0.03 in0.8 mm
06:27 AM 29.3°F-1.5°C 20.1°F-6.6°C 68% Calm Calm 6.8 mph10.9 kmh 30.13 in1020.3 mb 0.00 in0.0 mm 0.00 in0.0 mm 0.03 in0.8 mm
06:26 AM 29.3°F-1.5°C 20.1°F-6.6°C 68% Calm Calm 6.8 mph10.9 kmh 30.13 in1020.3 mb 0.00 in0.0 mm 0.00 in0.0 mm 0.03 in0.8 mm
06:25 AM 29.3°F-1.5°C 20.1°F-6.6°C 68% Calm Calm 6.8 mph10.9 kmh 30.13 in1020.3 mb 0.00 in0.0 mm 0.00 in0.0 mm 0.03 in0.8 mm
06:24 AM 29.3°F-1.5°C 20.1°F-6.6°C 68% 1.1 mph NW1.8 kmh NW 1.1 mph1.8 kmh 30.13 in1020.3 mb 0.00 in0.0 mm 0.00 in0.0 mm 0.03 in0.8 mm
06:23 AM 29.3°F-1.5°C 20.1°F-6.6°C 68% Calm Calm 1.1 mph1.8 kmh 30.13 in1020.3 mb 0.00 in0.0 mm 0.00 in0.0 mm 0.03 in0.8 mm
06:22 AM 29.5°F-1.4°C 20.3°F-6.5°C 68% Calm Calm 1.1 mph1.8 kmh 30.13 in1020.3 mb 0.00 in0.0 mm 0.00 in0.0 mm 0.03 in0.8 mm
06:21 AM 29.5°F-1.4°C 20.3°F-6.5°C 68% Calm Calm 1.1 mph1.8 kmh 30.13 in1020.3 mb 0.00 in0.0 mm 0.00 in0.0 mm 0.03 in0.8 mm
06:20 AM 29.5°F-1.4°C 20.3°F-6.5°C 68% Calm Calm 1.1 mph1.8 kmh 30.13 in1020.3 mb 0.00 in0.0 mm 0.00 in0.0 mm 0.03 in0.8 mm
06:19 AM 30.8°F-0.7°C 19.3°F-7.1°C 62% Calm Calm 1.1 mph1.8 kmh 30.13 in1020.3 mb 0.00 in0.0 mm 0.00 in0.0 mm 0.03 in0.8 mm
06:18 AM 29.5°F-1.4°C 19.9°F-6.7°C 67% Calm Calm 1.1 mph1.8 kmh 30.13 in1020.3 mb 0.00 in0.0 mm 0.00 in0.0 mm 0.03 in0.8 mm
06:17 AM 29.5°F-1.4°C 19.9°F-6.7°C 67% Calm Calm 1.1 mph1.8 kmh 30.13 in1020.3 mb 0.00 in0.0 mm 0.00 in0.0 mm 0.03 in0.8 mm
06:16 AM 29.5°F-1.4°C 19.9°F-6.7°C 67% Calm Calm 1.1 mph1.8 kmh 30.13 in1020.3 mb 0.00 in0.0 mm 0.00 in0.0 mm 0.03 in0.8 mm
06:15 AM 30.7°F-0.7°C 21.1°F-6.1°C 67% Calm Calm 1.1 mph1.8 kmh 30.13 in1020.3 mb 0.00 in0.0 mm 0.00 in0.0 mm 0.03 in0.8 mm
06:14 AM 29.5°F-1.4°C 19.9°F-6.7°C 67% 1.1 mph W1.8 kmh W 1.1 mph1.8 kmh 30.13 in1020.3 mb 0.00 in0.0 mm 0.00 in0.0 mm 0.03 in0.8 mm
06:13 AM 29.5°F-1.4°C 19.9°F-6.7°C 67% Calm Calm 1.1 mph1.8 kmh 30.13 in1020.3 mb 0.00 in0.0 mm 0.00 in0.0 mm 0.03 in0.8 mm
06:12 AM 29.5°F-1.4°C 19.9°F-6.7°C 67% Calm Calm 1.1 mph1.8 kmh 30.12 in1020.0 mb 0.00 in0.0 mm 0.00 in0.0 mm 0.03 in0.8 mm
06:11 AM 29.5°F-1.4°C 19.9°F-6.7°C 67% Calm Calm 1.1 mph1.8 kmh 30.12 in1020.0 mb 0.00 in0.0 mm 0.00 in0.0 mm 0.03 in0.8 mm
06:10 AM 29.5°F-1.4°C 19.9°F-6.7°C 67% 1.1 mph W1.8 kmh W 1.1 mph1.8 kmh 30.12 in1020.0 mb 0.00 in0.0 mm 0.00 in0.0 mm 0.03 in0.8 mm
06:09 AM 29.5°F-1.4°C 19.9°F-6.7°C 67% Calm Calm 1.1 mph1.8 kmh 30.12 in1020.0 mb 0.00 in0.0 mm 0.00 in0.0 mm 0.03 in0.8 mm
06:08 AM 29.5°F-1.4°C 19.9°F-6.7°C 67% 1.1 mph WNW1.8 kmh WNW 3.2 mph5.1 kmh 30.12 in1020.0 mb 0.00 in0.0 mm 0.00 in0.0 mm 0.03 in0.8 mm
06:07 AM 29.5°F-1.4°C 19.9°F-6.7°C 67% Calm Calm 3.2 mph5.1 kmh 30.12 in1020.0 mb 0.00 in0.0 mm 0.00 in0.0 mm 0.03 in0.8 mm
06:06 AM 29.5°F-1.4°C 19.9°F-6.7°C 67% Calm Calm 3.2 mph5.1 kmh 30.12 in1020.0 mb 0.00 in0.0 mm 0.00 in0.0 mm 0.03 in0.8 mm
06:05 AM 29.5°F-1.4°C 19.9°F-6.7°C 67% Calm Calm 3.2 mph5.1 kmh 30.12 in1020.0 mb 0.00 in0.0 mm 0.00 in0.0 mm 0.03 in0.8 mm
06:04 AM 29.5°F-1.4°C 19.9°F-6.7°C 67% Calm Calm 3.2 mph5.1 kmh 30.12 in1020.0 mb 0.00 in0.0 mm 0.00 in0.0 mm 0.03 in0.8 mm
06:03 AM 29.5°F-1.4°C 19.9°F-6.7°C 67% Calm Calm 3.2 mph5.1 kmh 30.12 in1020.0 mb 0.00 in0.0 mm 0.00 in0.0 mm 0.03 in0.8 mm
06:02 AM 29.5°F-1.4°C 19.9°F-6.7°C 67% Calm Calm 8.9 mph14.3 kmh 30.12 in1020.0 mb 0.00 in0.0 mm 0.00 in0.0 mm 0.03 in0.8 mm
06:01 AM 29.5°F-1.4°C 19.9°F-6.7°C 67% Calm Calm 8.9 mph14.3 kmh 30.12 in1020.0 mb 0.00 in0.0 mm 0.00 in0.0 mm 0.03 in0.8 mm
06:00 AM 29.5°F-1.4°C 19.9°F-6.7°C 67% Calm Calm 8.9 mph14.3 kmh 30.12 in1020.0 mb 0.00 in0.0 mm 0.00 in0.0 mm 0.03 in0.8 mm
05:59 AM 29.5°F-1.4°C 19.9°F-6.7°C 67% Calm Calm 8.9 mph14.3 kmh 30.12 in1020.0 mb 0.00 in0.0 mm 0.00 in0.0 mm 0.03 in0.8 mm
05:58 AM 29.5°F-1.4°C 19.9°F-6.7°C 67% Calm Calm 8.9 mph14.3 kmh 30.12 in1020.0 mb 0.00 in0.0 mm 0.00 in0.0 mm 0.03 in0.8 mm
05:57 AM 29.5°F-1.4°C 19.9°F-6.7°C 67% Calm Calm 8.9 mph14.3 kmh 30.12 in1020.0 mb 0.00 in0.0 mm 0.00 in0.0 mm 0.03 in0.8 mm
05:56 AM 29.5°F-1.4°C 19.9°F-6.7°C 67% Calm Calm 8.9 mph14.3 kmh 30.12 in1020.0 mb 0.00 in0.0 mm 0.00 in0.0 mm 0.03 in0.8 mm
05:55 AM 29.5°F-1.4°C 19.9°F-6.7°C 67% Calm Calm 8.9 mph14.3 kmh 30.12 in1020.0 mb 0.00 in0.0 mm 0.00 in0.0 mm 0.03 in0.8 mm
05:54 AM 29.5°F-1.4°C 19.9°F-6.7°C 67% Calm Calm 8.9 mph14.3 kmh 30.12 in1020.0 mb 0.00 in0.0 mm 0.00 in0.0 mm 0.03 in0.8 mm
05:53 AM 29.5°F-1.4°C 19.9°F-6.7°C 67% 4.7 mph WNW7.6 kmh WNW 8.9 mph14.3 kmh 30.12 in1020.0 mb 0.00 in0.0 mm 0.00 in0.0 mm 0.03 in0.8 mm
05:52 AM 30.7°F-0.7°C 19.2°F-7.1°C 62% 8.9 mph NW14.3 kmh NW 8.9 mph14.3 kmh 30.12 in1020.0 mb 0.00 in0.0 mm 0.00 in0.0 mm 0.03 in0.8 mm
05:51 AM 29.5°F-1.4°C 19.9°F-6.7°C 67% Calm Calm 1.7 mph2.7 kmh 30.12 in1020.0 mb 0.00 in0.0 mm 0.00 in0.0 mm 0.03 in0.8 mm
05:50 AM 29.5°F-1.4°C 19.9°F-6.7°C 67% Calm Calm 1.7 mph2.7 kmh 30.12 in1020.0 mb 0.00 in0.0 mm 0.00 in0.0 mm 0.03 in0.8 mm
05:49 AM 29.5°F-1.4°C 19.9°F-6.7°C 67% Calm Calm 2.2 mph3.5 kmh 30.12 in1020.0 mb 0.00 in0.0 mm 0.00 in0.0 mm 0.03 in0.8 mm
05:48 AM 29.5°F-1.4°C 19.9°F-6.7°C 67% Calm Calm 2.2 mph3.5 kmh 30.11 in1019.6 mb 0.00 in0.0 mm 0.00 in0.0 mm 0.03 in0.8 mm
05:47 AM 29.5°F-1.4°C 19.9°F-6.7°C 67% Calm Calm 2.2 mph3.5 kmh 30.11 in1019.6 mb 0.00 in0.0 mm 0.00 in0.0 mm 0.03 in0.8 mm
05:46 AM 29.5°F-1.4°C 20.3°F-6.5°C 68% Calm Calm 2.2 mph3.5 kmh 30.11 in1019.6 mb 0.00 in0.0 mm 0.00 in0.0 mm 0.03 in0.8 mm
05:45 AM 29.5°F-1.4°C 19.9°F-6.7°C 67% Calm Calm 2.2 mph3.5 kmh 30.11 in1019.6 mb 0.00 in0.0 mm 0.00 in0.0 mm 0.03 in0.8 mm
05:44 AM 29.5°F-1.4°C 18.1°F-7.7°C 62% Calm Calm 6.8 mph10.9 kmh 30.11 in1019.6 mb 0.00 in0.0 mm 0.00 in0.0 mm 0.03 in0.8 mm
05:43 AM 29.5°F-1.4°C 18.1°F-7.7°C 62% Calm Calm 6.8 mph10.9 kmh 30.11 in1019.6 mb 0.00 in0.0 mm 0.00 in0.0 mm 0.03 in0.8 mm
05:42 AM 29.5°F-1.4°C 19.9°F-6.7°C 67% Calm Calm 6.8 mph10.9 kmh 30.11 in1019.6 mb 0.00 in0.0 mm 0.00 in0.0 mm 0.03 in0.8 mm
05:41 AM 29.5°F-1.4°C 19.9°F-6.7°C 67% Calm Calm 6.8 mph10.9 kmh 30.11 in1019.6 mb 0.00 in0.0 mm 0.00 in0.0 mm 0.03 in0.8 mm
05:40 AM 29.5°F-1.4°C 19.9°F-6.7°C 67% Calm Calm 6.8 mph10.9 kmh 30.11 in1019.6 mb 0.00 in0.0 mm 0.00 in0.0 mm 0.03 in0.8 mm
05:39 AM 29.5°F-1.4°C 19.9°F-6.7°C 67% 1.1 mph W1.8 kmh W 6.8 mph10.9 kmh 30.11 in1019.6 mb 0.00 in0.0 mm 0.00 in0.0 mm 0.03 in0.8 mm
05:38 AM 29.5°F-1.4°C 19.9°F-6.7°C 67% Calm Calm 6.8 mph10.9 kmh 30.11 in1019.6 mb 0.00 in0.0 mm 0.00 in0.0 mm 0.03 in0.8 mm
05:37 AM 29.5°F-1.4°C 19.9°F-6.7°C 67% Calm Calm 6.8 mph10.9 kmh 30.11 in1019.6 mb 0.00 in0.0 mm 0.00 in0.0 mm 0.03 in0.8 mm
05:36 AM 29.5°F-1.4°C 19.9°F-6.7°C 67% Calm Calm 6.8 mph10.9 kmh 30.11 in1019.6 mb 0.00 in0.0 mm 0.00 in0.0 mm 0.03 in0.8 mm
05:35 AM 29.5°F-1.4°C 19.9°F-6.7°C 67% Calm Calm 6.8 mph10.9 kmh 30.11 in1019.6 mb 0.00 in0.0 mm 0.00 in0.0 mm 0.03 in0.8 mm
05:34 AM 29.5°F-1.4°C 19.9°F-6.7°C 67% 5.8 mph W9.3 kmh W 5.8 mph9.3 kmh 30.11 in1019.6 mb 0.00 in0.0 mm 0.00 in0.0 mm 0.03 in0.8 mm
05:33 AM 29.5°F-1.4°C 19.9°F-6.7°C 67% Calm Calm 2.2 mph3.5 kmh 30.11 in1019.6 mb 0.00 in0.0 mm 0.00 in0.0 mm 0.03 in0.8 mm
05:32 AM 29.5°F-1.4°C 19.9°F-6.7°C 67% Calm Calm 2.2 mph3.5 kmh 30.11 in1019.6 mb 0.00 in0.0 mm 0.00 in0.0 mm 0.03 in0.8 mm
05:31 AM 29.5°F-1.4°C 19.9°F-6.7°C 67% Calm Calm 2.2 mph3.5 kmh 30.11 in1019.6 mb 0.00 in0.0 mm 0.00 in0.0 mm 0.03 in0.8 mm
05:30 AM 29.5°F-1.4°C 19.9°F-6.7°C 67% Calm Calm 2.2 mph3.5 kmh 30.11 in1019.6 mb 0.00 in0.0 mm 0.00 in0.0 mm 0.03 in0.8 mm
05:29 AM 29.5°F-1.4°C 19.9°F-6.7°C 67% Calm Calm 2.2 mph3.5 kmh 30.11 in1019.6 mb 0.00 in0.0 mm 0.00 in0.0 mm 0.03 in0.8 mm
05:28 AM 29.5°F-1.4°C 19.9°F-6.7°C 67% Calm Calm 2.2 mph3.5 kmh 30.11 in1019.6 mb 0.00 in0.0 mm 0.00 in0.0 mm 0.03 in0.8 mm
05:27 AM 29.5°F-1.4°C 19.9°F-6.7°C 67% Calm Calm 2.2 mph3.5 kmh 30.11 in1019.6 mb 0.00 in0.0 mm 0.00 in0.0 mm 0.03 in0.8 mm
05:26 AM 29.5°F-1.4°C 19.9°F-6.7°C 67% Calm Calm 2.2 mph3.5 kmh 30.11 in1019.6 mb 0.00 in0.0 mm 0.00 in0.0 mm 0.03 in0.8 mm
05:25 AM 29.5°F-1.4°C 19.9°F-6.7°C 67% Calm Calm 2.2 mph3.5 kmh 30.11 in1019.6 mb 0.00 in0.0 mm 0.00 in0.0 mm 0.03 in0.8 mm
05:24 AM 29.5°F-1.4°C 19.9°F-6.7°C 67% Calm Calm 2.2 mph3.5 kmh 30.10 in1019.3 mb 0.00 in0.0 mm 0.00 in0.0 mm 0.03 in0.8 mm
05:23 AM 29.5°F-1.4°C 19.9°F-6.7°C 67% Calm Calm 10.4 mph16.7 kmh 30.10 in1019.3 mb 0.00 in0.0 mm 0.00 in0.0 mm 0.03 in0.8 mm
05:22 AM 29.5°F-1.4°C 19.9°F-6.7°C 67% Calm Calm 10.4 mph16.7 kmh 30.10 in1019.3 mb 0.00 in0.0 mm 0.00 in0.0 mm 0.03 in0.8 mm
05:21 AM 29.5°F-1.4°C 19.9°F-6.7°C 67% Calm Calm 10.4 mph16.7 kmh 30.10 in1019.3 mb 0.00 in0.0 mm 0.00 in0.0 mm 0.03 in0.8 mm
05:20 AM 29.7°F-1.3°C 20.1°F-6.6°C 67% Calm Calm 10.4 mph16.7 kmh 30.10 in1019.3 mb 0.00 in0.0 mm 0.00 in0.0 mm 0.03 in0.8 mm
05:19 AM 29.7°F-1.3°C 20.1°F-6.6°C 67% Calm Calm 10.4 mph16.7 kmh 30.10 in1019.3 mb 0.00 in0.0 mm 0.00 in0.0 mm 0.03 in0.8 mm
05:18 AM 29.7°F-1.3°C 20.1°F-6.6°C 67% Calm Calm 10.4 mph16.7 kmh 30.10 in1019.3 mb 0.00 in0.0 mm 0.00 in0.0 mm 0.03 in0.8 mm
05:17 AM 29.7°F-1.3°C 20.1°F-6.6°C 67% Calm Calm 10.4 mph16.7 kmh 30.10 in1019.3 mb 0.00 in0.0 mm 0.00 in0.0 mm 0.03 in0.8 mm
05:16 AM 29.7°F-1.3°C 20.1°F-6.6°C 67% Calm Calm 15.5 mph24.9 kmh 30.10 in1019.3 mb 0.00 in0.0 mm 0.00 in0.0 mm 0.03 in0.8 mm
05:15 AM 29.7°F-1.3°C 20.1°F-6.6°C 67% Calm Calm 15.5 mph24.9 kmh 30.10 in1019.3 mb 0.00 in0.0 mm 0.00 in0.0 mm 0.03 in0.8 mm
05:14 AM 29.7°F-1.3°C 20.1°F-6.6°C 67% Calm Calm 15.5 mph24.9 kmh 30.10 in1019.3 mb 0.00 in0.0 mm 0.00 in0.0 mm 0.03 in0.8 mm
05:13 AM 29.7°F-1.3°C 20.1°F-6.6°C 67% 10.4 mph NW16.7 kmh NW 15.5 mph24.9 kmh 30.09 in1019.0 mb 0.00 in0.0 mm 0.00 in0.0 mm 0.03 in0.8 mm
05:12 AM 29.7°F-1.3°C 20.1°F-6.6°C 67% Calm Calm 15.5 mph24.9 kmh 30.09 in1019.0 mb 0.00 in0.0 mm 0.00 in0.0 mm 0.03 in0.8 mm
05:11 AM 29.7°F-1.3°C 20.1°F-6.6°C 67% Calm Calm 15.5 mph24.9 kmh 30.09 in1019.0 mb 0.00 in0.0 mm 0.00 in0.0 mm 0.03 in0.8 mm
05:10 AM 29.7°F-1.3°C 20.1°F-6.6°C 67% Calm Calm 15.5 mph24.9 kmh 30.09 in1019.0 mb 0.00 in0.0 mm 0.00 in0.0 mm 0.03 in0.8 mm
05:09 AM 29.7°F-1.3°C 19.8°F-6.8°C 66% Calm Calm 15.5 mph24.9 kmh 30.09 in1019.0 mb 0.00 in0.0 mm 0.00 in0.0 mm 0.03 in0.8 mm
05:08 AM 29.7°F-1.3°C 19.8°F-6.8°C 66% Calm Calm 15.5 mph24.9 kmh 30.09 in1019.0 mb 0.00 in0.0 mm 0.00 in0.0 mm 0.03 in0.8 mm
05:07 AM 29.7°F-1.3°C 19.8°F-6.8°C 66% Calm Calm 15.5 mph24.9 kmh 30.09 in1019.0 mb 0.00 in0.0 mm 0.00 in0.0 mm 0.03 in0.8 mm
05:06 AM 29.7°F-1.3°C 19.8°F-6.8°C 66% 15.5 mph NNW24.9 kmh NNW 15.5 mph24.9 kmh 30.09 in1019.0 mb 0.00 in0.0 mm 0.00 in0.0 mm 0.03 in0.8 mm
05:05 AM 29.7°F-1.3°C 19.8°F-6.8°C 66% Calm Calm 1.7 mph2.7 kmh 30.09 in1019.0 mb 0.00 in0.0 mm 0.00 in0.0 mm 0.03 in0.8 mm
05:04 AM 29.7°F-1.3°C 19.8°F-6.8°C 66% Calm Calm 7.8 mph12.6 kmh 30.09 in1019.0 mb 0.00 in0.0 mm 0.00 in0.0 mm 0.03 in0.8 mm
05:03 AM 29.8°F-1.2°C 19.9°F-6.7°C 66% Calm Calm 7.8 mph12.6 kmh 30.09 in1019.0 mb 0.00 in0.0 mm 0.00 in0.0 mm 0.03 in0.8 mm
05:02 AM 29.8°F-1.2°C 19.9°F-6.7°C 66% Calm Calm 9.4 mph15.1 kmh 30.09 in1019.0 mb 0.00 in0.0 mm 0.00 in0.0 mm 0.03 in0.8 mm
05:01 AM 29.8°F-1.2°C 19.9°F-6.7°C 66% 1.1 mph W1.8 kmh W 9.4 mph15.1 kmh 30.09 in1019.0 mb 0.00 in0.0 mm 0.00 in0.0 mm 0.03 in0.8 mm
05:00 AM 29.8°F-1.2°C 19.9°F-6.7°C 66% Calm Calm 9.4 mph15.1 kmh 30.09 in1019.0 mb 0.00 in0.0 mm 0.00 in0.0 mm 0.03 in0.8 mm
04:59 AM 29.8°F-1.2°C 19.9°F-6.7°C 66% Calm Calm 9.4 mph15.1 kmh 30.09 in1019.0 mb 0.00 in0.0 mm 0.00 in0.0 mm 0.03 in0.8 mm
04:58 AM 29.8°F-1.2°C 19.9°F-6.7°C 66% Calm Calm 11.9 mph19.2 kmh 30.09 in1019.0 mb 0.00 in0.0 mm 0.00 in0.0 mm 0.03 in0.8 mm
04:57 AM 29.8°F-1.2°C 19.9°F-6.7°C 66% Calm Calm 11.9 mph19.2 kmh 30.09 in1019.0 mb 0.00 in0.0 mm 0.00 in0.0 mm 0.03 in0.8 mm
04:56 AM 29.8°F-1.2°C 19.9°F-6.7°C 66% Calm Calm 11.9 mph19.2 kmh 30.09 in1019.0 mb 0.00 in0.0 mm 0.00 in0.0 mm 0.03 in0.8 mm
04:55 AM 29.8°F-1.2°C 19.9°F-6.7°C 66% Calm Calm 11.9 mph19.2 kmh 30.09 in1019.0 mb 0.00 in0.0 mm 0.00 in0.0 mm 0.03 in0.8 mm
04:54 AM 29.8°F-1.2°C 19.9°F-6.7°C 66% 7.8 mph W12.6 kmh W 11.9 mph19.2 kmh 30.09 in1019.0 mb 0.00 in0.0 mm 0.00 in0.0 mm 0.03 in0.8 mm
04:53 AM 29.8°F-1.2°C 19.9°F-6.7°C 66% Calm Calm 11.9 mph19.2 kmh 30.09 in1019.0 mb 0.00 in0.0 mm 0.00 in0.0 mm 0.03 in0.8 mm
04:52 AM 29.8°F-1.2°C 19.9°F-6.7°C 66% 1.1 mph WNW1.8 kmh WNW 11.9 mph19.2 kmh 30.09 in1019.0 mb 0.00 in0.0 mm 0.00 in0.0 mm 0.03 in0.8 mm
04:51 AM 29.8°F-1.2°C 19.9°F-6.7°C 66% Calm Calm 11.9 mph19.2 kmh 30.09 in1019.0 mb 0.00 in0.0 mm 0.00 in0.0 mm 0.03 in0.8 mm
04:50 AM 29.8°F-1.2°C 19.9°F-6.7°C 66% Calm Calm 11.9 mph19.2 kmh 30.09 in1019.0 mb 0.00 in0.0 mm 0.00 in0.0 mm 0.03 in0.8 mm
04:49 AM 29.8°F-1.2°C 19.9°F-6.7°C 66% 3.2 mph NW5.1 kmh NW 11.9 mph19.2 kmh 30.09 in1019.0 mb 0.00 in0.0 mm 0.00 in0.0 mm 0.03 in0.8 mm
04:48 AM 29.8°F-1.2°C 19.9°F-6.7°C 66% Calm Calm 6.3 mph10.1 kmh 30.09 in1019.0 mb 0.00 in0.0 mm 0.00 in0.0 mm 0.03 in0.8 mm
04:47 AM 29.8°F-1.2°C 19.9°F-6.7°C 66% Calm Calm 6.3 mph10.1 kmh 30.09 in1019.0 mb 0.00 in0.0 mm 0.00 in0.0 mm 0.03 in0.8 mm
04:46 AM 29.8°F-1.2°C 19.9°F-6.7°C 66% Calm Calm 6.3 mph10.1 kmh 30.09 in1019.0 mb 0.00 in0.0 mm 0.00 in0.0 mm 0.03 in0.8 mm
04:45 AM 29.8°F-1.2°C 19.9°F-6.7°C 66% Calm Calm 6.3 mph10.1 kmh 30.09 in1019.0 mb 0.00 in0.0 mm 0.00 in0.0 mm 0.03 in0.8 mm
04:44 AM 29.8°F-1.2°C 19.9°F-6.7°C 66% Calm Calm 6.3 mph10.1 kmh 30.09 in1019.0 mb 0.00 in0.0 mm 0.00 in0.0 mm 0.03 in0.8 mm
04:43 AM 29.8°F-1.2°C 19.9°F-6.7°C 66% Calm Calm 6.3 mph10.1 kmh 30.09 in1019.0 mb 0.00 in0.0 mm 0.00 in0.0 mm 0.03 in0.8 mm
04:42 AM 29.8°F-1.2°C 19.9°F-6.7°C 66% Calm Calm 6.3 mph10.1 kmh 30.09 in1019.0 mb 0.00 in0.0 mm 0.00 in0.0 mm 0.03 in0.8 mm
04:41 AM 29.8°F-1.2°C 19.9°F-6.7°C 66% Calm Calm 6.3 mph10.1 kmh 30.09 in1019.0 mb 0.00 in0.0 mm 0.00 in0.0 mm 0.03 in0.8 mm
04:40 AM 29.8°F-1.2°C 19.9°F-6.7°C 66% Calm Calm 6.3 mph10.1 kmh 30.09 in1019.0 mb 0.00 in0.0 mm 0.00 in0.0 mm 0.03 in0.8 mm
04:39 AM 29.8°F-1.2°C 19.9°F-6.7°C 66% 6.3 mph WNW10.1 kmh WNW 6.3 mph10.1 kmh 30.09 in1019.0 mb 0.00 in0.0 mm 0.00 in0.0 mm 0.03 in0.8 mm
04:38 AM 29.8°F-1.2°C 19.9°F-6.7°C 66% Calm Calm 6.3 mph10.1 kmh 30.09 in1019.0 mb 0.00 in0.0 mm 0.00 in0.0 mm 0.03 in0.8 mm
04:37 AM 29.8°F-1.2°C 19.9°F-6.7°C 66% Calm Calm 6.3 mph10.1 kmh 30.09 in1019.0 mb 0.00 in0.0 mm 0.00 in0.0 mm 0.03 in0.8 mm
04:36 AM 29.8°F-1.2°C 19.9°F-6.7°C 66% Calm Calm 6.3 mph10.1 kmh 30.09 in1019.0 mb 0.00 in0.0 mm 0.00 in0.0 mm 0.03 in0.8 mm
04:35 AM 29.8°F-1.2°C 19.9°F-6.7°C 66% Calm Calm 6.3 mph10.1 kmh 30.09 in1019.0 mb 0.00 in0.0 mm 0.00 in0.0 mm 0.03 in0.8 mm
04:34 AM 29.8°F-1.2°C 19.9°F-6.7°C 66% Calm Calm 6.3 mph10.1 kmh 30.09 in1019.0 mb 0.00 in0.0 mm 0.00 in0.0 mm 0.03 in0.8 mm
04:33 AM 29.8°F-1.2°C 19.9°F-6.7°C 66% Calm Calm 6.3 mph10.1 kmh 30.09 in1019.0 mb 0.00 in0.0 mm 0.00 in0.0 mm 0.03 in0.8 mm
04:32 AM 29.8°F-1.2°C 19.9°F-6.7°C 66% Calm Calm 6.3 mph10.1 kmh 30.09 in1019.0 mb 0.00 in0.0 mm 0.00 in0.0 mm 0.03 in0.8 mm
04:31 AM 29.8°F-1.2°C 19.9°F-6.7°C 66% Calm Calm 6.3 mph10.1 kmh 30.09 in1019.0 mb 0.00 in0.0 mm 0.00 in0.0 mm 0.03 in0.8 mm
04:30 AM 29.8°F-1.2°C 19.9°F-6.7°C 66% Calm Calm 6.3 mph10.1 kmh 30.09 in1019.0 mb 0.00 in0.0 mm 0.00 in0.0 mm 0.03 in0.8 mm
04:29 AM 29.7°F-1.3°C 19.8°F-6.8°C 66% 6.3 mph WNW10.1 kmh WNW 6.3 mph10.1 kmh 30.09 in1019.0 mb 0.00 in0.0 mm 0.00 in0.0 mm 0.03 in0.8 mm
04:28 AM 29.7°F-1.3°C 19.8°F-6.8°C 66% Calm Calm 2.7 mph4.3 kmh 30.09 in1019.0 mb 0.00 in0.0 mm 0.00 in0.0 mm 0.03 in0.8 mm
04:27 AM 29.7°F-1.3°C 19.8°F-6.8°C 66% Calm Calm 2.7 mph4.3 kmh 30.09 in1019.0 mb 0.00 in0.0 mm 0.00 in0.0 mm 0.03 in0.8 mm
04:26 AM 29.7°F-1.3°C 19.8°F-6.8°C 66% Calm Calm 2.7 mph4.3 kmh 30.09 in1019.0 mb 0.00 in0.0 mm 0.00 in0.0 mm 0.03 in0.8 mm
04:25 AM 29.7°F-1.3°C 19.8°F-6.8°C 66% Calm Calm 2.7 mph4.3 kmh 30.09 in1019.0 mb 0.00 in0.0 mm 0.00 in0.0 mm 0.03 in0.8 mm
04:24 AM 29.7°F-1.3°C 19.8°F-6.8°C 66% Calm Calm 2.7 mph4.3 kmh 30.09 in1019.0 mb 0.00 in0.0 mm 0.00 in0.0 mm 0.03 in0.8 mm
04:23 AM 29.7°F-1.3°C 19.8°F-6.8°C 66% Calm Calm 2.7 mph4.3 kmh 30.09 in1019.0 mb 0.00 in0.0 mm 0.00 in0.0 mm 0.03 in0.8 mm
04:22 AM 29.7°F-1.3°C 19.8°F-6.8°C 66% Calm Calm 2.7 mph4.3 kmh 30.09 in1019.0 mb 0.00 in0.0 mm 0.00 in0.0 mm 0.03 in0.8 mm
04:21 AM 29.7°F-1.3°C 19.8°F-6.8°C 66% Calm Calm 2.2 mph3.5 kmh 30.09 in1019.0 mb 0.00 in0.0 mm 0.00 in0.0 mm 0.03 in0.8 mm
04:20 AM 29.7°F-1.3°C 19.8°F-6.8°C 66% Calm Calm 2.2 mph3.5 kmh 30.09 in1019.0 mb 0.00 in0.0 mm 0.00 in0.0 mm 0.03 in0.8 mm
04:19 AM 29.7°F-1.3°C 19.8°F-6.8°C 66% Calm Calm 3.2 mph5.1 kmh 30.09 in1019.0 mb 0.00 in0.0 mm 0.00 in0.0 mm 0.03 in0.8 mm
04:18 AM 29.7°F-1.3°C 19.8°F-6.8°C 66% Calm Calm 3.2 mph5.1 kmh 30.09 in1019.0 mb 0.00 in0.0 mm 0.00 in0.0 mm 0.03 in0.8 mm
04:17 AM 29.7°F-1.3°C 19.8°F-6.8°C 66% Calm Calm 3.2 mph5.1 kmh 30.09 in1019.0 mb 0.00 in0.0 mm 0.00 in0.0 mm 0.03 in0.8 mm
04:16 AM 29.7°F-1.3°C 19.8°F-6.8°C 66% Calm Calm 3.2 mph5.1 kmh 30.09 in1019.0 mb 0.00 in0.0 mm 0.00 in0.0 mm 0.03 in0.8 mm
04:15 AM 29.7°F-1.3°C 19.8°F-6.8°C 66% Calm Calm 3.2 mph5.1 kmh 30.09 in1019.0 mb 0.00 in0.0 mm 0.00 in0.0 mm 0.03 in0.8 mm
04:14 AM 29.7°F-1.3°C 18.3°F-7.6°C 62% 2.2 mph WNW3.5 kmh WNW 3.2 mph5.1 kmh 30.09 in1019.0 mb 0.00 in0.0 mm 0.00 in0.0 mm 0.03 in0.8 mm
04:13 AM 29.7°F-1.3°C 19.8°F-6.8°C 66% Calm Calm 3.2 mph5.1 kmh 30.09 in1019.0 mb 0.00 in0.0 mm 0.00 in0.0 mm 0.03 in0.8 mm
04:12 AM 29.7°F-1.3°C 19.8°F-6.8°C 66% Calm Calm 3.2 mph5.1 kmh 30.09 in1019.0 mb 0.00 in0.0 mm 0.00 in0.0 mm 0.03 in0.8 mm
04:11 AM 29.7°F-1.3°C 19.8°F-6.8°C 66% Calm Calm 3.2 mph5.1 kmh 30.09 in1019.0 mb 0.00 in0.0 mm 0.00 in0.0 mm 0.03 in0.8 mm
04:10 AM 29.7°F-1.3°C 19.8°F-6.8°C 66% Calm Calm 10.4 mph16.7 kmh 30.09 in1019.0 mb 0.00 in0.0 mm 0.00 in0.0 mm 0.03 in0.8 mm
04:09 AM 29.7°F-1.3°C 19.8°F-6.8°C 66% Calm Calm 10.4 mph16.7 kmh 30.09 in1019.0 mb 0.00 in0.0 mm 0.00 in0.0 mm 0.03 in0.8 mm
04:08 AM 29.7°F-1.3°C 19.8°F-6.8°C 66% Calm Calm 10.4 mph16.7 kmh 30.09 in1019.0 mb 0.00 in0.0 mm 0.00 in0.0 mm 0.03 in0.8 mm
04:07 AM 29.7°F-1.3°C 19.8°F-6.8°C 66% Calm Calm 10.4 mph16.7 kmh 30.09 in1019.0 mb 0.00 in0.0 mm 0.00 in0.0 mm 0.03 in0.8 mm
04:06 AM 29.7°F-1.3°C 19.8°F-6.8°C 66% Calm Calm 10.4 mph16.7 kmh 30.09 in1019.0 mb 0.00 in0.0 mm 0.00 in0.0 mm 0.03 in0.8 mm
04:05 AM 29.8°F-1.2°C 19.9°F-6.7°C 66% Calm Calm 10.4 mph16.7 kmh 30.09 in1019.0 mb 0.00 in0.0 mm 0.00 in0.0 mm 0.03 in0.8 mm
04:04 AM 29.8°F-1.2°C 19.5°F-6.9°C 65% Calm Calm 10.4 mph16.7 kmh 30.09 in1019.0 mb 0.00 in0.0 mm 0.00 in0.0 mm 0.03 in0.8 mm
04:03 AM 29.8°F-1.2°C 18.4°F-7.6°C 62% Calm Calm 10.4 mph16.7 kmh 30.09 in1019.0 mb 0.00 in0.0 mm 0.00 in0.0 mm 0.03 in0.8 mm
04:02 AM 29.8°F-1.2°C 19.5°F-6.9°C 65% Calm Calm 10.4 mph16.7 kmh 30.09 in1019.0 mb 0.00 in0.0 mm 0.00 in0.0 mm 0.03 in0.8 mm
04:01 AM 29.8°F-1.2°C 19.5°F-6.9°C 65% 10.4 mph NW16.7 kmh NW 10.4 mph16.7 kmh 30.09 in1019.0 mb 0.00 in0.0 mm 0.00 in0.0 mm 0.03 in0.8 mm
04:00 AM 29.8°F-1.2°C 19.5°F-6.9°C 65% Calm Calm 3.2 mph5.1 kmh 30.09 in1019.0 mb 0.02 in0.5 mm 0.00 in0.0 mm 0.03 in0.8 mm
03:59 AM 29.8°F-1.2°C 19.5°F-6.9°C 65% Calm Calm 3.2 mph5.1 kmh 30.09 in1019.0 mb 0.02 in0.5 mm 0.00 in0.0 mm 0.03 in0.8 mm
03:58 AM 29.8°F-1.2°C 19.5°F-6.9°C 65% Calm Calm 3.2 mph5.1 kmh 30.09 in1019.0 mb 0.02 in0.5 mm 0.00 in0.0 mm 0.03 in0.8 mm
03:57 AM 29.8°F-1.2°C 19.5°F-6.9°C 65% 1.1 mph W1.8 kmh W 6.3 mph10.1 kmh 30.09 in1019.0 mb 0.02 in0.5 mm 0.00 in0.0 mm 0.03 in0.8 mm
03:56 AM 30.0°F-1.1°C 19.7°F-6.8°C 65% Calm Calm 6.3 mph10.1 kmh 30.09 in1019.0 mb 0.02 in0.5 mm 0.00 in0.0 mm 0.03 in0.8 mm
03:55 AM 30.0°F-1.1°C 19.7°F-6.8°C 65% Calm Calm 6.3 mph10.1 kmh 30.09 in1019.0 mb 0.02 in0.5 mm 0.00 in0.0 mm 0.03 in0.8 mm
03:54 AM 30.0°F-1.1°C 19.7°F-6.8°C 65% Calm Calm 6.3 mph10.1 kmh 30.09 in1019.0 mb 0.02 in0.5 mm 0.00 in0.0 mm 0.03 in0.8 mm
03:53 AM 30.0°F-1.1°C 19.7°F-6.8°C 65% Calm Calm 6.3 mph10.1 kmh 30.09 in1019.0 mb 0.02 in0.5 mm 0.00 in0.0 mm 0.03 in0.8 mm
03:52 AM 30.0°F-1.1°C 19.7°F-6.8°C 65% Calm Calm 6.3 mph10.1 kmh 30.09 in1019.0 mb 0.02 in0.5 mm 0.00 in0.0 mm 0.03 in0.8 mm
03:51 AM 30.0°F-1.1°C 19.7°F-6.8°C 65% Calm Calm 10.4 mph16.7 kmh 30.09 in1019.0 mb 0.02 in0.5 mm 0.00 in0.0 mm 0.03 in0.8 mm
03:50 AM 30.0°F-1.1°C 19.7°F-6.8°C 65% Calm Calm 10.4 mph16.7 kmh 30.09 in1019.0 mb 0.02 in0.5 mm 0.00 in0.0 mm 0.03 in0.8 mm
03:49 AM 30.0°F-1.1°C 19.7°F-6.8°C 65% Calm Calm 10.4 mph16.7 kmh 30.09 in1019.0 mb 0.02 in0.5 mm 0.00 in0.0 mm 0.03 in0.8 mm
03:48 AM 30.0°F-1.1°C 19.7°F-6.8°C 65% Calm Calm 10.4 mph16.7 kmh 30.09 in1019.0 mb 0.02 in0.5 mm 0.00 in0.0 mm 0.03 in0.8 mm
03:47 AM 30.0°F-1.1°C 19.7°F-6.8°C 65% Calm Calm 15.5 mph24.9 kmh 30.09 in1019.0 mb 0.02 in0.5 mm 0.00 in0.0 mm 0.03 in0.8 mm
03:46 AM 30.0°F-1.1°C 19.7°F-6.8°C 65% Calm Calm 15.5 mph24.9 kmh 30.09 in1019.0 mb 0.02 in0.5 mm 0.00 in0.0 mm 0.03 in0.8 mm
03:45 AM 30.0°F-1.1°C 19.7°F-6.8°C 65% Calm Calm 15.5 mph24.9 kmh 30.09 in1019.0 mb 0.02 in0.5 mm 0.00 in0.0 mm 0.03 in0.8 mm
03:44 AM 30.0°F-1.1°C 19.7°F-6.8°C 65% Calm Calm 15.5 mph24.9 kmh 30.09 in1019.0 mb 0.02 in0.5 mm 0.00 in0.0 mm 0.03 in0.8 mm
03:43 AM 30.0°F-1.1°C 19.7°F-6.8°C 65% Calm Calm 15.5 mph24.9 kmh 30.09 in1019.0 mb 0.02 in0.5 mm 0.00 in0.0 mm 0.03 in0.8 mm
03:42 AM 30.0°F-1.1°C 19.7°F-6.8°C 65% Calm Calm 15.5 mph24.9 kmh 30.09 in1019.0 mb 0.02 in0.5 mm 0.00 in0.0 mm 0.03 in0.8 mm
03:41 AM 30.0°F-1.1°C 19.7°F-6.8°C 65% Calm Calm 15.5 mph24.9 kmh 30.09 in1019.0 mb 0.02 in0.5 mm 0.00 in0.0 mm 0.03 in0.8 mm
03:40 AM 30.0°F-1.1°C 19.7°F-6.8°C 65% Calm Calm 15.5 mph24.9 kmh 30.09 in1019.0 mb 0.02 in0.5 mm 0.00 in0.0 mm 0.03 in0.8 mm
03:39 AM 30.0°F-1.1°C 19.7°F-6.8°C 65% Calm Calm 15.5 mph24.9 kmh 30.09 in1019.0 mb 0.02 in0.5 mm 0.00 in0.0 mm 0.03 in0.8 mm
03:38 AM 30.0°F-1.1°C 19.7°F-6.8°C 65% 6.8 mph NNW10.9 kmh NNW 15.5 mph24.9 kmh 30.09 in1019.0 mb 0.02 in0.5 mm 0.00 in0.0 mm 0.03 in0.8 mm
03:37 AM 29.8°F-1.2°C 19.5°F-6.9°C 65% Calm Calm 1.7 mph2.7 kmh 30.09 in1019.0 mb 0.02 in0.5 mm 0.00 in0.0 mm 0.03 in0.8 mm
03:36 AM 29.8°F-1.2°C 19.5°F-6.9°C 65% Calm Calm 1.7 mph2.7 kmh 30.09 in1019.0 mb 0.02 in0.5 mm 0.00 in0.0 mm 0.03 in0.8 mm
03:35 AM 29.8°F-1.2°C 19.5°F-6.9°C 65% Calm Calm 1.7 mph2.7 kmh 30.09 in1019.0 mb 0.02 in0.5 mm 0.00 in0.0 mm 0.03 in0.8 mm
03:34 AM 29.8°F-1.2°C 19.5°F-6.9°C 65% Calm Calm 1.7 mph2.7 kmh 30.09 in1019.0 mb 0.02 in0.5 mm 0.00 in0.0 mm 0.03 in0.8 mm
03:33 AM 29.8°F-1.2°C 19.5°F-6.9°C 65% Calm Calm 1.7 mph2.7 kmh 30.09 in1019.0 mb 0.02 in0.5 mm 0.00 in0.0 mm 0.03 in0.8 mm
03:32 AM 29.8°F-1.2°C 19.5°F-6.9°C 65% Calm Calm 1.7 mph2.7 kmh 30.09 in1019.0 mb 0.02 in0.5 mm 0.00 in0.0 mm 0.03 in0.8 mm
03:31 AM 29.8°F-1.2°C 19.5°F-6.9°C 65% Calm Calm 1.1 mph1.8 kmh 30.09 in1019.0 mb 0.02 in0.5 mm 0.00 in0.0 mm 0.03 in0.8 mm
03:30 AM 29.8°F-1.2°C 19.5°F-6.9°C 65% Calm Calm 1.1 mph1.8 kmh 30.09 in1019.0 mb 0.02 in0.5 mm 0.00 in0.0 mm 0.03 in0.8 mm
03:29 AM 29.8°F-1.2°C 19.5°F-6.9°C 65% Calm Calm 1.1 mph1.8 kmh 30.09 in1019.0 mb 0.02 in0.5 mm 0.00 in0.0 mm 0.03 in0.8 mm
03:28 AM 29.8°F-1.2°C 19.5°F-6.9°C 65% Calm Calm 1.1 mph1.8 kmh 30.09 in1019.0 mb 0.02 in0.5 mm 0.00 in0.0 mm 0.03 in0.8 mm
03:27 AM 29.8°F-1.2°C 19.5°F-6.9°C 65% Calm Calm 1.1 mph1.8 kmh 30.09 in1019.0 mb 0.02 in0.5 mm 0.00 in0.0 mm 0.03 in0.8 mm
03:26 AM 29.8°F-1.2°C 19.5°F-6.9°C 65% Calm Calm 6.8 mph10.9 kmh 30.09 in1019.0 mb 0.02 in0.5 mm 0.00 in0.0 mm 0.03 in0.8 mm
03:25 AM 29.8°F-1.2°C 19.5°F-6.9°C 65% 1.1 mph NW1.8 kmh NW 6.8 mph10.9 kmh 30.09 in1019.0 mb 0.02 in0.5 mm 0.00 in0.0 mm 0.03 in0.8 mm
03:24 AM 29.8°F-1.2°C 19.5°F-6.9°C 65% Calm Calm 6.8 mph10.9 kmh 30.09 in1019.0 mb 0.02 in0.5 mm 0.00 in0.0 mm 0.03 in0.8 mm
03:23 AM 30.0°F-1.1°C 19.7°F-6.8°C 65% Calm Calm 6.8 mph10.9 kmh 30.09 in1019.0 mb 0.02 in0.5 mm 0.00 in0.0 mm 0.03 in0.8 mm
03:22 AM 30.0°F-1.1°C 19.3°F-7.1°C 64% Calm Calm 6.8 mph10.9 kmh 30.09 in1019.0 mb 0.02 in0.5 mm 0.00 in0.0 mm 0.03 in0.8 mm
03:21 AM 30.0°F-1.1°C 19.3°F-7.1°C 64% Calm Calm 9.4 mph15.1 kmh 30.09 in1019.0 mb 0.02 in0.5 mm 0.00 in0.0 mm 0.03 in0.8 mm
03:20 AM 30.0°F-1.1°C 19.3°F-7.1°C 64% Calm Calm 9.4 mph15.1 kmh 30.09 in1019.0 mb 0.02 in0.5 mm 0.00 in0.0 mm 0.03 in0.8 mm
03:19 AM 30.0°F-1.1°C 19.3°F-7.1°C 64% Calm Calm 9.4 mph15.1 kmh 30.09 in1019.0 mb 0.02 in0.5 mm 0.00 in0.0 mm 0.03 in0.8 mm
03:18 AM 30.0°F-1.1°C 19.3°F-7.1°C 64% Calm Calm 9.4 mph15.1 kmh 30.09 in1019.0 mb 0.03 in0.8 mm 0.00 in0.0 mm 0.03 in0.8 mm
03:17 AM 30.0°F-1.1°C 19.3°F-7.1°C 64% Calm Calm 9.4 mph15.1 kmh 30.09 in1019.0 mb 0.03 in0.8 mm 0.00 in0.0 mm 0.03 in0.8 mm
03:16 AM 30.0°F-1.1°C 19.3°F-7.1°C 64% Calm Calm 9.4 mph15.1 kmh 30.09 in1019.0 mb 0.03 in0.8 mm 0.00 in0.0 mm 0.03 in0.8 mm
03:15 AM 30.0°F-1.1°C 19.3°F-7.1°C 64% Calm Calm 9.4 mph15.1 kmh 30.09 in1019.0 mb 0.03 in0.8 mm 0.00 in0.0 mm 0.03 in0.8 mm
03:14 AM 30.0°F-1.1°C 19.3°F-7.1°C 64% Calm Calm 9.4 mph15.1 kmh 30.09 in1019.0 mb 0.03 in0.8 mm 0.00 in0.0 mm 0.03 in0.8 mm
03:13 AM 30.0°F-1.1°C 19.3°F-7.1°C 64% Calm Calm 9.4 mph15.1 kmh 30.09 in1019.0 mb 0.03 in0.8 mm 0.00 in0.0 mm 0.03 in0.8 mm
03:12 AM 30.0°F-1.1°C 19.3°F-7.1°C 64% 1.1 mph W1.8 kmh W 9.4 mph15.1 kmh 30.09 in1019.0 mb 0.03 in0.8 mm 0.00 in0.0 mm 0.03 in0.8 mm
03:11 AM 29.8°F-1.2°C 19.1°F-7.2°C 64% 8.9 mph NW14.3 kmh NW 8.9 mph14.3 kmh 30.09 in1019.0 mb 0.03 in0.8 mm 0.00 in0.0 mm 0.03 in0.8 mm
03:10 AM 29.8°F-1.2°C 19.1°F-7.2°C 64% Calm Calm 6.3 mph10.1 kmh 30.09 in1019.0 mb 0.03 in0.8 mm 0.00 in0.0 mm 0.03 in0.8 mm
03:09 AM 29.8°F-1.2°C 19.1°F-7.2°C 64% Calm Calm 6.3 mph10.1 kmh 30.09 in1019.0 mb 0.03 in0.8 mm 0.00 in0.0 mm 0.03 in0.8 mm
03:08 AM 29.8°F-1.2°C 19.1°F-7.2°C 64% Calm Calm 6.3 mph10.1 kmh 30.09 in1019.0 mb 0.03 in0.8 mm 0.00 in0.0 mm 0.03 in0.8 mm
03:07 AM 29.8°F-1.2°C 19.1°F-7.2°C 64% Calm Calm 6.3 mph10.1 kmh 30.09 in1019.0 mb 0.03 in0.8 mm 0.00 in0.0 mm 0.03 in0.8 mm
03:06 AM 29.8°F-1.2°C 19.1°F-7.2°C 64% Calm Calm 6.8 mph10.9 kmh 30.09 in1019.0 mb 0.03 in0.8 mm 0.00 in0.0 mm 0.03 in0.8 mm
03:05 AM 29.8°F-1.2°C 19.1°F-7.2°C 64% 6.3 mph NW10.1 kmh NW 6.8 mph10.9 kmh 30.09 in1019.0 mb 0.03 in0.8 mm 0.00 in0.0 mm 0.03 in0.8 mm
03:04 AM 29.8°F-1.2°C 19.1°F-7.2°C 64% Calm Calm 6.8 mph10.9 kmh 30.09 in1019.0 mb 0.03 in0.8 mm 0.00 in0.0 mm 0.03 in0.8 mm
03:03 AM 29.8°F-1.2°C 19.1°F-7.2°C 64% Calm Calm 6.8 mph10.9 kmh 30.09 in1019.0 mb 0.03 in0.8 mm 0.00 in0.0 mm 0.03 in0.8 mm
03:02 AM 29.8°F-1.2°C 19.1°F-7.2°C 64% Calm Calm 6.8 mph10.9 kmh 30.08 in1018.6 mb 0.03 in0.8 mm 0.00 in0.0 mm 0.03 in0.8 mm
03:01 AM 29.8°F-1.2°C 19.1°F-7.2°C 64% Calm Calm 6.8 mph10.9 kmh 30.08 in1018.6 mb 0.03 in0.8 mm 1.20 in30.5 mm 0.03 in0.8 mm
03:00 AM 29.8°F-1.2°C 19.1°F-7.2°C 64% Calm Calm 6.8 mph10.9 kmh 30.08 in1018.6 mb 0.01 in0.3 mm 0.00 in0.0 mm 0.01 in0.3 mm
02:59 AM 29.8°F-1.2°C 19.1°F-7.2°C 64% Calm Calm 6.8 mph10.9 kmh 30.08 in1018.6 mb 0.01 in0.3 mm 0.00 in0.0 mm 0.01 in0.3 mm
02:58 AM 29.8°F-1.2°C 19.5°F-6.9°C 65% Calm Calm 6.8 mph10.9 kmh 30.08 in1018.6 mb 0.01 in0.3 mm 0.00 in0.0 mm 0.01 in0.3 mm
02:57 AM 29.8°F-1.2°C 19.5°F-6.9°C 65% Calm Calm 6.8 mph10.9 kmh 30.08 in1018.6 mb 0.01 in0.3 mm 0.00 in0.0 mm 0.01 in0.3 mm
02:56 AM 29.8°F-1.2°C 19.5°F-6.9°C 65% Calm Calm 2.7 mph4.3 kmh 30.08 in1018.6 mb 0.01 in0.3 mm 0.00 in0.0 mm 0.01 in0.3 mm
02:55 AM 29.8°F-1.2°C 19.5°F-6.9°C 65% 1.1 mph W1.8 kmh W 2.7 mph4.3 kmh 30.08 in1018.6 mb 0.01 in0.3 mm 0.00 in0.0 mm 0.01 in0.3 mm
02:54 AM 29.8°F-1.2°C 19.5°F-6.9°C 65% Calm Calm 9.4 mph15.1 kmh 30.08 in1018.6 mb 0.01 in0.3 mm 0.00 in0.0 mm 0.01 in0.3 mm
02:53 AM 29.8°F-1.2°C 19.5°F-6.9°C 65% Calm Calm 9.4 mph15.1 kmh 30.08 in1018.6 mb 0.01 in0.3 mm 0.00 in0.0 mm 0.01 in0.3 mm
02:52 AM 29.8°F-1.2°C 19.5°F-6.9°C 65% Calm Calm 9.4 mph15.1 kmh 30.08 in1018.6 mb 0.01 in0.3 mm 0.00 in0.0 mm 0.01 in0.3 mm
02:51 AM 29.8°F-1.2°C 19.1°F-7.2°C 64% Calm Calm 9.4 mph15.1 kmh 30.08 in1018.6 mb 0.01 in0.3 mm 0.00 in0.0 mm 0.01 in0.3 mm
02:50 AM 29.8°F-1.2°C 19.1°F-7.2°C 64% Calm Calm 9.4 mph15.1 kmh 30.08 in1018.6 mb 0.01 in0.3 mm 0.00 in0.0 mm 0.01 in0.3 mm
02:49 AM 29.8°F-1.2°C 19.1°F-7.2°C 64% Calm Calm 9.4 mph15.1 kmh 30.08 in1018.6 mb 0.01 in0.3 mm 0.00 in0.0 mm 0.01 in0.3 mm
02:48 AM 29.8°F-1.2°C 19.1°F-7.2°C 64% Calm Calm 9.4 mph15.1 kmh 30.08 in1018.6 mb 0.01 in0.3 mm 0.00 in0.0 mm 0.01 in0.3 mm
02:47 AM 29.8°F-1.2°C 19.1°F-7.2°C 64% Calm Calm 9.4 mph15.1 kmh 30.08 in1018.6 mb 0.01 in0.3 mm 0.00 in0.0 mm 0.01 in0.3 mm
02:46 AM 29.8°F-1.2°C 19.1°F-7.2°C 64% Calm Calm 9.4 mph15.1 kmh 30.08 in1018.6 mb 0.01 in0.3 mm 0.00 in0.0 mm 0.01 in0.3 mm
02:45 AM 29.8°F-1.2°C 19.5°F-6.9°C 65% Calm Calm 9.4 mph15.1 kmh 30.08 in1018.6 mb 0.01 in0.3 mm 0.00 in0.0 mm 0.01 in0.3 mm
02:44 AM 29.8°F-1.2°C 19.5°F-6.9°C 65% Calm Calm 1.1 mph1.8 kmh 30.08 in1018.6 mb 0.01 in0.3 mm 0.00 in0.0 mm 0.01 in0.3 mm
02:43 AM 29.8°F-1.2°C 19.5°F-6.9°C 65% Calm Calm 1.1 mph1.8 kmh 30.08 in1018.6 mb 0.01 in0.3 mm 0.00 in0.0 mm 0.01 in0.3 mm
02:42 AM 29.8°F-1.2°C 19.5°F-6.9°C 65% Calm Calm 1.1 mph1.8 kmh 30.08 in1018.6 mb 0.01 in0.3 mm 0.00 in0.0 mm 0.01 in0.3 mm
02:41 AM 29.8°F-1.2°C 19.5°F-6.9°C 65% Calm Calm 1.1 mph1.8 kmh 30.08 in1018.6 mb 0.01 in0.3 mm 0.00 in0.0 mm 0.01 in0.3 mm
02:40 AM 30.5°F-0.8°C 20.2°F-6.6°C 65% 1.1 mph W1.8 kmh W 1.1 mph1.8 kmh 30.08 in1018.6 mb 0.01 in0.3 mm 0.00 in0.0 mm 0.01 in0.3 mm
02:39 AM 29.8°F-1.2°C 19.5°F-6.9°C 65% Calm Calm -- 30.08 in1018.6 mb 0.01 in0.3 mm 0.00 in0.0 mm 0.01 in0.3 mm
02:38 AM 29.8°F-1.2°C 19.5°F-6.9°C 65% Calm Calm -- 30.08 in1018.6 mb 0.01 in0.3 mm 0.00 in0.0 mm 0.01 in0.3 mm
02:37 AM 29.8°F-1.2°C 19.5°F-6.9°C 65% Calm Calm -- 30.08 in1018.6 mb 0.01 in0.3 mm 0.00 in0.0 mm 0.01 in0.3 mm
02:36 AM 29.8°F-1.2°C 19.5°F-6.9°C 65% Calm Calm 8.3 mph13.4 kmh 30.08 in1018.6 mb 0.01 in0.3 mm 0.00 in0.0 mm 0.01 in0.3 mm
02:35 AM 29.8°F-1.2°C 19.1°F-7.2°C 64% Calm Calm 9.4 mph15.1 kmh 30.08 in1018.6 mb 0.01 in0.3 mm 0.00 in0.0 mm 0.01 in0.3 mm
02:34 AM 30.0°F-1.1°C 19.3°F-7.1°C 64% Calm Calm 9.4 mph15.1 kmh 30.08 in1018.6 mb 0.01 in0.3 mm 0.00 in0.0 mm 0.01 in0.3 mm
02:33 AM 30.0°F-1.1°C 19.3°F-7.1°C 64% Calm Calm 9.4 mph15.1 kmh 30.08 in1018.6 mb 0.01 in0.3 mm 0.00 in0.0 mm 0.01 in0.3 mm
02:32 AM 30.0°F-1.1°C 19.3°F-7.1°C 64% Calm Calm 9.4 mph15.1 kmh 30.08 in1018.6 mb 0.01 in0.3 mm 0.00 in0.0 mm 0.01 in0.3 mm
02:31 AM 30.0°F-1.1°C 19.3°F-7.1°C 64% Calm Calm 9.4 mph15.1 kmh 30.08 in1018.6 mb 0.01 in0.3 mm 0.00 in0.0 mm 0.01 in0.3 mm
02:30 AM 30.0°F-1.1°C 19.3°F-7.1°C 64% Calm Calm 9.4 mph15.1 kmh 30.08 in1018.6 mb 0.01 in0.3 mm 0.00 in0.0 mm 0.01 in0.3 mm
02:29 AM 30.0°F-1.1°C 19.3°F-7.1°C 64% Calm Calm 9.4 mph15.1 kmh 30.08 in1018.6 mb 0.01 in0.3 mm 0.00 in0.0 mm 0.01 in0.3 mm
02:28 AM 30.0°F-1.1°C 19.3°F-7.1°C 64% Calm Calm 9.4 mph15.1 kmh 30.08 in1018.6 mb 0.01 in0.3 mm 0.00 in0.0 mm 0.01 in0.3 mm
02:27 AM 30.0°F-1.1°C 19.3°F-7.1°C 64% 8.3 mph WNW13.4 kmh WNW 9.4 mph15.1 kmh 30.08 in1018.6 mb 0.01 in0.3 mm 0.00 in0.0 mm 0.01 in0.3 mm
02:26 AM 30.0°F-1.1°C 19.3°F-7.1°C 64% Calm Calm 9.4 mph15.1 kmh 30.08 in1018.6 mb 0.01 in0.3 mm 0.00 in0.0 mm 0.01 in0.3 mm
02:25 AM 30.0°F-1.1°C 19.3°F-7.1°C 64% 1.7 mph WNW2.7 kmh WNW 2.2 mph3.5 kmh 30.08 in1018.6 mb 0.01 in0.3 mm 0.00 in0.0 mm 0.01 in0.3 mm
02:24 AM 30.0°F-1.1°C 19.3°F-7.1°C 64% Calm Calm 2.2 mph3.5 kmh 30.08 in1018.6 mb 0.01 in0.3 mm 0.00 in0.0 mm 0.01 in0.3 mm
02:23 AM 30.0°F-1.1°C 19.0°F-7.2°C 63% Calm Calm 2.2 mph3.5 kmh 30.08 in1018.6 mb 0.01 in0.3 mm 0.00 in0.0 mm 0.01 in0.3 mm
02:22 AM 30.0°F-1.1°C 18.6°F-7.4°C 62% Calm Calm 2.2 mph3.5 kmh 30.08 in1018.6 mb 0.01 in0.3 mm 0.00 in0.0 mm 0.01 in0.3 mm
02:21 AM 30.0°F-1.1°C 19.0°F-7.2°C 63% Calm Calm 2.2 mph3.5 kmh 30.08 in1018.6 mb 0.01 in0.3 mm 0.00 in0.0 mm 0.01 in0.3 mm
02:20 AM 30.0°F-1.1°C 19.0°F-7.2°C 63% Calm Calm 2.2 mph3.5 kmh 30.08 in1018.6 mb 0.01 in0.3 mm 0.00 in0.0 mm 0.01 in0.3 mm
02:19 AM 30.0°F-1.1°C 19.0°F-7.2°C 63% Calm Calm -- 30.08 in1018.6 mb 0.01 in0.3 mm 0.60 in15.2 mm 0.01 in0.3 mm
02:18 AM 30.0°F-1.1°C 19.0°F-7.2°C 63% Calm Calm 4.2 mph6.8 kmh 30.08 in1018.6 mb 0.00 in0.0 mm 0.00 in0.0 mm 0.00 in0.0 mm
02:17 AM 30.0°F-1.1°C 19.0°F-7.2°C 63% Calm Calm 4.2 mph6.8 kmh 30.08 in1018.6 mb 0.00 in0.0 mm 0.00 in0.0 mm 0.00 in0.0 mm
02:16 AM 30.0°F-1.1°C 19.0°F-7.2°C 63% Calm Calm 4.2 mph6.8 kmh 30.08 in1018.6 mb 0.00 in0.0 mm 0.00 in0.0 mm 0.00 in0.0 mm
02:15 AM 30.2°F-1.0°C 19.1°F-7.2°C 63% Calm Calm 4.2 mph6.8 kmh 30.08 in1018.6 mb 0.00 in0.0 mm 0.00 in0.0 mm 0.00 in0.0 mm
02:14 AM 30.2°F-1.0°C 19.1°F-7.2°C 63% Calm Calm 4.2 mph6.8 kmh 30.08 in1018.6 mb 0.00 in0.0 mm 0.00 in0.0 mm 0.00 in0.0 mm
02:13 AM 30.2°F-1.0°C 19.1°F-7.2°C 63% Calm Calm 4.2 mph6.8 kmh 30.08 in1018.6 mb 0.00 in0.0 mm 0.00 in0.0 mm 0.00 in0.0 mm
02:12 AM 30.2°F-1.0°C 19.1°F-7.2°C 63% Calm Calm 4.2 mph6.8 kmh 30.07 in1018.3 mb 0.00 in0.0 mm 0.00 in0.0 mm 0.00 in0.0 mm
02:11 AM 30.2°F-1.0°C 19.1°F-7.2°C 63% Calm Calm 4.2 mph6.8 kmh 30.07 in1018.3 mb 0.00 in0.0 mm 0.00 in0.0 mm 0.00 in0.0 mm
02:10 AM 30.2°F-1.0°C 19.1°F-7.2°C 63% Calm Calm 4.2 mph6.8 kmh 30.07 in1018.3 mb 0.00 in0.0 mm 0.00 in0.0 mm 0.00 in0.0 mm
02:09 AM 30.2°F-1.0°C 19.1°F-7.2°C 63% Calm Calm 4.2 mph6.8 kmh 30.07 in1018.3 mb 0.00 in0.0 mm 0.00 in0.0 mm 0.00 in0.0 mm
02:08 AM 30.2°F-1.0°C 19.1°F-7.2°C 63% 4.2 mph WNW6.8 kmh WNW 4.2 mph6.8 kmh 30.07 in1018.3 mb 0.00 in0.0 mm 0.00 in0.0 mm 0.00 in0.0 mm
02:07 AM 30.2°F-1.0°C 19.1°F-7.2°C 63% Calm Calm 3.2 mph5.1 kmh 30.07 in1018.3 mb 0.00 in0.0 mm 0.00 in0.0 mm 0.00 in0.0 mm
02:06 AM 30.2°F-1.0°C 19.1°F-7.2°C 63% Calm Calm 7.8 mph12.6 kmh 30.07 in1018.3 mb 0.00 in0.0 mm 0.00 in0.0 mm 0.00 in0.0 mm
02:05 AM 30.2°F-1.0°C 19.1°F-7.2°C 63% Calm Calm 7.8 mph12.6 kmh 30.07 in1018.3 mb 0.00 in0.0 mm 0.00 in0.0 mm 0.00 in0.0 mm
02:04 AM 30.2°F-1.0°C 19.1°F-7.2°C 63% Calm Calm 7.8 mph12.6 kmh 30.07 in1018.3 mb 0.00 in0.0 mm 0.00 in0.0 mm 0.00 in0.0 mm
02:03 AM 30.2°F-1.0°C 19.1°F-7.2°C 63% Calm Calm 7.8 mph12.6 kmh 30.07 in1018.3 mb 0.00 in0.0 mm 0.00 in0.0 mm 0.00 in0.0 mm
02:02 AM 30.2°F-1.0°C 19.1°F-7.2°C 63% Calm Calm 7.8 mph12.6 kmh 30.07 in1018.3 mb 0.00 in0.0 mm 0.00 in0.0 mm 0.00 in0.0 mm
02:01 AM 30.2°F-1.0°C 19.1°F-7.2°C 63% Calm Calm 7.8 mph12.6 kmh 30.07 in1018.3 mb 0.00 in0.0 mm 0.00 in0.0 mm 0.00 in0.0 mm
02:00 AM 30.2°F-1.0°C 19.1°F-7.2°C 63% Calm Calm 7.8 mph12.6 kmh 30.07 in1018.3 mb 0.00 in0.0 mm 0.00 in0.0 mm 0.00 in0.0 mm
01:59 AM 30.2°F-1.0°C 19.1°F-7.2°C 63% Calm Calm 7.8 mph12.6 kmh 30.07 in1018.3 mb 0.00 in0.0 mm 0.00 in0.0 mm 0.00 in0.0 mm
01:58 AM 30.2°F-1.0°C 19.1°F-7.2°C 63% Calm Calm 7.8 mph12.6 kmh 30.07 in1018.3 mb 0.00 in0.0 mm 0.00 in0.0 mm 0.00 in0.0 mm
01:57 AM 30.2°F-1.0°C 19.1°F-7.2°C 63% Calm Calm 7.8 mph12.6 kmh 30.07 in1018.3 mb 0.00 in0.0 mm 0.00 in0.0 mm 0.00 in0.0 mm
01:56 AM 30.2°F-1.0°C 19.1°F-7.2°C 63% 1.7 mph W2.7 kmh W 6.8 mph10.9 kmh 30.07 in1018.3 mb 0.00 in0.0 mm 0.00 in0.0 mm 0.00 in0.0 mm
01:55 AM 30.4°F-0.9°C 19.0°F-7.2°C 62% Calm Calm 6.8 mph10.9 kmh 30.07 in1018.3 mb 0.00 in0.0 mm 0.00 in0.0 mm 0.00 in0.0 mm
01:54 AM 30.4°F-0.9°C 19.0°F-7.2°C 62% Calm Calm 6.8 mph10.9 kmh 30.07 in1018.3 mb 0.00 in0.0 mm 0.00 in0.0 mm 0.00 in0.0 mm
01:53 AM 30.4°F-0.9°C 19.0°F-7.2°C 62% Calm Calm 6.8 mph10.9 kmh 30.07 in1018.3 mb 0.00 in0.0 mm 0.00 in0.0 mm 0.00 in0.0 mm
01:52 AM 30.4°F-0.9°C 19.0°F-7.2°C 62% Calm Calm 6.8 mph10.9 kmh 30.07 in1018.3 mb 0.00 in0.0 mm 0.00 in0.0 mm 0.00 in0.0 mm
01:51 AM 30.4°F-0.9°C 19.0°F-7.2°C 62% 6.8 mph NNW10.9 kmh NNW 6.8 mph10.9 kmh 30.07 in1018.3 mb 0.00 in0.0 mm 0.00 in0.0 mm 0.00 in0.0 mm
01:50 AM 30.4°F-0.9°C 19.0°F-7.2°C 62% Calm Calm 1.1 mph1.8 kmh 30.07 in1018.3 mb 0.00 in0.0 mm 0.00 in0.0 mm 0.00 in0.0 mm
01:49 AM 30.4°F-0.9°C 19.0°F-7.2°C 62% Calm Calm 1.1 mph1.8 kmh 30.07 in1018.3 mb 0.00 in0.0 mm 0.00 in0.0 mm 0.00 in0.0 mm
01:48 AM 30.4°F-0.9°C 19.0°F-7.2°C 62% Calm Calm 1.1 mph1.8 kmh 30.07 in1018.3 mb 0.00 in0.0 mm 0.00 in0.0 mm 0.00 in0.0 mm
01:47 AM 30.4°F-0.9°C 19.0°F-7.2°C 62% Calm Calm 1.1 mph1.8 kmh 30.07 in1018.3 mb 0.00 in0.0 mm 0.00 in0.0 mm 0.00 in0.0 mm
01:46 AM 30.4°F-0.9°C 19.0°F-7.2°C 62% Calm Calm 1.1 mph1.8 kmh 30.07 in1018.3 mb 0.00 in0.0 mm 0.00 in0.0 mm 0.00 in0.0 mm
01:45 AM 30.4°F-0.9°C 19.0°F-7.2°C 62% Calm Calm 1.1 mph1.8 kmh 30.07 in1018.3 mb 0.00 in0.0 mm 0.00 in0.0 mm 0.00 in0.0 mm
01:44 AM 30.4°F-0.9°C 19.0°F-7.2°C 62% Calm Calm 1.1 mph1.8 kmh 30.07 in1018.3 mb 0.00 in0.0 mm 0.00 in0.0 mm 0.00 in0.0 mm
01:43 AM 30.4°F-0.9°C 19.0°F-7.2°C 62% Calm Calm 1.1 mph1.8 kmh 30.07 in1018.3 mb 0.00 in0.0 mm 0.00 in0.0 mm 0.00 in0.0 mm
01:42 AM 30.4°F-0.9°C 19.0°F-7.2°C 62% Calm Calm 1.1 mph1.8 kmh 30.07 in1018.3 mb 0.00 in0.0 mm 0.00 in0.0 mm 0.00 in0.0 mm
01:41 AM 30.4°F-0.9°C 19.0°F-7.2°C 62% Calm Calm -- 30.07 in1018.3 mb 0.00 in0.0 mm 0.00 in0.0 mm 0.00 in0.0 mm
01:40 AM 30.4°F-0.9°C 19.0°F-7.2°C 62% Calm Calm -- 30.07 in1018.3 mb 0.00 in0.0 mm 0.00 in0.0 mm 0.00 in0.0 mm
01:39 AM 30.4°F-0.9°C 19.0°F-7.2°C 62% Calm Calm -- 30.07 in1018.3 mb 0.00 in0.0 mm 0.00 in0.0 mm 0.00 in0.0 mm
01:38 AM 30.4°F-0.9°C 19.0°F-7.2°C 62% Calm Calm -- 30.07 in1018.3 mb 0.00 in0.0 mm 0.00 in0.0 mm 0.00 in0.0 mm
01:37 AM 30.4°F-0.9°C 19.0°F-7.2°C 62% Calm Calm -- 30.06 in1017.9 mb 0.00 in0.0 mm 0.00 in0.0 mm 0.00 in0.0 mm
01:36 AM 30.4°F-0.9°C 19.3°F-7.1°C 63% Calm Calm -- 30.06 in1017.9 mb 0.00 in0.0 mm 0.00 in0.0 mm 0.00 in0.0 mm
01:35 AM 30.6°F-0.8°C 19.2°F-7.1°C 62% Calm Calm -- 30.06 in1017.9 mb 0.00 in0.0 mm 0.00 in0.0 mm 0.00 in0.0 mm
01:34 AM 30.6°F-0.8°C 19.2°F-7.1°C 62% Calm Calm 8.3 mph13.4 kmh 30.06 in1017.9 mb 0.00 in0.0 mm 0.00 in0.0 mm 0.00 in0.0 mm
01:33 AM 30.6°F-0.8°C 19.2°F-7.1°C 62% Calm Calm 8.3 mph13.4 kmh 30.06 in1017.9 mb 0.00 in0.0 mm 0.00 in0.0 mm 0.00 in0.0 mm
01:32 AM 30.6°F-0.8°C 19.2°F-7.1°C 62% Calm Calm 8.3 mph13.4 kmh 30.06 in1017.9 mb 0.00 in0.0 mm 0.00 in0.0 mm 0.00 in0.0 mm
01:31 AM 30.6°F-0.8°C 19.2°F-7.1°C 62% Calm Calm 8.9 mph14.3 kmh 30.06 in1017.9 mb 0.00 in0.0 mm 0.00 in0.0 mm 0.00 in0.0 mm
01:30 AM 30.6°F-0.8°C 19.2°F-7.1°C 62% Calm Calm 8.9 mph14.3 kmh 30.06 in1017.9 mb 0.00 in0.0 mm 0.00 in0.0 mm 0.00 in0.0 mm
01:29 AM 30.6°F-0.8°C 19.2°F-7.1°C 62% Calm Calm 8.9 mph14.3 kmh 30.06 in1017.9 mb 0.00 in0.0 mm 0.00 in0.0 mm 0.00 in0.0 mm
01:28 AM 30.6°F-0.8°C 18.8°F-7.3°C 61% Calm Calm 13.0 mph20.9 kmh 30.06 in1017.9 mb 0.00 in0.0 mm 0.00 in0.0 mm 0.00 in0.0 mm
01:27 AM 30.6°F-0.8°C 18.8°F-7.3°C 61% Calm Calm 13.0 mph20.9 kmh 30.06 in1017.9 mb 0.00 in0.0 mm 0.00 in0.0 mm 0.00 in0.0 mm
01:26 AM 30.6°F-0.8°C 18.8°F-7.3°C 61% Calm Calm 13.0 mph20.9 kmh 30.06 in1017.9 mb 0.00 in0.0 mm 0.00 in0.0 mm 0.00 in0.0 mm
01:25 AM 30.6°F-0.8°C 18.8°F-7.3°C 61% Calm Calm 13.0 mph20.9 kmh 30.06 in1017.9 mb 0.00 in0.0 mm 0.00 in0.0 mm 0.00 in0.0 mm
01:24 AM 30.6°F-0.8°C 18.8°F-7.3°C 61% Calm Calm 13.0 mph20.9 kmh 30.06 in1017.9 mb 0.00 in0.0 mm 0.00 in0.0 mm 0.00 in0.0 mm
01:23 AM 30.6°F-0.8°C 18.8°F-7.3°C 61% Calm Calm 13.0 mph20.9 kmh 30.06 in1017.9 mb 0.00 in0.0 mm 0.00 in0.0 mm 0.00 in0.0 mm
01:22 AM 30.6°F-0.8°C 18.8°F-7.3°C 61% Calm Calm 13.0 mph20.9 kmh 30.06 in1017.9 mb 0.00 in0.0 mm 0.00 in0.0 mm 0.00 in0.0 mm
01:21 AM 30.6°F-0.8°C 18.8°F-7.3°C 61% 8.9 mph WNW14.3 kmh WNW 13.0 mph20.9 kmh 30.06 in1017.9 mb 0.00 in0.0 mm 0.00 in0.0 mm 0.00 in0.0 mm
01:20 AM 30.6°F-0.8°C 18.8°F-7.3°C 61% Calm Calm 13.0 mph20.9 kmh 30.06 in1017.9 mb 0.00 in0.0 mm 0.00 in0.0 mm 0.00 in0.0 mm
01:19 AM 30.6°F-0.8°C 18.8°F-7.3°C 61% 5.3 mph W8.5 kmh W 13.0 mph20.9 kmh 30.06 in1017.9 mb 0.00 in0.0 mm 0.00 in0.0 mm 0.00 in0.0 mm
01:18 AM 30.6°F-0.8°C 18.8°F-7.3°C 61% Calm Calm 7.3 mph11.7 kmh 30.06 in1017.9 mb 0.00 in0.0 mm 0.00 in0.0 mm 0.00 in0.0 mm
01:17 AM 30.6°F-0.8°C 18.8°F-7.3°C 61% Calm Calm 7.3 mph11.7 kmh 30.06 in1017.9 mb 0.00 in0.0 mm 0.00 in0.0 mm 0.00 in0.0 mm
01:16 AM 30.6°F-0.8°C 18.8°F-7.3°C 61% Calm Calm 9.9 mph15.9 kmh 30.06 in1017.9 mb 0.00 in0.0 mm 0.00 in0.0 mm 0.00 in0.0 mm
01:15 AM 30.6°F-0.8°C 18.8°F-7.3°C 61% Calm Calm 9.9 mph15.9 kmh 30.06 in1017.9 mb 0.00 in0.0 mm 0.00 in0.0 mm 0.00 in0.0 mm
01:14 AM 30.6°F-0.8°C 18.8°F-7.3°C 61% Calm Calm 9.9 mph15.9 kmh 30.06 in1017.9 mb 0.00 in0.0 mm 0.00 in0.0 mm 0.00 in0.0 mm
01:13 AM 30.7°F-0.7°C 18.9°F-7.3°C 61% Calm Calm 9.9 mph15.9 kmh 30.06 in1017.9 mb 0.00 in0.0 mm 0.00 in0.0 mm 0.00 in0.0 mm
01:12 AM 30.7°F-0.7°C 18.9°F-7.3°C 61% Calm Calm 9.9 mph15.9 kmh 30.06 in1017.9 mb 0.00 in0.0 mm 0.00 in0.0 mm 0.00 in0.0 mm
01:11 AM 30.7°F-0.7°C 18.9°F-7.3°C 61% Calm Calm 9.9 mph15.9 kmh 30.06 in1017.9 mb 0.00 in0.0 mm 0.00 in0.0 mm 0.00 in0.0 mm
01:10 AM 30.7°F-0.7°C 18.9°F-7.3°C 61% 1.1 mph WNW1.8 kmh WNW 9.9 mph15.9 kmh 30.06 in1017.9 mb 0.00 in0.0 mm 0.00 in0.0 mm 0.00 in0.0 mm
01:09 AM 30.7°F-0.7°C 18.9°F-7.3°C 61% 4.7 mph NNW7.6 kmh NNW 9.9 mph15.9 kmh 30.06 in1017.9 mb 0.00 in0.0 mm 0.00 in0.0 mm 0.00 in0.0 mm
01:08 AM 30.7°F-0.7°C 18.9°F-7.3°C 61% Calm Calm 9.9 mph15.9 kmh 30.06 in1017.9 mb 0.00 in0.0 mm 0.00 in0.0 mm 0.00 in0.0 mm
01:07 AM 30.7°F-0.7°C 18.9°F-7.3°C 61% Calm Calm 9.9 mph15.9 kmh 30.06 in1017.9 mb 0.00 in0.0 mm 0.00 in0.0 mm 0.00 in0.0 mm
01:06 AM 30.7°F-0.7°C 18.9°F-7.3°C 61% 9.9 mph WNW15.9 kmh WNW 9.9 mph15.9 kmh 30.06 in1017.9 mb 0.00 in0.0 mm 0.00 in0.0 mm 0.00 in0.0 mm
01:05 AM 30.7°F-0.7°C 18.9°F-7.3°C 61% Calm Calm 7.8 mph12.6 kmh 30.06 in1017.9 mb 0.00 in0.0 mm 0.00 in0.0 mm 0.00 in0.0 mm
01:04 AM 30.7°F-0.7°C 18.9°F-7.3°C 61% 3.7 mph WNW6.0 kmh WNW 11.4 mph18.3 kmh 30.06 in1017.9 mb 0.00 in0.0 mm 0.00 in0.0 mm 0.00 in0.0 mm
01:03 AM 30.7°F-0.7°C 18.9°F-7.3°C 61% Calm Calm 11.4 mph18.3 kmh 30.06 in1017.9 mb 0.00 in0.0 mm 0.00 in0.0 mm 0.00 in0.0 mm
01:02 AM 30.7°F-0.7°C 18.9°F-7.3°C 61% 1.7 mph WNW2.7 kmh WNW 11.4 mph18.3 kmh 30.06 in1017.9 mb 0.00 in0.0 mm 0.00 in0.0 mm 0.00 in0.0 mm
01:01 AM 30.7°F-0.7°C 18.9°F-7.3°C 61% Calm Calm 11.4 mph18.3 kmh 30.06 in1017.9 mb 0.00 in0.0 mm 0.00 in0.0 mm 0.00 in0.0 mm
01:00 AM 30.7°F-0.7°C 18.9°F-7.3°C 61% 1.1 mph W1.8 kmh W 11.4 mph18.3 kmh 30.06 in1017.9 mb 0.00 in0.0 mm 0.00 in0.0 mm 0.00 in0.0 mm
12:59 AM 30.7°F-0.7°C 18.9°F-7.3°C 61% Calm Calm 11.4 mph18.3 kmh 30.06 in1017.9 mb 0.00 in0.0 mm 0.00 in0.0 mm 0.00 in0.0 mm
12:58 AM 30.7°F-0.7°C 18.9°F-7.3°C 61% 3.7 mph W6.0 kmh W 11.4 mph18.3 kmh 30.06 in1017.9 mb 0.00 in0.0 mm 0.00 in0.0 mm 0.00 in0.0 mm
12:57 AM 30.9°F-0.6°C 19.1°F-7.2°C 61% Calm Calm 11.4 mph18.3 kmh 30.06 in1017.9 mb 0.00 in0.0 mm 0.00 in0.0 mm 0.00 in0.0 mm
12:56 AM 30.9°F-0.6°C 18.7°F-7.4°C 60% Calm Calm 11.4 mph18.3 kmh 30.06 in1017.9 mb 0.00 in0.0 mm 0.00 in0.0 mm 0.00 in0.0 mm
12:55 AM 30.9°F-0.6°C 18.7°F-7.4°C 60% 7.8 mph WSW12.6 kmh WSW 11.4 mph18.3 kmh 30.06 in1017.9 mb 0.00 in0.0 mm 0.00 in0.0 mm 0.00 in0.0 mm
12:54 AM 30.9°F-0.6°C 18.7°F-7.4°C 60% Calm Calm 10.9 mph17.5 kmh 30.06 in1017.9 mb 0.00 in0.0 mm 0.00 in0.0 mm 0.00 in0.0 mm
12:53 AM 30.9°F-0.6°C 18.7°F-7.4°C 60% 4.7 mph W7.6 kmh W 10.9 mph17.5 kmh 30.06 in1017.9 mb 0.00 in0.0 mm 0.00 in0.0 mm 0.00 in0.0 mm
12:52 AM 30.9°F-0.6°C 18.7°F-7.4°C 60% Calm Calm 10.9 mph17.5 kmh 30.06 in1017.9 mb 0.00 in0.0 mm 0.00 in0.0 mm 0.00 in0.0 mm
12:51 AM 30.9°F-0.6°C 18.7°F-7.4°C 60% Calm Calm 10.9 mph17.5 kmh 30.06 in1017.9 mb 0.00 in0.0 mm 0.00 in0.0 mm 0.00 in0.0 mm
12:50 AM 30.9°F-0.6°C 18.7°F-7.4°C 60% Calm Calm 10.9 mph17.5 kmh 30.06 in1017.9 mb 0.00 in0.0 mm 0.00 in0.0 mm 0.00 in0.0 mm
12:49 AM 30.9°F-0.6°C 18.7°F-7.4°C 60% Calm Calm 10.9 mph17.5 kmh 30.06 in1017.9 mb 0.00 in0.0 mm 0.00 in0.0 mm 0.00 in0.0 mm
12:48 AM 30.9°F-0.6°C 18.7°F-7.4°C 60% 2.2 mph W3.5 kmh W 10.9 mph17.5 kmh 30.05 in1017.6 mb 0.00 in0.0 mm 0.00 in0.0 mm 0.00 in0.0 mm
12:47 AM 30.9°F-0.6°C 18.7°F-7.4°C 60% Calm Calm 10.9 mph17.5 kmh 30.05 in1017.6 mb 0.00 in0.0 mm 0.00 in0.0 mm 0.00 in0.0 mm
12:46 AM 30.9°F-0.6°C 18.7°F-7.4°C 60% Calm Calm 10.9 mph17.5 kmh 30.05 in1017.6 mb 0.00 in0.0 mm 0.00 in0.0 mm 0.00 in0.0 mm
12:45 AM 30.9°F-0.6°C 18.7°F-7.4°C 60% 9.4 mph NW15.1 kmh NW 10.9 mph17.5 kmh 30.05 in1017.6 mb 0.00 in0.0 mm 0.00 in0.0 mm 0.00 in0.0 mm
12:44 AM 30.9°F-0.6°C 19.1°F-7.2°C 61% 3.7 mph W6.0 kmh W 12.5 mph20.1 kmh 30.05 in1017.6 mb 0.00 in0.0 mm 0.00 in0.0 mm 0.00 in0.0 mm
12:43 AM 30.9°F-0.6°C 19.1°F-7.2°C 61% Calm Calm 12.5 mph20.1 kmh 30.05 in1017.6 mb 0.00 in0.0 mm 0.00 in0.0 mm 0.00 in0.0 mm
12:42 AM 30.9°F-0.6°C 19.1°F-7.2°C 61% Calm Calm 12.5 mph20.1 kmh 30.05 in1017.6 mb 0.00 in0.0 mm 0.00 in0.0 mm 0.00 in0.0 mm
12:41 AM 30.9°F-0.6°C 19.1°F-7.2°C 61% Calm Calm 12.5 mph20.1 kmh 30.05 in1017.6 mb 0.00 in0.0 mm 0.00 in0.0 mm 0.00 in0.0 mm
12:40 AM 30.1°F-1.1°C 18.3°F-7.6°C 61% Calm Calm 12.5 mph20.1 kmh 30.05 in1017.6 mb 0.00 in0.0 mm 0.00 in0.0 mm 0.00 in0.0 mm
12:39 AM 31.1°F-0.5°C 19.2°F-7.1°C 61% Calm Calm 12.5 mph20.1 kmh 30.05 in1017.6 mb 0.00 in0.0 mm 0.00 in0.0 mm 0.00 in0.0 mm
12:38 AM 31.1°F-0.5°C 18.9°F-7.3°C 60% 1.7 mph WNW2.7 kmh WNW 12.5 mph20.1 kmh 30.05 in1017.6 mb 0.00 in0.0 mm 0.00 in0.0 mm 0.00 in0.0 mm
12:37 AM 31.1°F-0.5°C 18.9°F-7.3°C 60% 9.4 mph WNW15.1 kmh WNW 12.5 mph20.1 kmh 30.05 in1017.6 mb 0.00 in0.0 mm 0.00 in0.0 mm 0.00 in0.0 mm
12:36 AM 31.1°F-0.5°C 18.9°F-7.3°C 60% Calm Calm 12.5 mph20.1 kmh 30.05 in1017.6 mb 0.00 in0.0 mm 0.00 in0.0 mm 0.00 in0.0 mm
12:35 AM 31.1°F-0.5°C 18.9°F-7.3°C 60% Calm Calm 12.5 mph20.1 kmh 30.05 in1017.6 mb 0.00 in0.0 mm 0.00 in0.0 mm 0.00 in0.0 mm
12:34 AM 31.1°F-0.5°C 18.9°F-7.3°C 60% 12.5 mph NW20.1 kmh NW 12.5 mph20.1 kmh 30.05 in1017.6 mb 0.00 in0.0 mm 0.00 in0.0 mm 0.00 in0.0 mm
12:33 AM 31.1°F-0.5°C 18.9°F-7.3°C 60% Calm Calm -- 30.05 in1017.6 mb 0.00 in0.0 mm 0.00 in0.0 mm 0.00 in0.0 mm
12:32 AM 31.1°F-0.5°C 18.9°F-7.3°C 60% Calm Calm -- 30.05 in1017.6 mb 0.00 in0.0 mm 0.00 in0.0 mm 0.00 in0.0 mm
12:31 AM 31.1°F-0.5°C 18.9°F-7.3°C 60% Calm Calm -- 30.05 in1017.6 mb 0.00 in0.0 mm 0.00 in0.0 mm 0.00 in0.0 mm
12:30 AM 31.1°F-0.5°C 18.9°F-7.3°C 60% Calm Calm -- 30.05 in1017.6 mb 0.00 in0.0 mm 0.00 in0.0 mm 0.00 in0.0 mm
12:29 AM 31.1°F-0.5°C 18.9°F-7.3°C 60% Calm Calm 1.7 mph2.7 kmh 30.05 in1017.6 mb 0.00 in0.0 mm 0.00 in0.0 mm 0.00 in0.0 mm
12:28 AM 31.1°F-0.5°C 18.9°F-7.3°C 60% Calm Calm 2.7 mph4.3 kmh 30.05 in1017.6 mb 0.00 in0.0 mm 0.00 in0.0 mm 0.00 in0.0 mm
12:27 AM 31.3°F-0.4°C 19.0°F-7.2°C 60% Calm Calm 3.2 mph5.1 kmh 30.05 in1017.6 mb 0.00 in0.0 mm 0.00 in0.0 mm 0.00 in0.0 mm
12:26 AM 31.3°F-0.4°C 19.0°F-7.2°C 60% Calm Calm 3.2 mph5.1 kmh 30.05 in1017.6 mb 0.00 in0.0 mm 0.00 in0.0 mm 0.00 in0.0 mm
12:25 AM 31.3°F-0.4°C 19.0°F-7.2°C 60% Calm Calm 3.2 mph5.1 kmh 30.05 in1017.6 mb 0.00 in0.0 mm 0.00 in0.0 mm 0.00 in0.0 mm
12:24 AM 31.3°F-0.4°C 19.0°F-7.2°C 60% Calm Calm 3.2 mph5.1 kmh 30.05 in1017.6 mb 0.00 in0.0 mm 0.00 in0.0 mm 0.00 in0.0 mm
12:23 AM 31.3°F-0.4°C 19.0°F-7.2°C 60% Calm Calm 3.2 mph5.1 kmh 30.05 in1017.6 mb 0.00 in0.0 mm 0.00 in0.0 mm 0.00 in0.0 mm
12:22 AM 31.3°F-0.4°C 19.0°F-7.2°C 60% Calm Calm 3.2 mph5.1 kmh 30.05 in1017.6 mb 0.00 in0.0 mm 0.00 in0.0 mm 0.00 in0.0 mm
12:21 AM 31.3°F-0.4°C 19.0°F-7.2°C 60% Calm Calm 3.2 mph5.1 kmh 30.05 in1017.6 mb 0.00 in0.0 mm 0.00 in0.0 mm 0.00 in0.0 mm
12:20 AM 31.5°F-0.3°C 19.2°F-7.1°C 60% Calm Calm 3.2 mph5.1 kmh 30.05 in1017.6 mb 0.00 in0.0 mm 0.00 in0.0 mm 0.00 in0.0 mm
12:19 AM 31.5°F-0.3°C 19.2°F-7.1°C 60% 1.1 mph W1.8 kmh W 3.2 mph5.1 kmh 30.05 in1017.6 mb 0.00 in0.0 mm 0.00 in0.0 mm 0.00 in0.0 mm
12:18 AM 31.5°F-0.3°C 19.2°F-7.1°C 60% 2.7 mph W4.3 kmh W 3.2 mph5.1 kmh 30.05 in1017.6 mb 0.00 in0.0 mm 0.00 in0.0 mm 0.00 in0.0 mm
12:17 AM 31.5°F-0.3°C 19.2°F-7.1°C 60% Calm Calm 2.7 mph4.3 kmh 30.05 in1017.6 mb 0.00 in0.0 mm 0.00 in0.0 mm 0.00 in0.0 mm
12:16 AM 31.5°F-0.3°C 19.2°F-7.1°C 60% Calm Calm 9.4 mph15.1 kmh 30.05 in1017.6 mb 0.00 in0.0 mm 0.00 in0.0 mm 0.00 in0.0 mm
12:15 AM 31.5°F-0.3°C 19.2°F-7.1°C 60% Calm Calm 10.4 mph16.7 kmh 30.05 in1017.6 mb 0.00 in0.0 mm 0.00 in0.0 mm 0.00 in0.0 mm
12:14 AM 31.5°F-0.3°C 19.2°F-7.1°C 60% Calm Calm 10.4 mph16.7 kmh 30.05 in1017.6 mb 0.00 in0.0 mm 0.00 in0.0 mm 0.00 in0.0 mm
12:13 AM 31.5°F-0.3°C 19.2°F-7.1°C 60% Calm Calm 10.4 mph16.7 kmh 30.05 in1017.6 mb 0.00 in0.0 mm 0.00 in0.0 mm 0.00 in0.0 mm
12:12 AM 31.5°F-0.3°C 19.2°F-7.1°C 60% Calm Calm 10.4 mph16.7 kmh 30.05 in1017.6 mb 0.00 in0.0 mm 0.00 in0.0 mm 0.00 in0.0 mm
12:11 AM 31.6°F-0.2°C 19.3°F-7.1°C 60% Calm Calm 10.4 mph16.7 kmh 30.05 in1017.6 mb 0.00 in0.0 mm 0.00 in0.0 mm 0.00 in0.0 mm
12:10 AM 31.6°F-0.2°C 19.3°F-7.1°C 60% Calm Calm 10.4 mph16.7 kmh 30.05 in1017.6 mb 0.00 in0.0 mm 0.00 in0.0 mm 0.00 in0.0 mm
12:09 AM 31.6°F-0.2°C 19.3°F-7.1°C 60% Calm Calm 10.4 mph16.7 kmh 30.05 in1017.6 mb 0.00 in0.0 mm 0.00 in0.0 mm 0.00 in0.0 mm
12:08 AM 31.8°F-0.1°C 19.5°F-6.9°C 60% Calm Calm 10.4 mph16.7 kmh 30.05 in1017.6 mb 0.00 in0.0 mm 0.00 in0.0 mm 0.00 in0.0 mm
12:07 AM 31.8°F-0.1°C 19.5°F-6.9°C 60% Calm Calm 10.4 mph16.7 kmh 30.05 in1017.6 mb 0.00 in0.0 mm 0.00 in0.0 mm 0.00 in0.0 mm
12:06 AM 31.8°F-0.1°C 19.5°F-6.9°C 60% 9.4 mph W15.1 kmh W 10.4 mph16.7 kmh 30.05 in1017.6 mb 0.00 in0.0 mm 0.00 in0.0 mm 0.00 in0.0 mm
12:05 AM 31.8°F-0.1°C 19.5°F-6.9°C 60% 9.9 mph WNW15.9 kmh WNW 9.9 mph15.9 kmh 30.05 in1017.6 mb 0.00 in0.0 mm 0.00 in0.0 mm 0.00 in0.0 mm
12:04 AM 31.8°F-0.1°C 19.5°F-6.9°C 60% Calm Calm 7.3 mph11.7 kmh 30.05 in1017.6 mb 0.00 in0.0 mm 0.00 in0.0 mm 0.00 in0.0 mm
12:03 AM 31.8°F-0.1°C 19.5°F-6.9°C 60% Calm Calm 7.3 mph11.7 kmh 30.05 in1017.6 mb 0.00 in0.0 mm 0.00 in0.0 mm 0.00 in0.0 mm
12:02 AM 31.8°F-0.1°C 19.5°F-6.9°C 60% Calm Calm 7.8 mph12.6 kmh 30.05 in1017.6 mb 0.00 in0.0 mm 0.00 in0.0 mm 0.00 in0.0 mm
12:01 AM 31.8°F-0.1°C 19.5°F-6.9°C 60% 1.1 mph WNW1.8 kmh WNW 9.9 mph15.9 kmh 30.05 in1017.6 mb 0.00 in0.0 mm 0.00 in0.0 mm 0.00 in0.0 mm
12:00 AM 31.8°F-0.1°C 19.5°F-6.9°C 60% 7.3 mph WNW11.7 kmh WNW 9.9 mph15.9 kmh 30.05 in1017.6 mb 0.00 in0.0 mm 0.00 in0.0 mm 0.00 in0.0 mm